Provisional Data: Little Chiques Creek near Mount Joy, PA


Please select a monitoring station.
Please select start date.
Please select start date.

Toggle Unit: C/F Toggle Unit: C/F
Sample Time Temperature (C) Temperature (F) Specific Conductivity (mS/cm) pH   Turbidity (NTU+) DO (mg/L)
3/7/2021 12:00:00 AM 4.88 40.784 0.345 7.51 7.05 12.45
3/7/2021 12:15:00 AM 4.83 40.694 0.345 7.51 7.05 12.44
3/7/2021 12:30:00 AM 4.79 40.622 0.346 7.51 7.36 12.45
3/7/2021 12:45:00 AM 4.77 40.586 0.346 7.5 7.14 12.46
3/7/2021 1:00:00 AM 4.74 40.532 0.346 7.5 7.34 12.44
3/7/2021 1:15:00 AM 4.72 40.496 0.346 7.5 7.25 12.5
3/7/2021 1:30:00 AM 4.71 40.478 0.346 7.5 7.02 12.52
3/7/2021 1:45:00 AM 4.68 40.424 0.346 7.5 7.11 12.46
3/7/2021 2:00:00 AM 4.66 40.388 0.346 7.49 7.02 12.51
3/7/2021 2:15:00 AM 4.63 40.334 0.346 7.49 6.98 12.53
3/7/2021 2:30:00 AM 4.61 40.298 0.347 7.49 7.18 12.53
3/7/2021 2:45:00 AM 4.57 40.226 0.346 7.49 7.09 12.53
3/7/2021 3:00:00 AM 4.55 40.19 0.346 7.49 7.03 12.52
3/7/2021 3:15:00 AM 4.52 40.136 0.346 7.49 6.82 12.56
3/7/2021 3:30:00 AM 4.48 40.064 0.346 7.49 7.05 12.58
3/7/2021 3:45:00 AM 4.45 40.01 0.347 7.49 6.99 12.64
3/7/2021 4:00:00 AM 3.83 38.894 0.302 6.49 6 10.9
3/7/2021 4:15:00 AM 3.79 38.822 0.302 6.49 6.18 10.96
3/7/2021 4:30:00 AM 4.26 39.668 0.341 7.35 7.14 12.45
3/7/2021 4:45:00 AM 4.29 39.722 0.347 7.47 7.09 12.65
3/7/2021 5:00:00 AM 4.25 39.65 0.347 7.49 7.05 12.66
3/7/2021 5:15:00 AM 4.2 39.56 0.347 7.49 7.15 12.66
3/7/2021 5:30:00 AM 4.15 39.47 0.347 7.49 7.16 12.67
3/7/2021 5:45:00 AM 3.55 38.39 0.302 6.49 6.23 10.96
3/7/2021 6:00:00 AM 3.98 39.164 0.342 7.35 6.95 12.49
3/7/2021 6:15:00 AM 3.99 39.182 0.347 7.47 7.11 12.72
3/7/2021 6:30:00 AM 3.95 39.11 0.348 7.49 7.13 12.75
3/7/2021 6:45:00 AM 3.91 39.038 0.348 7.49 6.98 12.75
3/7/2021 7:00:00 AM 3.87 38.966 0.348 7.48 6.71 12.81
3/7/2021 7:15:00 AM 3.83 38.894 0.349 7.49 6.75 12.85
3/7/2021 7:30:00 AM 3.81 38.858 0.349 7.49 6.78 12.93
3/7/2021 7:45:00 AM 3.81 38.858 0.349 7.49 6.87 12.92
3/7/2021 8:00:00 AM 3.81 38.858 0.349 7.49 6.88 12.96
3/7/2021 8:15:00 AM 3.82 38.876 0.348 7.49 6.8 12.93
3/7/2021 8:30:00 AM 3.85 38.93 0.349 7.5 6.69 13.03
3/7/2021 8:45:00 AM 3.88 38.984 0.349 7.51 6.79 13.07
3/7/2021 9:00:00 AM 3.93 39.074 0.349 7.51 6.5 13.12
3/7/2021 9:15:00 AM 3.99 39.182 0.349 7.51 6.58 13.06
3/7/2021 9:30:00 AM 4.06 39.308 0.349 7.52 6.63 13.11
3/7/2021 9:45:00 AM 4.14 39.452 0.349 7.53 6.83 13.09
3/7/2021 10:00:00 AM 4.24 39.632 0.349 7.53 6.92 13.11
3/7/2021 10:15:00 AM 4.34 39.812 0.349 7.54 6.81 13.14
3/7/2021 10:30:00 AM 4.45 40.01 0.349 7.54 6.8 13.18
3/7/2021 10:45:00 AM 4.39 39.902 0.335 7.24 6.05 12.62
3/7/2021 11:00:00 AM 4.67 40.406 0.347 7.51 6.34 13.13
3/7/2021 11:15:00 AM 4.83 40.694 0.349 7.55 6.25 13.15
3/7/2021 11:30:00 AM 4.33 39.794 0.303 6.56 5.06 11.4
3/7/2021 11:45:00 AM 5.03 41.054 0.343 7.43 5.9 12.93
3/7/2021 12:00:00 PM 5.24 41.432 0.348 7.56 6.12 13.08
3/7/2021 12:15:00 PM 5.4 41.72 0.349 7.58 5.96 13.14
3/7/2021 12:30:00 PM 5.54 41.972 0.349 7.59 6.34 13.1
3/7/2021 12:45:00 PM 5.68 42.224 0.349 7.59 6.17 13.01
3/7/2021 1:00:00 PM 5.79 42.422 0.348 7.59 5.86 13.04
3/7/2021 1:15:00 PM 5.9 42.62 0.348 7.59 5.81 13.1
3/7/2021 1:30:00 PM 5.21 41.378 0.303 6.58 4.84 11.29
3/7/2021 1:45:00 PM 5.98 42.764 0.343 7.46 5.58 12.79
3/7/2021 2:00:00 PM 6.16 43.088 0.348 7.58 5.66 12.86
3/7/2021 2:15:00 PM 6.24 43.232 0.349 7.6 5.59 12.94
3/7/2021 2:30:00 PM 6.32 43.376 0.349 7.6 5.73 12.82
3/7/2021 2:45:00 PM 6.4 43.52 0.349 7.6 5.72 12.92
3/7/2021 3:00:00 PM 6.48 43.664 0.349 7.6 5.83 12.86
3/7/2021 3:15:00 PM 6.52 43.736 0.349 7.61 5.74 12.85
3/7/2021 3:30:00 PM 6.57 43.826 0.349 7.61 5.93 12.8
3/7/2021 3:45:00 PM 6.61 43.898 0.349 7.61 6.3 12.72
3/7/2021 4:00:00 PM 6.64 43.952 0.349 7.61 6.21 12.74
3/7/2021 4:15:00 PM 6.66 43.988 0.349 7.61 6.07 12.68
3/7/2021 4:30:00 PM 6.67 44.006 0.348 7.61 6.39 12.64
3/7/2021 4:45:00 PM 6.68 44.024 0.349 7.6 6.06 12.6
3/7/2021 5:00:00 PM 6.69 44.042 0.348 7.6 5.94 12.45
3/7/2021 5:15:00 PM 6.7 44.06 0.349 7.6 5.95 12.49
3/7/2021 5:30:00 PM 6.7 44.06 0.348 7.6 5.86 12.48
3/7/2021 5:45:00 PM 6.7 44.06 0.349 7.6 5.95 12.4
3/7/2021 6:00:00 PM 6.68 44.024 0.349 7.59 5.99 12.37
3/7/2021 6:15:00 PM 6.65 43.97 0.349 7.59 6.03 12.34
3/7/2021 6:30:00 PM 6.62 43.916 0.349 7.58 6.18 12.28
3/7/2021 6:45:00 PM 6.58 43.844 0.349 7.58 6.14 12.27
3/7/2021 7:00:00 PM 6.54 43.772 0.349 7.57 6.23 12.17
3/7/2021 7:15:00 PM 6.51 43.718 0.349 7.57 6.19 12.32
3/7/2021 7:30:00 PM 6.47 43.646 0.349 7.57 6.16 12.27
3/7/2021 7:45:00 PM 6.44 43.592 0.349 7.56 6.28 12.22
3/7/2021 8:00:00 PM 6.41 43.538 0.349 7.56 6.28 12.19
3/7/2021 8:15:00 PM 6.38 43.484 0.349 7.55 6.6 12.16
3/7/2021 8:30:00 PM 6.36 43.448 0.349 7.55 6.48 12.18
3/7/2021 8:45:00 PM 6.33 43.394 0.349 7.55 6.77 12.11
3/7/2021 9:00:00 PM 6.3 43.34 0.349 7.55 6.77 12.07
3/7/2021 9:15:00 PM 6.27 43.286 0.349 7.54 6.7 12.11
3/7/2021 9:30:00 PM 6.24 43.232 0.349 7.54 6.62 12.07
3/7/2021 9:45:00 PM 6.21 43.178 0.349 7.54 6.71 12.09
3/7/2021 10:00:00 PM 6.17 43.106 0.349 7.54 6.67 12.09
3/7/2021 10:15:00 PM 6.14 43.052 0.349 7.54 6.89 12.08
3/7/2021 10:30:00 PM 6.1 42.98 0.348 7.53 7.09 12.11
3/7/2021 10:45:00 PM 6.07 42.926 0.349 7.53 7.18 12.13
3/7/2021 11:00:00 PM 6.02 42.836 0.349 7.53 7.25 12.09
3/7/2021 11:15:00 PM 5.98 42.764 0.349 7.53 7.13 12.1
3/7/2021 11:30:00 PM 5.92 42.656 0.349 7.52 6.98 12.08
3/7/2021 11:45:00 PM 5.86 42.548 0.349 7.52 6.98 12.11
3/8/2021 12:00:00 AM 5.81 42.458 0.35 7.52 6.98 12.14
3/8/2021 12:15:00 AM 5.74 42.332 0.35 7.52 7.1 12.14
3/8/2021 12:30:00 AM 4.91 40.838 0.304 6.51 6.11 10.54
3/8/2021 12:45:00 AM 5.51 41.918 0.344 7.38 7.19 11.98
3/8/2021 1:00:00 AM 5.53 41.954 0.349 7.49 7.31 12.16
3/8/2021 1:15:00 AM 5.47 41.846 0.35 7.51 7.32 12.26
3/8/2021 1:30:00 AM 5.41 41.738 0.35 7.51 7.34 12.24
3/8/2021 1:45:00 AM 5.35 41.63 0.351 7.51 7.46 12.2
3/8/2021 2:00:00 AM 5.28 41.504 0.35 7.51 7.35 12.23
3/8/2021 2:15:00 AM 5.22 41.396 0.351 7.51 7.14 12.24
3/8/2021 2:30:00 AM 5.15 41.27 0.35 7.51 7.08 12.27
3/8/2021 2:45:00 AM 5.08 41.144 0.35 7.51 7.02 12.34
3/8/2021 3:00:00 AM 5.02 41.036 0.351 7.51 7.05 12.33
3/8/2021 3:15:00 AM 4.95 40.91 0.351 7.5 7.2 12.33
3/8/2021 3:30:00 AM 4.88 40.784 0.351 7.5 7.16 12.41
3/8/2021 3:45:00 AM 4.81 40.658 0.351 7.5 7.11 12.37
3/8/2021 4:00:00 AM 4.74 40.532 0.351 7.5 7.25 12.46
3/8/2021 4:15:00 AM 4.67 40.406 0.352 7.5 7.24 12.46
3/8/2021 4:30:00 AM 4.61 40.298 0.352 7.5 7.25 12.5
3/8/2021 4:45:00 AM 4.53 40.154 0.352 7.5 7.28 12.47
3/8/2021 5:00:00 AM 3.87 38.966 0.307 6.5 6.16 10.9
3/8/2021 5:15:00 AM 4.32 39.776 0.346 7.36 7.19 12.29
3/8/2021 5:30:00 AM 4.32 39.776 0.352 7.47 7.12 12.54
3/8/2021 5:45:00 AM 4.26 39.668 0.353 7.49 6.96 12.6
3/8/2021 6:00:00 AM 4.19 39.542 0.353 7.49 7 12.63
3/8/2021 6:15:00 AM 4.12 39.416 0.353 7.49 7.01 12.69
3/8/2021 6:30:00 AM 4.05 39.29 0.353 7.49 7.03 12.73
3/8/2021 6:45:00 AM 3.99 39.182 0.354 7.49 7.22 12.73
3/8/2021 7:00:00 AM 3.93 39.074 0.354 7.48 7 12.69
3/8/2021 7:15:00 AM 3.88 38.984 0.354 7.48 6.41 12.83
3/8/2021 7:30:00 AM 3.85 38.93 0.354 7.49 6.38 12.84
3/8/2021 7:45:00 AM 3.82 38.876 0.354 7.49 6.98 12.91
3/8/2021 8:00:00 AM 3.82 38.876 0.354 7.49 7.06 12.97
3/8/2021 8:15:00 AM 3.84 38.912 0.354 7.5 6.78 13.05
3/8/2021 8:30:00 AM 3.86 38.948 0.354 7.51 6 13.1
3/8/2021 8:45:00 AM 3.89 39.002 0.354 7.51 6.06 13.13
3/8/2021 9:00:00 AM 3.92 39.056 0.354 7.52 5.72 13.16
3/8/2021 9:15:00 AM 3.96 39.128 0.354 7.52 5.82 13.2
3/8/2021 9:30:00 AM 4.02 39.236 0.355 7.52 5.83 13.18
3/8/2021 9:45:00 AM 4.09 39.362 0.355 7.53 5.64 13.13
3/8/2021 10:00:00 AM 4.18 39.524 0.355 7.54 5.62 13.24
3/8/2021 10:15:00 AM 4.29 39.722 0.354 7.54 5.83 13.34
3/8/2021 10:30:00 AM 4.4 39.92 0.355 7.55 5.56 13.27
3/8/2021 10:45:00 AM 4.51 40.118 0.354 7.56 5.57 13.28
3/8/2021 11:00:00 AM 4.65 40.37 0.355 7.56 5.68 13.27
3/8/2021 11:15:00 AM 4.78 40.604 0.355 7.57 5.46 13.33
3/8/2021 11:30:00 AM 4.91 40.838 0.354 7.57 5.21 13.3
3/8/2021 11:45:00 AM 5.06 41.108 0.354 7.58 5.38 13.17
3/8/2021 12:00:00 PM 5.21 41.378 0.354 7.58 5.22 13.23
3/8/2021 12:15:00 PM 5.35 41.63 0.354 7.6 5.11 13.23
3/8/2021 12:30:00 PM 5.5 41.9 0.355 7.59 5.41 13.24
3/8/2021 12:45:00 PM 5.65 42.17 0.355 7.6 5.09 13.25
3/8/2021 1:00:00 PM 5.78 42.404 0.355 7.6 5.01 13.27
3/8/2021 1:15:00 PM 5.89 42.602 0.355 7.61 5.09 13.19
3/8/2021 1:30:00 PM 5.99 42.782 0.355 7.61 5.01 13.21
3/8/2021 1:45:00 PM 6.08 42.944 0.355 7.62 5.02 13.2
3/8/2021 2:00:00 PM 6.16 43.088 0.354 7.62 5.02 13.04
3/8/2021 2:15:00 PM 6.22 43.196 0.354 7.62 4.9 13.1
3/8/2021 2:30:00 PM 6.29 43.322 0.354 7.62 4.93 13.07
3/8/2021 2:45:00 PM 6.37 43.466 0.354 7.63 4.95 13.12
3/8/2021 3:00:00 PM 6.44 43.592 0.354 7.63 4.96 13.06
3/8/2021 3:15:00 PM 6.5 43.7 0.354 7.63 5.03 12.96
3/8/2021 3:30:00 PM 6.55 43.79 0.354 7.64 4.99 12.97
3/8/2021 3:45:00 PM 6.59 43.862 0.354 7.64 5.07 12.83
3/8/2021 4:00:00 PM 6.63 43.934 0.354 7.64 5.06 12.89
3/8/2021 4:15:00 PM 6.67 44.006 0.354 7.63 5.36 12.84
3/8/2021 4:30:00 PM 6.69 44.042 0.354 7.64 5.19 12.79
3/8/2021 4:45:00 PM 6.72 44.096 0.354 7.64 5.21 12.81
3/8/2021 5:00:00 PM 6.75 44.15 0.353 7.64 5.09 12.75
3/8/2021 5:15:00 PM 6.78 44.204 0.353 7.63 5.19 12.68
3/8/2021 5:30:00 PM 6.8 44.24 0.354 7.62 5.36 12.6
3/8/2021 5:45:00 PM 6.81 44.258 0.354 7.62 5.45 12.54
3/8/2021 6:00:00 PM 6.81 44.258 0.354 7.61 5.38 12.47
3/8/2021 6:15:00 PM 6.8 44.24 0.354 7.61 5.58 12.44
3/8/2021 6:30:00 PM 6.77 44.186 0.353 7.61 5.72 12.36
3/8/2021 6:45:00 PM 6.75 44.15 0.354 7.6 5.98 10.68
3/8/2021 7:00:00 PM 6.73 44.114 0.353 7.59 6.14 12.17
3/8/2021 7:15:00 PM 6.7 44.06 0.353 7.59 5.96 12.26
3/8/2021 7:30:00 PM 6.69 44.042 0.353 7.59 5.98 12.29
3/8/2021 7:45:00 PM 6.67 44.006 0.353 7.58 6.14 12.23
3/8/2021 8:00:00 PM 6.65 43.97 0.353 7.57 6.23 12.24
3/8/2021 8:15:00 PM 6.63 43.934 0.353 7.58 6.11 12.15
3/8/2021 8:30:00 PM 6.61 43.898 0.353 7.57 6.01 12.14
3/8/2021 8:45:00 PM 6.58 43.844 0.353 7.57 6.14 12.14
3/8/2021 9:00:00 PM 6.56 43.808 0.353 7.57 6.03 12.08
3/8/2021 9:15:00 PM 6.55 43.79 0.353 7.56 6.03 12.04
3/8/2021 9:30:00 PM 5.66 42.188 0.307 6.55 5.17 10.45
3/8/2021 9:45:00 PM 6.4 43.52 0.347 7.41 6.02 11.87
3/8/2021 10:00:00 PM 6.49 43.682 0.352 7.53 6.15 12.05
3/8/2021 10:15:00 PM 6.5 43.7 0.353 7.54 5.96 12.03
3/8/2021 10:30:00 PM 6.48 43.664 0.353 7.54 5.99 12.03
3/8/2021 10:45:00 PM 6.46 43.628 0.353 7.54 6.1 12.03
3/8/2021 11:00:00 PM 6.45 43.61 0.353 7.54 6.13 12
3/8/2021 11:15:00 PM 6.42 43.556 0.353 7.54 6.12 12.03
3/8/2021 11:30:00 PM 6.39 43.502 0.353 7.54 6.22 11.95
3/8/2021 11:45:00 PM 6.36 43.448 0.353 7.54 6.13 11.93
3/9/2021 12:00:00 AM 6.33 43.394 0.353 7.53 6.2 11.98
3/9/2021 12:15:00 AM 6.3 43.34 0.353 7.53 6.27 11.98
3/9/2021 12:30:00 AM 6.26 43.268 0.353 7.53 6.16 12.02
3/9/2021 12:45:00 AM 6.22 43.196 0.353 7.52 6.26 11.99
3/9/2021 1:00:00 AM 6.17 43.106 0.353 7.52 6.32 12
3/9/2021 1:15:00 AM 6.13 43.034 0.353 7.52 6.44 12
3/9/2021 1:30:00 AM 6.09 42.962 0.353 7.52 6.47 11.95
3/9/2021 1:45:00 AM 6.05 42.89 0.353 7.51 6.41 12.04
3/9/2021 2:00:00 AM 6.01 42.818 0.353 7.52 6.47 12.06
3/9/2021 2:15:00 AM 5.97 42.746 0.354 7.52 6.59 12.03
3/9/2021 2:30:00 AM 5.92 42.656 0.354 7.52 6.44 12.03
3/9/2021 2:45:00 AM 5.88 42.584 0.354 7.51 6.57 12.09
3/9/2021 3:00:00 AM 5.84 42.512 0.354 7.51 6.49 12.07
3/9/2021 3:15:00 AM 5.8 42.44 0.354 7.51 6.65 12.06
3/9/2021 3:30:00 AM 5.77 42.386 0.354 7.51 6.67 12.11
3/9/2021 3:45:00 AM 5.74 42.332 0.354 7.52 6.82 12.08
3/9/2021 4:00:00 AM 5.72 42.296 0.354 7.51 6.52 12.07
3/9/2021 4:15:00 AM 5.7 42.26 0.355 7.51 7.22 12.08
3/9/2021 4:30:00 AM 5.67 42.206 0.355 7.51 7.07 12.1
3/9/2021 4:45:00 AM 5.64 42.152 0.354 7.51 6.63 12.13
3/9/2021 5:00:00 AM 5.61 42.098 0.355 7.51 6.78 12.14
3/9/2021 5:15:00 AM 5.58 42.044 0.355 7.51 6.75 12.12
3/9/2021 5:30:00 AM 5.54 41.972 0.355 7.51 7.12 12.15
3/9/2021 5:45:00 AM 5.52 41.936 0.355 7.5 7.27 12.16
3/9/2021 6:00:00 AM 5.48 41.864 0.355 7.51 7.43 12.16
3/9/2021 6:15:00 AM 5.44 41.792 0.355 7.51 7.39 12.17
3/9/2021 6:30:00 AM 5.39 41.702 0.355 7.51 7.08 12.2
3/9/2021 6:45:00 AM 5.34 41.612 0.355 7.5 6.88 12.21
3/9/2021 7:00:00 AM 5.3 41.54 0.355 7.51 6.8 12.22
3/9/2021 7:15:00 AM 5.27 41.486 0.355 7.51 6.71 12.27
3/9/2021 7:30:00 AM 5.26 41.468 0.355 7.51 6.36 12.23
3/9/2021 7:45:00 AM 5.25 41.45 0.355 7.52 6.07 12.35
3/9/2021 8:00:00 AM 5.27 41.486 0.356 7.52 5.86 12.45
3/9/2021 8:15:00 AM 5.3 41.54 0.355 7.52 5.83 12.49
3/9/2021 8:30:00 AM 4.65 40.37 0.309 6.53 4.97 10.88
3/9/2021 8:45:00 AM 5.31 41.558 0.349 7.4 5.58 12.41
3/9/2021 9:00:00 AM 5.46 41.828 0.354 7.53 5.76 12.63
3/9/2021 9:15:00 AM 5.54 41.972 0.355 7.55 5.64 12.69
3/9/2021 9:30:00 AM 5.63 42.134 0.355 7.56 5.63 12.72
3/9/2021 9:45:00 AM 5.73 42.314 0.355 7.57 5.78 12.73
3/9/2021 10:00:00 AM 5.84 42.512 0.355 7.57 5.69 12.78
3/9/2021 10:15:00 AM 5.96 42.728 0.355 7.58 5.71 12.8
3/9/2021 10:30:00 AM 6.1 42.98 0.355 7.58 5.61 12.8
3/9/2021 10:45:00 AM 6.24 43.232 0.355 7.6 5.42 12.79
3/9/2021 11:00:00 AM 6.38 43.484 0.355 7.6 5.47 12.85
3/9/2021 11:15:00 AM 6.54 43.772 0.355 7.61 5.39 12.86
3/9/2021 11:30:00 AM 6.7 44.06 0.355 7.62 5.3 12.85
3/9/2021 11:45:00 AM 6.85 44.33 0.355 7.63 5.3 12.89
3/9/2021 12:00:00 PM 7 44.6 0.355 7.63 5.24 12.87
3/9/2021 12:15:00 PM 7.14 44.852 0.354 7.64 5.17 12.87
3/9/2021 12:30:00 PM 7.28 45.104 0.354 7.64 5.42 12.87
3/9/2021 12:45:00 PM 7.44 45.392 0.355 7.65 5.43 12.87
3/9/2021 1:00:00 PM 7.59 45.662 0.354 7.66 5.34 12.83
3/9/2021 1:15:00 PM 7.72 45.896 0.354 7.66 5.35 12.76
3/9/2021 1:30:00 PM 7.83 46.094 0.354 7.67 5.31 12.74
3/9/2021 1:45:00 PM 7.91 46.238 0.354 7.68 5.17 12.75
3/9/2021 2:00:00 PM 7.96 46.328 0.354 7.68 5.26 12.66
3/9/2021 2:15:00 PM 8.01 46.418 0.355 7.68 5.2 12.63
3/9/2021 2:30:00 PM 8.07 46.526 0.355 7.68 5.32 12.63
3/9/2021 2:45:00 PM 8.14 46.652 0.354 7.69 5.28 12.61
3/9/2021 3:00:00 PM 8.22 46.796 0.354 7.69 5.46 12.57
3/9/2021 3:15:00 PM 8.31 46.958 0.354 7.69 5.66 12.53
3/9/2021 3:30:00 PM 8.39 47.102 0.354 7.7 5.53 12.56
3/9/2021 3:45:00 PM 8.46 47.228 0.354 7.7 5.58 12.49
3/9/2021 4:00:00 PM 8.51 47.318 0.354 7.7 5.64 12.42
3/9/2021 4:15:00 PM 8.55 47.39 0.354 7.7 5.39 12.39
3/9/2021 4:30:00 PM 8.59 47.462 0.354 7.69 5.5 12.33
3/9/2021 4:45:00 PM 8.63 47.534 0.354 7.69 5.59 12.26
3/9/2021 5:00:00 PM 8.66 47.588 0.354 7.68 5.4 12.25
3/9/2021 5:15:00 PM 8.68 47.624 0.354 7.68 5.44 12.21
3/9/2021 5:30:00 PM 8.7 47.66 0.354 7.67 5.8 12.13
3/9/2021 5:45:00 PM 8.71 47.678 0.354 7.67 5.58 12.06
3/9/2021 6:00:00 PM 8.71 47.678 0.354 7.66 5.68 12.04
3/9/2021 6:15:00 PM 8.71 47.678 0.354 7.65 5.77 11.94
3/9/2021 6:30:00 PM 8.71 47.678 0.354 7.64 5.72 11.84
3/9/2021 6:45:00 PM 8.7 47.66 0.354 7.63 5.84 11.79
3/9/2021 7:00:00 PM 8.69 47.642 0.354 7.62 6.07 11.74
3/9/2021 7:15:00 PM 8.69 47.642 0.354 7.62 6.07 11.73
3/9/2021 7:30:00 PM 8.68 47.624 0.353 7.62 6.1 11.63
3/9/2021 7:45:00 PM 8.67 47.606 0.354 7.61 6.26 11.61
3/9/2021 8:00:00 PM 8.64 47.552 0.354 7.61 6.47 11.57
3/9/2021 8:15:00 PM 8.62 47.516 0.354 7.6 6.65 11.62
3/9/2021 8:30:00 PM 8.6 47.48 0.353 7.59 6.61 11.52
3/9/2021 8:45:00 PM 8.57 47.426 0.354 7.59 6.55 11.49
3/9/2021 9:00:00 PM 8.55 47.39 0.354 7.59 6.37 11.46
3/9/2021 9:15:00 PM 8.52 47.336 0.354 7.58 6.41 11.47
3/9/2021 9:30:00 PM 8.5 47.3 0.354 7.58 6.52 11.45
3/9/2021 9:45:00 PM 8.47 47.246 0.354 7.58 6.54 11.39
3/9/2021 10:00:00 PM 8.45 47.21 0.354 7.57 6.63 11.42
3/9/2021 10:15:00 PM 8.42 47.156 0.354 7.57 6.62 11.42
3/9/2021 10:30:00 PM 8.4 47.12 0.354 7.57 6.71 11.4
3/9/2021 10:45:00 PM 8.37 47.066 0.354 7.56 6.71 11.35
3/9/2021 11:00:00 PM 8.34 47.012 0.354 7.56 6.7 11.36
3/9/2021 11:15:00 PM 8.31 46.958 0.354 7.55 6.8 11.38
3/9/2021 11:30:00 PM 8.27 46.886 0.354 7.55 7.03 11.37
3/9/2021 11:45:00 PM 8.24 46.832 0.354 7.55 6.82 11.38
3/10/2021 12:00:00 AM 8.2 46.76 0.354 7.54 6.99 11.38
3/10/2021 12:15:00 AM 8.16 46.688 0.353 7.54 6.81 11.39
3/10/2021 12:30:00 AM 8.12 46.616 0.354 7.54 6.66 11.36
3/10/2021 12:45:00 AM 8.07 46.526 0.354 7.54 6.73 11.36
3/10/2021 1:00:00 AM 8.03 46.454 0.354 7.54 6.59 11.36
3/10/2021 1:15:00 AM 7.98 46.364 0.354 7.53 6.72 11.36
3/10/2021 1:30:00 AM 7.93 46.274 0.353 7.53 6.73 11.38
3/10/2021 1:45:00 AM 7.88 46.184 0.354 7.53 6.81 11.39
3/10/2021 2:00:00 AM 7.83 46.094 0.353 7.53 6.81 11.4
3/10/2021 2:15:00 AM 7.78 46.004 0.354 7.52 6.88 11.4
3/10/2021 2:30:00 AM 7.72 45.896 0.353 7.52 6.98 11.43
3/10/2021 2:45:00 AM 7.67 45.806 0.354 7.51 6.95 11.47
3/10/2021 3:00:00 AM 7.61 45.698 0.354 7.51 6.84 11.46
3/10/2021 3:15:00 AM 7.56 45.608 0.354 7.52 6.87 11.5
3/10/2021 3:30:00 AM 7.5 45.5 0.354 7.52 6.83 11.45
3/10/2021 3:45:00 AM 7.44 45.392 0.354 7.51 6.79 11.53
3/10/2021 4:00:00 AM 7.38 45.284 0.354 7.5 7.09 11.53
3/10/2021 4:15:00 AM 7.32 45.176 0.354 7.51 7.03 11.53
3/10/2021 4:30:00 AM 7.25 45.05 0.354 7.51 6.96 11.55
3/10/2021 4:45:00 AM 7.19 44.942 0.355 7.51 6.81 11.6
3/10/2021 5:00:00 AM 7.13 44.834 0.355 7.5 6.99 11.53
3/10/2021 5:15:00 AM 7.07 44.726 0.355 7.5 7.05 11.62
3/10/2021 5:30:00 AM 7.01 44.618 0.355 7.49 6.93 11.68
3/10/2021 5:45:00 AM 6.95 44.51 0.355 7.49 6.75 11.67
3/10/2021 6:00:00 AM 6.89 44.402 0.355 7.49 6.82 11.69
3/10/2021 6:15:00 AM 6.82 44.276 0.355 7.5 6.79 11.69
3/10/2021 6:30:00 AM 6.76 44.168 0.355 7.49 6.59 11.73
3/10/2021 6:45:00 AM 6.71 44.078 0.355 7.5 6.4 11.76
3/10/2021 7:00:00 AM 6.66 43.988 0.355 7.49 6.41 11.75
3/10/2021 7:15:00 AM 6.62 43.916 0.356 7.5 6.37 11.83
3/10/2021 7:30:00 AM 5.7 42.26 0.309 6.5 5.29 10.32
3/10/2021 7:45:00 AM 6.44 43.592 0.349 7.38 5.85 11.72
3/10/2021 8:00:00 AM 6.54 43.772 0.355 7.5 5.93 12
3/10/2021 8:15:00 AM 6.56 43.808 0.356 7.52 5.81 12.05
3/10/2021 8:30:00 AM 6.6 43.88 0.356 7.53 5.73 12.17
3/10/2021 8:45:00 AM 6.65 43.97 0.356 7.54 5.73 12.23
3/10/2021 9:00:00 AM 5.81 42.458 0.31 6.56 4.75 10.71
3/10/2021 9:15:00 AM 5.86 42.548 0.309 6.55 4.74 10.73
3/10/2021 9:30:00 AM 6.7 44.06 0.349 7.43 7.06 12.17
3/10/2021 9:45:00 AM 6.88 44.384 0.355 7.56 5.69 12.44
3/10/2021 10:00:00 AM 7 44.6 0.356 7.58 5.47 12.46
3/10/2021 10:15:00 AM 6.18 43.124 0.31 6.59 4.61 10.92
3/10/2021 10:30:00 AM 7.1 44.78 0.35 7.47 5.27 12.36
3/10/2021 10:45:00 AM 7.33 45.194 0.355 7.6 5.52 12.58
3/10/2021 11:00:00 AM 7.49 45.482 0.356 7.62 5.66 12.62
3/10/2021 11:15:00 AM 7.63 45.734 0.356 7.64 5.63 12.66
3/10/2021 11:30:00 AM 7.79 46.022 0.356 7.64 5.62 12.63
3/10/2021 11:45:00 AM 7.95 46.31 0.356 7.65 5.5 12.65
3/10/2021 12:00:00 PM 8.11 46.598 0.356 7.66 5.54 12.65
3/10/2021 12:15:00 PM 8.27 46.886 0.356 7.67 5.39 12.67
3/10/2021 12:30:00 PM 8.43 47.174 0.355 7.68 5.38 12.67
3/10/2021 12:45:00 PM 8.59 47.462 0.355 7.69 5.33 12.68
3/10/2021 1:00:00 PM 8.74 47.732 0.356 7.7 5.44 12.64
3/10/2021 1:15:00 PM 8.88 47.984 0.356 7.7 8.71 12.64
3/10/2021 1:30:00 PM 9 48.2 0.356 7.71 5.67 12.61
3/10/2021 1:45:00 PM 9.1 48.38 0.356 7.71 5.19 12.6
3/10/2021 2:00:00 PM 9.19 48.542 0.356 7.72 5.05 12.62
3/10/2021 2:15:00 PM 9.28 48.704 0.356 7.73 5.24 12.54
3/10/2021 2:30:00 PM 9.36 48.848 0.356 7.73 5.13 12.52
3/10/2021 2:45:00 PM 9.44 48.992 0.356 7.73 5.1 12.5
3/10/2021 3:00:00 PM 9.51 49.118 0.356 7.73 5.07 12.47
3/10/2021 3:15:00 PM 9.57 49.226 0.356 7.74 5.09 12.44
3/10/2021 3:30:00 PM 9.62 49.316 0.356 7.74 5.13 12.4
3/10/2021 3:45:00 PM 9.67 49.406 0.356 7.74 5.22 12.32
3/10/2021 4:00:00 PM 9.7 49.46 0.356 7.74 5.07 12.3
3/10/2021 4:15:00 PM 9.72 49.496 0.356 7.73 4.96 12.24
3/10/2021 4:30:00 PM 9.74 49.532 0.356 7.73 4.95 12.19
3/10/2021 4:45:00 PM 9.75 49.55 0.355 7.75 5.16 12.14
3/10/2021 5:00:00 PM 9.77 49.586 0.356 7.73 5.51 12.05
3/10/2021 5:15:00 PM 9.79 49.622 0.356 7.73 5.25 11.99
3/10/2021 5:30:00 PM 9.8 49.64 0.356 7.71 5.31 11.87
3/10/2021 5:45:00 PM 9.82 49.676 0.356 7.7 5.24 11.77
3/10/2021 6:00:00 PM 9.82 49.676 0.356 7.69 5.17 11.7
3/10/2021 6:15:00 PM 9.82 49.676 0.356 7.68 5.43 11.62
3/10/2021 6:30:00 PM 9.82 49.676 0.356 7.66 5.54 11.58
3/10/2021 6:45:00 PM 9.81 49.658 0.357 7.66 5.49 11.5
3/10/2021 7:00:00 PM 9.8 49.64 0.356 7.66 5.5 11.44
3/10/2021 7:15:00 PM 9.78 49.604 0.356 7.64 5.73 11.4
3/10/2021 7:30:00 PM 9.78 49.604 0.356 7.64 5.76 11.29
3/10/2021 7:45:00 PM 9.77 49.586 0.356 7.63 5.93 11.29
3/10/2021 8:00:00 PM 9.75 49.55 0.356 7.63 6.06 11.26
3/10/2021 8:15:00 PM 9.74 49.532 0.356 7.62 6.19 11.18
3/10/2021 8:30:00 PM 9.73 49.514 0.356 7.62 6.31 11.17
3/10/2021 8:45:00 PM 9.72 49.496 0.356 7.61 6.19 11.16
3/10/2021 9:00:00 PM 9.71 49.478 0.356 7.61 6.16 11.16
3/10/2021 9:15:00 PM 9.69 49.442 0.356 7.59 6.12 11.11
3/10/2021 9:30:00 PM 9.68 49.424 0.356 7.59 6.22 11.06
3/10/2021 9:45:00 PM 9.65 49.37 0.357 7.59 6.13 11.08
3/10/2021 10:00:00 PM 9.62 49.316 0.356 7.58 6.26 11.1
3/10/2021 10:15:00 PM 9.59 49.262 0.356 7.58 6.33 11.05
3/10/2021 10:30:00 PM 9.56 49.208 0.356 7.58 6.53 11.02
3/10/2021 10:45:00 PM 9.55 49.19 0.356 7.57 6.48 10.99
3/10/2021 11:00:00 PM 9.53 49.154 0.356 7.57 6.5 11
3/10/2021 11:15:00 PM 9.52 49.136 0.356 7.57 6.4 10.98
3/10/2021 11:30:00 PM 9.51 49.118 0.356 7.57 6.46 10.97
3/10/2021 11:45:00 PM 9.5 49.1 0.356 7.57 6.38 10.92
3/11/2021 12:00:00 AM 9.48 49.064 0.356 7.56 6.29 10.92
3/11/2021 12:15:00 AM 9.46 49.028 0.357 7.55 6.39 10.93
3/11/2021 12:30:00 AM 9.44 48.992 0.356 7.55 6.42 10.9
3/11/2021 12:45:00 AM 9.41 48.938 0.356 7.56 6.42 10.92
3/11/2021 1:00:00 AM 9.38 48.884 0.356 7.55 6.37 10.94
3/11/2021 1:15:00 AM 9.34 48.812 0.356 7.54 6.49 10.94
3/11/2021 1:30:00 AM 9.3 48.74 0.356 7.54 6.57 10.93
3/11/2021 1:45:00 AM 9.25 48.65 0.356 7.54 6.5 10.97
3/11/2021 2:00:00 AM 7.97 46.346 0.31 6.53 5.66 9.47
3/11/2021 2:15:00 AM 8.98 48.164 0.35 7.39 6.51 10.74
3/11/2021 2:30:00 AM 9.07 48.326 0.356 7.52 6.59 10.96
3/11/2021 2:45:00 AM 9.04 48.272 0.356 7.53 6.78 10.98
3/11/2021 3:00:00 AM 7.8 46.04 0.31 6.54 5.78 9.52
3/11/2021 3:15:00 AM 8.79 47.822 0.35 7.4 6.44 10.78
3/11/2021 3:30:00 AM 8.88 47.984 0.356 7.51 6.59 10.99
3/11/2021 3:45:00 AM 8.85 47.93 0.357 7.52 6.63 11.01
3/11/2021 4:00:00 AM 8.8 47.84 0.357 7.53 6.75 11.01
3/11/2021 4:15:00 AM 8.74 47.732 0.357 7.52 6.73 11.01
3/11/2021 4:30:00 AM 8.68 47.624 0.357 7.52 6.75 11.07
3/11/2021 4:45:00 AM 8.63 47.534 0.357 7.52 6.93 11.06
3/11/2021 5:00:00 AM 8.57 47.426 0.357 7.51 6.88 11.06
3/11/2021 5:15:00 AM 8.52 47.336 0.357 7.51 6.8 11.07
3/11/2021 5:30:00 AM 8.47 47.246 0.357 7.51 6.99 11.1
3/11/2021 5:45:00 AM 8.41 47.138 0.357 7.5 6.89 11.14
3/11/2021 6:00:00 AM 8.36 47.048 0.357 7.51 6.45 11.14
3/11/2021 6:15:00 AM 8.32 46.976 0.357 7.51 6.53 11.17
3/11/2021 6:30:00 AM 8.28 46.904 0.358 7.5 6.34 11.16
3/11/2021 6:45:00 AM 7.14 44.852 0.311 6.52 5.35 9.71
3/11/2021 7:00:00 AM 8.06 46.508 0.351 7.37 6.12 11.02
3/11/2021 7:15:00 AM 8.16 46.688 0.357 7.49 6.08 11.26
3/11/2021 7:30:00 AM 8.15 46.67 0.357 7.51 5.99 11.32
3/11/2021 7:45:00 AM 8.12 46.616 0.358 7.52 5.82 11.39
3/11/2021 8:00:00 AM 8.11 46.598 0.358 7.53 5.58 11.48
3/11/2021 8:15:00 AM 8.13 46.634 0.358 7.54 5.69 11.57
3/11/2021 8:30:00 AM 8.17 46.706 0.352 7.56 5.33 11.66
3/11/2021 8:45:00 AM 8.19 46.742 0.357 7.56 5.48 11.6
3/11/2021 9:00:00 AM 8.23 46.814 0.358 7.57 5.42 11.8
3/11/2021 9:15:00 AM 8.28 46.904 0.357 7.58 5.35 11.85
3/11/2021 9:30:00 AM 8.36 47.048 0.358 7.59 5.29 11.92
3/11/2021 9:45:00 AM 8.45 47.21 0.358 7.6 5.33 12.01
3/11/2021 10:00:00 AM 8.56 47.408 0.357 7.62 5.38 12.05
3/11/2021 10:15:00 AM 8.69 47.642 0.358 7.63 5.52 12.09
3/11/2021 10:30:00 AM 8.82 47.876 0.358 7.64 5.4 12.12
3/11/2021 10:45:00 AM 8.95 48.11 0.357 7.66 5.23 12.24
3/11/2021 11:00:00 AM 9.06 48.308 0.357 7.66 5.24 12.24
3/11/2021 11:15:00 AM 9.2 48.56 0.357 7.67 5.4 12.18
3/11/2021 11:30:00 AM 9.36 48.848 0.357 7.68 5.45 12.29
3/11/2021 11:45:00 AM 9.54 49.172 0.357 7.7 5.48 12.32
3/11/2021 12:00:00 PM 9.72 49.496 0.357 7.71 5.35 12.3
3/11/2021 12:15:00 PM 9.89 49.802 0.357 7.72 5.18 12.29
3/11/2021 12:30:00 PM 10.06 50.108 0.357 7.73 5.15 12.31
3/11/2021 12:45:00 PM 10.22 50.396 0.357 7.74 5.21 12.33
3/11/2021 1:00:00 PM 10.36 50.648 0.357 7.8 5.07 12.33
3/11/2021 1:15:00 PM 10.47 50.846 0.357 7.83 5.12 12.37
3/11/2021 1:30:00 PM 10.59 51.062 0.358 7.87 5.06 12.35
3/11/2021 1:45:00 PM 10.72 51.296 0.358 7.9 4.99 12.3
3/11/2021 2:00:00 PM 10.84 51.512 0.358 7.92 5.25 12.32
3/11/2021 2:15:00 PM 10.95 51.71 0.358 7.93 5.16 12.24
3/11/2021 2:30:00 PM 11.05 51.89 0.358 7.94 5.09 12.27
3/11/2021 2:45:00 PM 11.13 52.034 0.358 7.94 5.13 12.24
3/11/2021 3:00:00 PM 11.21 52.178 0.358 7.94 4.94 12.19
3/11/2021 3:15:00 PM 11.25 52.25 0.358 7.95 5.01 12.09
3/11/2021 3:30:00 PM 11.3 52.34 0.358 7.95 4.97 12.11
3/11/2021 3:45:00 PM 11.33 52.394 0.357 7.95 5.16 12.03
3/11/2021 4:00:00 PM 11.37 52.466 0.357 7.95 5.01 11.99
3/11/2021 4:15:00 PM 11.41 52.538 0.357 7.95 4.95 11.91
3/11/2021 4:30:00 PM 11.42 52.556 0.357 7.95 4.9 11.81
3/11/2021 4:45:00 PM 11.43 52.574 0.357 7.94 4.85 11.78
3/11/2021 5:00:00 PM 11.45 52.61 0.357 7.92 4.88 11.72
3/11/2021 5:15:00 PM 11.47 52.646 0.357 7.91 4.81 11.5
3/11/2021 5:30:00 PM 11.48 52.664 0.357 7.89 5.03 11.44
3/11/2021 5:45:00 PM 11.5 52.7 0.357 7.87 5.05 11.29
3/11/2021 6:00:00 PM 11.53 52.754 0.357 7.86 5.32 11.21
3/11/2021 6:15:00 PM 10 50 0.31 6.79 5.17 9.62
3/11/2021 6:30:00 PM 11.34 52.412 0.35 7.69 5.49 10.85
3/11/2021 6:45:00 PM 11.52 52.736 0.356 7.81 5.68 10.97
3/11/2021 7:00:00 PM 11.54 52.772 0.357 7.82 6.01 10.94
3/11/2021 7:15:00 PM 11.53 52.754 0.357 7.81 5.85 10.88
3/11/2021 7:30:00 PM 11.51 52.718 0.357 7.81 5.92 10.8
3/11/2021 7:45:00 PM 11.5 52.7 0.357 7.8 6.01 10.76
3/11/2021 8:00:00 PM 11.48 52.664 0.357 7.79 5.94 10.71
3/11/2021 8:15:00 PM 11.46 52.628 0.357 7.79 6.07 10.69
3/11/2021 8:30:00 PM 11.43 52.574 0.357 7.78 6.17 10.64
3/11/2021 8:45:00 PM 11.4 52.52 0.357 7.77 6.05 10.62
3/11/2021 9:00:00 PM 11.38 52.484 0.357 7.76 6.1 10.57
3/11/2021 9:15:00 PM 11.37 52.466 0.357 7.75 6.08 10.58
3/11/2021 9:30:00 PM 11.36 52.448 0.357 7.75 6.3 10.52
3/11/2021 9:45:00 PM 11.35 52.43 0.357 7.74 6.2 10.5
3/11/2021 10:00:00 PM 11.33 52.394 0.357 7.74 6.25 10.48
3/11/2021 10:15:00 PM 11.31 52.358 0.357 7.74 6.13 10.43
3/11/2021 10:30:00 PM 11.3 52.34 0.357 7.73 6.33 10.44
3/11/2021 10:45:00 PM 11.29 52.322 0.357 7.73 6.44 10.43
3/11/2021 11:00:00 PM 11.29 52.322 0.357 7.73 6.4 10.4
3/11/2021 11:15:00 PM 11.29 52.322 0.357 7.72 6.69 10.42
3/11/2021 11:30:00 PM 11.28 52.304 0.357 7.72 6.64 10.4
3/11/2021 11:45:00 PM 11.25 52.25 0.357 7.72 6.65 10.36
3/12/2021 12:00:00 AM 11.23 52.214 0.357 7.71 6.95 10.35
3/12/2021 12:15:00 AM 11.21 52.178 0.357 7.71 6.79 10.36
3/12/2021 12:30:00 AM 11.2 52.16 0.357 7.71 6.74 10.33
3/12/2021 12:45:00 AM 11.18 52.124 0.357 7.71 6.8 10.32
3/12/2021 1:00:00 AM 9.67 49.406 0.31 6.67 5.51 8.96
3/12/2021 1:15:00 AM 10.95 51.71 0.351 7.56 6.82 10.16
3/12/2021 1:30:00 AM 11.12 52.016 0.356 7.68 6.83 10.3
3/12/2021 1:45:00 AM 11.13 52.034 0.357 7.69 6.86 10.32
3/12/2021 2:00:00 AM 11.12 52.016 0.357 7.69 7.04 10.33
3/12/2021 2:15:00 AM 11.1 51.98 0.357 7.68 7.14 10.34
3/12/2021 2:30:00 AM 11.09 51.962 0.357 7.68 7.07 10.32
3/12/2021 2:45:00 AM 11.07 51.926 0.357 7.68 7.05 10.29
3/12/2021 3:00:00 AM 11.04 51.872 0.357 7.67 6.96 10.31
3/12/2021 3:15:00 AM 11.02 51.836 0.357 7.67 7.08 10.33
3/12/2021 3:30:00 AM 11 51.8 0.358 7.67 7.33 10.34
3/12/2021 3:45:00 AM 10.98 51.764 0.358 7.67 7.76 10.32
3/12/2021 4:00:00 AM 10.96 51.728 0.357 7.66 7.4 10.33
3/12/2021 4:15:00 AM 10.95 51.71 0.357 7.67 7.39 10.31
3/12/2021 4:30:00 AM 10.93 51.674 0.358 7.66 7.22 10.35
3/12/2021 4:45:00 AM 10.91 51.638 0.358 7.66 7.43 10.34
3/12/2021 5:00:00 AM 10.9 51.62 0.358 7.66 7.18 10.34
3/12/2021 5:15:00 AM 10.88 51.584 0.358 7.66 7.24 10.32
3/12/2021 5:30:00 AM 10.87 51.566 0.358 7.65 7.34 10.35
3/12/2021 5:45:00 AM 10.85 51.53 0.358 7.65 7.18 10.33
3/12/2021 6:00:00 AM 10.83 51.494 0.358 7.65 7.22 10.36
3/12/2021 6:15:00 AM 10.81 51.458 0.358 7.65 7.33 10.37
3/12/2021 6:30:00 AM 10.79 51.422 0.358 7.64 6.9 10.38
3/12/2021 6:45:00 AM 10.77 51.386 0.358 7.65 6.73 10.41
3/12/2021 7:00:00 AM 10.76 51.368 0.359 7.65 6.64 10.41
3/12/2021 7:15:00 AM 10.75 51.35 0.359 7.65 6.71 10.47
3/12/2021 7:30:00 AM 10.74 51.332 0.358 7.66 6.56 10.51
3/12/2021 7:45:00 AM 10.74 51.332 0.358 7.68 6.22 10.65
3/12/2021 8:00:00 AM 10.76 51.368 0.359 7.69 6.19 10.73
3/12/2021 8:15:00 AM 10.78 51.404 0.359 7.7 6.04 10.81
3/12/2021 8:30:00 AM 10.8 51.44 0.358 7.71 6.1 10.91
3/12/2021 8:45:00 AM 10.81 51.458 0.359 7.72 5.93 10.99
3/12/2021 9:00:00 AM 10.83 51.494 0.358 7.73 5.87 11.08
3/12/2021 9:15:00 AM 10.85 51.53 0.359 7.75 5.96 11.05
3/12/2021 9:30:00 AM 10.86 51.548 0.359 7.76 6.27 11.27
3/12/2021 9:45:00 AM 10.89 51.602 0.359 7.78 5.85 11.33
3/12/2021 10:00:00 AM 10.9 51.62 0.359 7.79 5.77 11.39
3/12/2021 10:15:00 AM 10.99 51.782 0.359 7.81 5.72 11.52
3/12/2021 10:30:00 AM 11.15 52.07 0.359 7.82 5.51 11.57
3/12/2021 10:45:00 AM 11.28 52.304 0.359 7.84 5.53 11.6
3/12/2021 11:00:00 AM 11.36 52.448 0.359 7.86 5.31 11.69
3/12/2021 11:15:00 AM 11.47 52.646 0.359 7.87 5.34 11.78
3/12/2021 11:30:00 AM 11.62 52.916 0.359 7.9 5.05 11.74
3/12/2021 11:45:00 AM 11.75 53.15 0.358 7.92 5.25 11.88
3/12/2021 12:00:00 PM 11.88 53.384 0.359 7.93 5.41 11.88
3/12/2021 12:15:00 PM 12.04 53.672 0.359 7.95 5.4 11.95
3/12/2021 12:30:00 PM 12.21 53.978 0.359 7.96 5.3 11.93
3/12/2021 12:45:00 PM 12.36 54.248 0.359 7.97 5.24 11.95
3/12/2021 1:00:00 PM 12.48 54.464 0.359 7.98 5.46 11.98
3/12/2021 1:15:00 PM 12.58 54.644 0.359 7.99 5.64 11.97
3/12/2021 1:30:00 PM 12.63 54.734 0.359 8 5.59 12
3/12/2021 1:45:00 PM 12.68 54.824 0.358 8.01 5.5 12.04
3/12/2021 2:00:00 PM 12.7 54.86 0.358 8.02 5.57 12.02
3/12/2021 2:15:00 PM 12.73 54.914 0.358 8.03 5.61 12.02
3/12/2021 2:30:00 PM 12.78 55.004 0.358 8.04 5.49 12
3/12/2021 2:45:00 PM 12.86 55.148 0.358 8.05 5.41 11.98
3/12/2021 3:00:00 PM 12.87 55.166 0.358 8.04 5.43 11.96
3/12/2021 3:15:00 PM 12.87 55.166 0.359 8.04 5.37 11.92
3/12/2021 3:30:00 PM 12.88 55.184 0.359 8.04 5.43 11.84
3/12/2021 3:45:00 PM 12.86 55.148 0.359 8.03 5.93 11.83
3/12/2021 4:00:00 PM 12.84 55.112 0.359 8.03 6.72 11.72
3/12/2021 4:15:00 PM 12.83 55.094 0.359 8.03 6.13 11.69
3/12/2021 4:30:00 PM 12.82 55.076 0.359 8.02 5.38 11.62
3/12/2021 4:45:00 PM 12.8 55.04 0.36 8.01 5.44 11.57
3/12/2021 5:00:00 PM 12.78 55.004 0.359 8 5.75 11.48
3/12/2021 5:15:00 PM 12.75 54.95 0.359 7.98 5.79 11.39
3/12/2021 5:30:00 PM 12.7 54.86 0.36 7.96 5.98 11.28
3/12/2021 5:45:00 PM 12.64 54.752 0.36 7.94 5.94 11.17
3/12/2021 6:00:00 PM 12.59 54.662 0.36 7.92 5.75 11.05
3/12/2021 6:15:00 PM 12.53 54.554 0.36 7.9 5.98 10.93
3/12/2021 6:30:00 PM 12.48 54.464 0.36 7.87 5.86 10.83
3/12/2021 6:45:00 PM 12.44 54.392 0.36 7.86 6.14 10.72
3/12/2021 7:00:00 PM 12.4 54.32 0.36 7.85 6.65 10.67
3/12/2021 7:15:00 PM 12.36 54.248 0.36 7.84 6.59 10.63
3/12/2021 7:30:00 PM 12.31 54.158 0.36 7.82 6.77 10.55
3/12/2021 7:45:00 PM 12.26 54.068 0.36 7.81 6.8 10.52
3/12/2021 8:00:00 PM 12.2 53.96 0.36 7.8 6.83 10.49
3/12/2021 8:15:00 PM 12.13 53.834 0.361 7.79 6.98 10.44
3/12/2021 8:30:00 PM 12.05 53.69 0.36 7.78 6.86 10.41
3/12/2021 8:45:00 PM 11.98 53.564 0.361 7.77 7.17 10.39
3/12/2021 9:00:00 PM 11.92 53.456 0.36 7.77 7.41 10.37
3/12/2021 9:15:00 PM 11.85 53.33 0.361 7.76 7.02 10.31
3/12/2021 9:30:00 PM 11.78 53.204 0.361 7.75 6.97 10.29
3/12/2021 9:45:00 PM 11.69 53.042 0.361 7.75 6.65 10.28
3/12/2021 10:00:00 PM 11.61 52.898 0.361 7.74 6.56 10.3
3/12/2021 10:15:00 PM 11.53 52.754 0.361 7.73 6.7 10.28
3/12/2021 10:30:00 PM 11.45 52.61 0.361 7.73 6.72 10.31
3/12/2021 10:45:00 PM 11.38 52.484 0.361 7.72 6.59 10.29
3/12/2021 11:00:00 PM 11.31 52.358 0.361 7.71 6.85 10.28
3/12/2021 11:15:00 PM 11.24 52.232 0.361 7.71 6.79 10.31
3/12/2021 11:30:00 PM 11.18 52.124 0.361 7.71 6.83 10.28
3/12/2021 11:45:00 PM 11.12 52.016 0.361 7.71 6.81 10.31
3/13/2021 12:00:00 AM 11.07 51.926 0.361 7.7 6.97 10.3
3/13/2021 12:15:00 AM 11 51.8 0.361 7.7 6.96 10.3
3/13/2021 12:30:00 AM 10.94 51.692 0.361 7.7 7.14 10.3
3/13/2021 12:45:00 AM 10.88 51.584 0.361 7.69 6.87 10.33
3/13/2021 1:00:00 AM 10.79 51.422 0.361 7.69 6.93 10.35
3/13/2021 1:15:00 AM 10.71 51.278 0.361 7.69 6.97 10.35
3/13/2021 1:30:00 AM 10.63 51.134 0.361 7.68 6.78 10.37
3/13/2021 1:45:00 AM 9.14 48.452 0.314 6.66 5.88 8.98
3/13/2021 2:00:00 AM 10.28 50.504 0.355 7.54 6.87 10.18
3/13/2021 2:15:00 AM 10.36 50.648 0.36 7.66 6.99 10.38
3/13/2021 2:30:00 AM 10.31 50.558 0.361 7.67 6.86 10.4
3/13/2021 2:45:00 AM 10.24 50.432 0.361 7.67 6.95 10.44
3/13/2021 3:00:00 AM 10.15 50.27 0.361 7.66 7.39 10.45
3/13/2021 3:15:00 AM 10.06 50.108 0.361 7.66 7.14 10.46
3/13/2021 3:30:00 AM 9.99 49.982 0.362 7.66 7.06 10.5
3/13/2021 3:45:00 AM 9.92 49.856 0.362 7.65 6.95 10.52
3/13/2021 4:00:00 AM 9.85 49.73 0.362 7.65 6.72 10.54
3/13/2021 4:15:00 AM 9.75 49.55 0.362 7.65 6.71 10.53
3/13/2021 4:30:00 AM 9.64 49.352 0.363 7.65 6.68 10.57
3/13/2021 4:45:00 AM 9.52 49.136 0.362 7.65 6.62 10.6
3/13/2021 5:00:00 AM 9.41 48.938 0.363 7.64 6.87 10.62
3/13/2021 5:15:00 AM 9.31 48.758 0.363 7.64 6.67 10.63
3/13/2021 5:30:00 AM 9.22 48.596 0.363 7.64 6.72 10.68
3/13/2021 5:45:00 AM 9.13 48.434 0.363 7.63 6.76 10.71
3/13/2021 6:00:00 AM 9.04 48.272 0.363 7.63 6.69 10.72
3/13/2021 6:15:00 AM 8.96 48.128 0.364 7.63 6.72 10.76
3/13/2021 6:30:00 AM 8.86 47.948 0.364 7.62 6.67 10.77
3/13/2021 6:45:00 AM 8.78 47.804 0.364 7.62 6.5 10.82
3/13/2021 7:00:00 AM 8.69 47.642 0.363 7.62 6.29 10.85
3/13/2021 7:15:00 AM 8.61 47.498 0.364 7.61 5.96 10.98
3/13/2021 7:30:00 AM 8.55 47.39 0.364 7.63 6.05 11.06
3/13/2021 7:45:00 AM 8.5 47.3 0.364 7.64 6.05 11.17
3/13/2021 8:00:00 AM 8.45 47.21 0.364 7.64 5.88 11.26
3/13/2021 8:15:00 AM 8.42 47.156 0.364 7.65 5.77 11.43
3/13/2021 8:30:00 AM 8.39 47.102 0.364 7.67 5.62 11.53
3/13/2021 8:45:00 AM 8.37 47.066 0.364 7.68 5.4 11.63
3/13/2021 9:00:00 AM 8.37 47.066 0.364 7.69 5.32 11.81
3/13/2021 9:15:00 AM 8.39 47.102 0.364 7.71 5.3 11.88
3/13/2021 9:30:00 AM 8.44 47.192 0.364 7.72 5.35 11.96
3/13/2021 9:45:00 AM 8.51 47.318 0.364 7.73 5.43 12.12
3/13/2021 10:00:00 AM 8.58 47.444 0.364 7.75 5.56 12.17
3/13/2021 10:15:00 AM 8.66 47.588 0.365 7.76 5.97 12.26
3/13/2021 10:30:00 AM 8.74 47.732 0.364 7.78 5.98 12.26
3/13/2021 10:45:00 AM 8.83 47.894 0.364 7.79 5.72 12.43
3/13/2021 11:00:00 AM 8.93 48.074 0.365 7.8 5.87 12.47
3/13/2021 11:15:00 AM 9.04 48.272 0.364 7.81 5.9 12.46
3/13/2021 11:30:00 AM 9.16 48.488 0.364 7.82 5.8 12.56
3/13/2021 11:45:00 AM 9.3 48.74 0.365 7.84 5.59 12.6
3/13/2021 12:00:00 PM 9.42 48.956 0.364 7.85 5.48 12.66
3/13/2021 12:15:00 PM 9.55 49.19 0.364 7.87 5.39 12.69
3/13/2021 12:30:00 PM 9.69 49.442 0.364 7.88 5.31 12.71
3/13/2021 12:45:00 PM 9.81 49.658 0.364 7.9 5.12 12.71
3/13/2021 1:00:00 PM 9.91 49.838 0.365 7.92 5.19 12.73
3/13/2021 1:15:00 PM 9.99 49.982 0.365 7.93 5.2 12.73
3/13/2021 1:30:00 PM 10.07 50.126 0.365 7.94 5.17 12.77
3/13/2021 1:45:00 PM 10.13 50.234 0.365 7.96 5.24 12.77
3/13/2021 2:00:00 PM 10.17 50.306 0.365 7.97 4.97 12.77
3/13/2021 2:15:00 PM 10.21 50.378 0.365 7.97 5.02 12.77
3/13/2021 2:30:00 PM 10.24 50.432 0.364 7.98 4.93 12.71
3/13/2021 2:45:00 PM 10.26 50.468 0.364 7.98 5.92 12.7
3/13/2021 3:00:00 PM 10.27 50.486 0.365 7.99 5.04 12.68
3/13/2021 3:15:00 PM 10.26 50.468 0.365 7.99 4.76 12.67
3/13/2021 3:30:00 PM 10.24 50.432 0.365 7.99 4.81 12.63
3/13/2021 3:45:00 PM 10.22 50.396 0.365 7.99 4.82 12.58
3/13/2021 4:00:00 PM 10.18 50.324 0.365 7.99 4.98 12.55
3/13/2021 4:15:00 PM 10.15 50.27 0.364 7.98 4.78 12.52
3/13/2021 4:30:00 PM 10.12 50.216 0.365 7.97 4.76 12.45
3/13/2021 4:45:00 PM 10.09 50.162 0.365 7.96 4.93 12.33
3/13/2021 5:00:00 PM 10.06 50.108 0.365 7.95 4.79 12.26
3/13/2021 5:15:00 PM 10.02 50.036 0.365 7.93 4.8 12.17
3/13/2021 5:30:00 PM 9.98 49.964 0.365 7.91 4.89 12.1
3/13/2021 5:45:00 PM 9.94 49.892 0.365 7.89 5.09 11.97
3/13/2021 6:00:00 PM 9.9 49.82 0.365 7.87 4.98 11.86
3/13/2021 6:15:00 PM 9.84 49.712 0.365 7.85 4.96 11.73
3/13/2021 6:30:00 PM 9.78 49.604 0.365 7.83 4.84 11.58
3/13/2021 6:45:00 PM 9.71 49.478 0.366 7.81 4.81 11.55
3/13/2021 7:00:00 PM 9.65 49.37 0.366 7.8 4.82 11.52
3/13/2021 7:15:00 PM 9.58 49.244 0.366 7.79 4.93 11.39
3/13/2021 7:30:00 PM 9.51 49.118 0.366 7.78 5.03 11.36
3/13/2021 7:45:00 PM 9.44 48.992 0.366 7.77 5.04 11.34
3/13/2021 8:00:00 PM 9.38 48.884 0.366 7.76 4.92 11.31
3/13/2021 8:15:00 PM 9.31 48.758 0.366 7.75 4.98 11.22
3/13/2021 8:30:00 PM 9.25 48.65 0.366 7.73 5 11.22
3/13/2021 8:45:00 PM 9.19 48.542 0.366 7.72 5.08 11.12
3/13/2021 9:00:00 PM 9.13 48.434 0.366 7.7 4.93 11.19
3/13/2021 9:15:00 PM 9.07 48.326 0.367 7.69 5.22 11.17
3/13/2021 9:30:00 PM 9.01 48.218 0.367 7.68 5.19 11.12
3/13/2021 9:45:00 PM 8.96 48.128 0.367 7.68 5.12 11.13
3/13/2021 10:00:00 PM 8.9 48.02 0.367 7.67 5.38 11.09
3/13/2021 10:15:00 PM 8.84 47.912 0.367 7.66 5.35 11.07
3/13/2021 10:30:00 PM 8.79 47.822 0.367 7.65 5.3 11.01
3/13/2021 10:45:00 PM 8.74 47.732 0.366 7.65 5.28 11.03
3/13/2021 11:00:00 PM 8.69 47.642 0.366 7.64 5.39 11.09
3/13/2021 11:15:00 PM 8.64 47.552 0.367 7.64 5.52 11.05
3/13/2021 11:30:00 PM 8.59 47.462 0.366 7.63 5.44 11.04
3/13/2021 11:45:00 PM 8.54 47.372 0.366 7.62 5.61 11.04
3/14/2021 12:00:00 AM 8.48 47.264 0.366 7.62 8.56 11.05
3/14/2021 12:15:00 AM 8.43 47.174 0.366 7.62 5.87 11.03
3/14/2021 12:30:00 AM 8.37 47.066 0.366 7.62 5.52 11.04
3/14/2021 12:45:00 AM 8.32 46.976 0.366 7.61 5.49 11.03
3/14/2021 1:00:00 AM 8.27 46.886 0.366 7.61 5.71 11.01
3/14/2021 1:15:00 AM 8.22 46.796 0.366 7.6 5.56 11.03
3/14/2021 1:30:00 AM 8.16 46.688 0.366 7.6 5.59 11.07
3/14/2021 1:45:00 AM 8.11 46.598 0.366 7.6 5.57 11.07
3/14/2021 3:00:00 AM 7.83 46.094 0.366 7.58 5.79 11.09
3/14/2021 4:15:00 AM 7.77 45.986 0.366 7.58 5.85 11.12
3/14/2021 4:30:00 AM 7.71 45.878 0.366 7.58 5.87 11.13
3/14/2021 4:45:00 AM 7.65 45.77 0.366 7.58 5.85 11.15
3/14/2021 5:00:00 AM 7.58 45.644 0.366 7.57 6.02 11.17
3/14/2021 5:15:00 AM 7.52 45.536 0.366 7.57 6.25 11.19
3/14/2021 5:30:00 AM 7.46 45.428 0.366 7.57 5.98 11.2
3/14/2021 5:45:00 AM 7.4 45.32 0.366 7.57 5.95 11.26
3/14/2021 6:00:00 AM 7.34 45.212 0.366 7.56 6.11 11.23
3/14/2021 6:15:00 AM 7.29 45.122 0.366 7.56 6.09 11.29
3/14/2021 6:30:00 AM 7.23 45.014 0.366 7.56 6.4 11.31
3/14/2021 6:45:00 AM 7.19 44.942 0.366 7.56 6.02 11.24
3/14/2021 7:00:00 AM 7.15 44.87 0.366 7.55 5.88 11.31
3/14/2021 7:15:00 AM 7.1 44.78 0.366 7.55 5.68 11.31
3/14/2021 7:30:00 AM 7.06 44.708 0.366 7.55 5.5 11.33
3/14/2021 7:45:00 AM 7.02 44.636 0.366 7.56 5.39 11.38
3/14/2021 8:00:00 AM 6.99 44.582 0.367 7.56 5.59 11.44
3/14/2021 8:15:00 AM 6.98 44.564 0.366 7.57 5.6 11.49
3/14/2021 8:30:00 AM 6.96 44.528 0.366 7.58 5.41 11.63
3/14/2021 8:45:00 AM 6.96 44.528 0.366 7.59 5.07 11.8
3/14/2021 9:00:00 AM 6.97 44.546 0.366 7.6 5.32 11.89
3/14/2021 9:15:00 AM 7 44.6 0.366 7.62 4.83 12.04
3/14/2021 9:30:00 AM 7.03 44.654 0.366 7.63 4.92 12.12
3/14/2021 9:45:00 AM 7.08 44.744 0.366 7.65 4.74 12.2
3/14/2021 10:00:00 AM 7.14 44.852 0.366 7.67 4.82 12.32
3/14/2021 10:15:00 AM 7.24 45.032 0.366 7.68 4.64 12.44
3/14/2021 10:30:00 AM 7.32 45.176 0.366 7.69 4.76 12.49
3/14/2021 10:45:00 AM 7.4 45.32 0.366 7.71 4.61 12.55
3/14/2021 11:00:00 AM 7.53 45.554 0.366 7.73 4.97 12.59
3/14/2021 11:15:00 AM 7.65 45.77 0.366 7.74 4.83 12.67
3/14/2021 11:30:00 AM 7.79 46.022 0.365 7.76 4.63 12.7
3/14/2021 11:45:00 AM 7.9 46.22 0.365 7.78 4.73 12.78
3/14/2021 12:00:00 PM 8.03 46.454 0.365 7.79 4.4 12.83
3/14/2021 12:15:00 PM 8.19 46.742 0.365 7.81 4.98 12.87
3/14/2021 12:30:00 PM 8.37 47.066 0.365 7.82 4.99 12.87
3/14/2021 12:45:00 PM 8.53 47.354 0.365 7.84 4.53 12.93
3/14/2021 1:00:00 PM 8.71 47.678 0.365 7.86 4.28 12.96
3/14/2021 1:15:00 PM 8.89 48.002 0.365 7.87 4.43 12.99
3/14/2021 1:30:00 PM 9.05 48.29 0.365 7.88 4.32 13
3/14/2021 1:45:00 PM 9.2 48.56 0.365 7.9 4.2 13.01
3/14/2021 2:00:00 PM 9.34 48.812 0.364 7.91 4.26 13.01
3/14/2021 2:15:00 PM 9.45 49.01 0.365 7.92 4.39 13.02
3/14/2021 2:30:00 PM 9.54 49.172 0.365 7.93 4.51 13
3/14/2021 2:45:00 PM 9.62 49.316 0.365 7.94 6.58 12.98
3/14/2021 3:00:00 PM 9.68 49.424 0.365 7.96 4.93 12.94
3/14/2021 3:15:00 PM 9.74 49.532 0.365 7.97 4.61 12.98
3/14/2021 3:30:00 PM 9.79 49.622 0.365 7.97 4.61 12.93
3/14/2021 3:45:00 PM 9.82 49.676 0.365 7.98 4.7 12.91
3/14/2021 4:00:00 PM 9.85 49.73 0.366 7.97 4.68 12.91
3/14/2021 4:15:00 PM 9.86 49.748 0.366 7.97 4.72 12.83
3/14/2021 4:30:00 PM 9.84 49.712 0.365 7.98 4.63 12.8
3/14/2021 4:45:00 PM 9.82 49.676 0.365 7.98 4.55 12.76
3/14/2021 5:00:00 PM 9.79 49.622 0.365 7.97 4.45 12.7
3/14/2021 5:15:00 PM 9.76 49.568 0.366 7.96 4.53 12.57
3/14/2021 5:30:00 PM 9.72 49.496 0.366 7.95 4.59 12.55
3/14/2021 5:45:00 PM 9.67 49.406 0.365 7.93 4.29 12.46
3/14/2021 6:00:00 PM 9.61 49.298 0.366 7.92 4.4 12.37
3/14/2021 6:15:00 PM 9.55 49.19 0.366 7.9 4.21 12.29
3/14/2021 6:30:00 PM 9.5 49.1 0.366 7.88 4.21 12.21
3/14/2021 6:45:00 PM 9.45 49.01 0.366 7.87 4.37 12.09
3/14/2021 7:00:00 PM 9.4 48.92 0.367 7.85 4.69 11.99
3/14/2021 7:15:00 PM 9.35 48.83 0.367 7.83 4.43 11.83
3/14/2021 7:30:00 PM 9.31 48.758 0.367 7.81 4.53 11.74
3/14/2021 7:45:00 PM 9.27 48.686 0.367 7.79 4.6 11.7
3/14/2021 8:00:00 PM 9.22 48.596 0.367 7.77 4.63 11.59
3/14/2021 8:15:00 PM 9.17 48.506 0.367 7.76 4.51 11.49
3/14/2021 8:30:00 PM 9.11 48.398 0.367 7.75 4.62 11.4
3/14/2021 8:45:00 PM 9.05 48.29 0.367 7.74 4.62 11.41
3/14/2021 9:00:00 PM 8.99 48.182 0.368 7.72 4.84 11.37
3/14/2021 9:15:00 PM 8.94 48.092 0.368 7.71 4.73 11.36
3/14/2021 9:30:00 PM 8.88 47.984 0.367 7.7 4.65 11.32
3/14/2021 9:45:00 PM 8.81 47.858 0.367 7.7 4.6 11.28
3/14/2021 10:00:00 PM 8.74 47.732 0.368 7.69 4.43 11.28
3/14/2021 10:15:00 PM 8.67 47.606 0.368 7.67 4.63 11.22
3/14/2021 10:30:00 PM 8.6 47.48 0.368 7.66 4.68 11.18
3/14/2021 10:45:00 PM 8.53 47.354 0.368 7.66 4.74 11.19
3/14/2021 11:00:00 PM 8.46 47.228 0.368 7.66 4.68 11.14
3/14/2021 11:15:00 PM 8.39 47.102 0.368 7.65 4.73 11.14
3/14/2021 11:30:00 PM 8.33 46.994 0.368 7.64 4.68 11.1
3/14/2021 11:45:00 PM 8.26 46.868 0.368 7.63 4.71 11.1
3/15/2021 12:00:00 AM 8.18 46.724 0.368 7.62 4.6 11.11
3/15/2021 12:15:00 AM 8.11 46.598 0.368 7.62 4.86 11.09
3/15/2021 12:30:00 AM 8.02 46.436 0.369 7.62 4.75 11.2
3/15/2021 12:45:00 AM 7.91 46.238 0.368 7.62 4.71 11.16
3/15/2021 1:00:00 AM 7.81 46.058 0.368 7.61 4.85 11.17
3/15/2021 1:15:00 AM 7.72 45.896 0.369 7.61 4.72 11.22
3/15/2021 1:30:00 AM 7.64 45.752 0.369 7.61 4.86 11.18
3/15/2021 1:45:00 AM 7.56 45.608 0.369 7.61 4.95 11.25
3/15/2021 2:00:00 AM 7.51 45.518 0.369 7.61 5.3 11.25
3/15/2021 2:15:00 AM 7.44 45.392 0.369 7.6 5.38 11.27
3/15/2021 2:30:00 AM 7.35 45.23 0.369 7.6 5.43 11.3
3/15/2021 2:45:00 AM 7.28 45.104 0.368 7.6 5.01 11.3
3/15/2021 3:00:00 AM 7.19 44.942 0.369 7.59 5.56 11.31
3/15/2021 3:15:00 AM 7.1 44.78 0.369 7.59 5.48 11.35
3/15/2021 3:30:00 AM 7.03 44.654 0.369 7.59 5.27 11.4
3/15/2021 3:45:00 AM 6.97 44.546 0.369 7.58 5.16 11.4
3/15/2021 4:00:00 AM 6.91 44.438 0.369 7.58 5.22 11.44
3/15/2021 4:15:00 AM 6.85 44.33 0.37 7.58 5.51 11.48
3/15/2021 4:30:00 AM 6.78 44.204 0.369 7.58 5.24 11.45
3/15/2021 4:45:00 AM 6.7 44.06 0.37 7.58 4.99 11.49
3/15/2021 5:00:00 AM 6.62 43.916 0.37 7.57 5.11 11.53
3/15/2021 5:15:00 AM 6.54 43.772 0.37 7.57 4.99 11.61
3/15/2021 5:30:00 AM 6.46 43.628 0.37 7.57 5.12 11.61
3/15/2021 5:45:00 AM 6.38 43.484 0.37 7.56 5.27 11.61
3/15/2021 6:00:00 AM 6.28 43.304 0.37 7.56 5.28 11.64
3/15/2021 6:15:00 AM 6.2 43.16 0.37 7.56 5.32 11.69
3/15/2021 6:30:00 AM 6.11 42.998 0.371 7.56 5.25 11.75
3/15/2021 6:45:00 AM 6.04 42.872 0.37 7.55 5.1 11.79
3/15/2021 7:00:00 AM 5.98 42.764 0.371 7.55 5 11.77
3/15/2021 7:15:00 AM 5.91 42.638 0.371 7.55 4.85 11.82
3/15/2021 7:30:00 AM 5.85 42.53 0.371 7.55 5.04 11.87
3/15/2021 7:45:00 AM 5.79 42.422 0.372 7.55 5.06 11.92
3/15/2021 8:00:00 AM 5.74 42.332 0.371 7.55 5.7 12.01
3/15/2021 8:15:00 AM 5.7 42.26 0.371 7.56 5.03 12.07
3/15/2021 8:30:00 AM 5.65 42.17 0.372 7.57 4.89 12.16
3/15/2021 8:45:00 AM 5.61 42.098 0.371 7.59 5.33 12.34
3/15/2021 9:00:00 AM 5.58 42.044 0.371 7.6 4.99 12.47
3/15/2021 9:15:00 AM 5.56 42.008 0.371 7.62 4.93 12.65
3/15/2021 9:30:00 AM 5.56 42.008 0.371 7.64 4.52 12.82
3/15/2021 9:45:00 AM 5.57 42.026 0.371 7.65 4.34 12.84
3/15/2021 10:00:00 AM 5.61 42.098 0.371 7.67 4.44 13.02
3/15/2021 10:15:00 AM 5.67 42.206 0.371 7.68 4.51 13.17
3/15/2021 10:30:00 AM 5.75 42.35 0.371 7.71 4.57 13.24
3/15/2021 10:45:00 AM 5.83 42.494 0.371 7.72 4.69 13.25
3/15/2021 11:00:00 AM 5.93 42.674 0.371 7.73 5.26 13.38
3/15/2021 11:15:00 AM 6.04 42.872 0.37 7.75 4.91 13.48
3/15/2021 11:30:00 AM 6.14 43.052 0.37 7.76 4.98 13.5
3/15/2021 11:45:00 AM 6.25 43.25 0.37 7.78 4.71 13.52
3/15/2021 12:00:00 PM 6.37 43.466 0.37 7.79 4.48 13.55
3/15/2021 12:15:00 PM 6.5 43.7 0.37 7.8 4.28 13.61
3/15/2021 12:30:00 PM 6.65 43.97 0.37 7.82 4.14 13.59
3/15/2021 12:45:00 PM 6.78 44.204 0.37 7.83 3.96 13.64
3/15/2021 1:00:00 PM 6.93 44.474 0.37 7.85 4.52 13.66
3/15/2021 1:15:00 PM 7.08 44.744 0.37 7.86 4.51 13.65
3/15/2021 1:30:00 PM 6.29 43.322 0.322 6.83 3.73 11.92
3/15/2021 1:45:00 PM 7.26 45.068 0.364 7.74 4.23 13.51
3/15/2021 2:00:00 PM 7.49 45.482 0.369 7.88 4.63 13.62
3/15/2021 2:15:00 PM 7.63 45.734 0.37 7.9 4.35 13.63
3/15/2021 2:30:00 PM 7.69 45.842 0.37 7.91 4.69 13.67
3/15/2021 2:45:00 PM 7.74 45.932 0.37 7.93 4.76 13.62
3/15/2021 3:00:00 PM 7.79 46.022 0.37 7.93 4.17 13.66
3/15/2021 3:15:00 PM 7.84 46.112 0.37 7.94 3.91 13.64
3/15/2021 3:30:00 PM 7.86 46.148 0.37 7.95 4.04 13.65
3/15/2021 3:45:00 PM 7.89 46.202 0.37 7.96 3.98 13.64
3/15/2021 4:00:00 PM 7.93 46.274 0.37 7.96 3.8 13.65
3/15/2021 4:15:00 PM 7.94 46.292 0.37 7.96 3.89 13.64
3/15/2021 4:30:00 PM 7.91 46.238 0.37 7.96 3.8 13.54
3/15/2021 4:45:00 PM 7.88 46.184 0.37 7.96 3.82 13.55
3/15/2021 5:00:00 PM 7.83 46.094 0.37 7.96 4.07 13.44
3/15/2021 5:15:00 PM 7.8 46.04 0.37 7.95 4.4 13.41
3/15/2021 5:30:00 PM 7.76 45.968 0.37 7.94 3.89 13.37
3/15/2021 5:45:00 PM 7.72 45.896 0.37 7.94 3.78 13.3
3/15/2021 6:00:00 PM 7.69 45.842 0.37 7.93 3.89 13.26
3/15/2021 6:15:00 PM 7.65 45.77 0.371 7.91 4.07 13.16
3/15/2021 6:30:00 PM 7.62 45.716 0.37 7.89 4.03 13.03
3/15/2021 6:45:00 PM 7.58 45.644 0.37 7.87 4.11 12.93
3/15/2021 7:00:00 PM 7.53 45.554 0.371 7.85 4.47 12.78
3/15/2021 7:15:00 PM 7.48 45.464 0.371 7.82 4.15 12.66
3/15/2021 7:30:00 PM 7.41 45.338 0.371 7.79 4.26 12.55
3/15/2021 7:45:00 PM 7.35 45.23 0.371 7.77 4.07 12.44
3/15/2021 8:00:00 PM 7.29 45.122 0.371 7.75 3.97 12.38
3/15/2021 8:15:00 PM 7.23 45.014 0.371 7.74 3.83 12.3
3/15/2021 8:30:00 PM 7.19 44.942 0.371 7.73 4.08 12.25
3/15/2021 8:45:00 PM 7.14 44.852 0.37 7.72 3.94 12.18
3/15/2021 9:00:00 PM 7.11 44.798 0.371 7.71 3.99 12.16
3/15/2021 9:15:00 PM 7.08 44.744 0.371 7.7 4.33 12.14
3/15/2021 9:30:00 PM 7.05 44.69 0.371 7.69 3.98 12.09
3/15/2021 9:45:00 PM 7.03 44.654 0.371 7.68 4.12 12.03
3/15/2021 10:00:00 PM 7.01 44.618 0.371 7.67 4 11.96
3/15/2021 10:15:00 PM 6.99 44.582 0.371 7.66 3.88 11.94
3/15/2021 10:30:00 PM 6.96 44.528 0.371 7.66 4.29 11.91
3/15/2021 10:45:00 PM 6.93 44.474 0.371 7.65 3.95 11.87
3/15/2021 11:00:00 PM 6.9 44.42 0.371 7.64 3.95 11.84
3/15/2021 11:15:00 PM 6.88 44.384 0.371 7.64 4.01 11.82
3/15/2021 11:30:00 PM 6.85 44.33 0.371 7.63 4.21 11.81
3/15/2021 11:45:00 PM 6.81 44.258 0.371 7.62 4.03 11.79
3/16/2021 12:00:00 AM 6.79 44.222 0.371 7.61 4.19 11.8
3/16/2021 12:15:00 AM 6.76 44.168 0.371 7.61 4.06 11.78
3/16/2021 12:30:00 AM 6.74 44.132 0.371 7.61 4.08 11.78
3/16/2021 12:45:00 AM 6.72 44.096 0.372 7.61 4.09 11.75
3/16/2021 1:00:00 AM 6.7 44.06 0.372 7.6 4.13 11.74
3/16/2021 1:15:00 AM 6.68 44.024 0.372 7.6 4.2 11.74
3/16/2021 1:30:00 AM 6.67 44.006 0.372 7.59 4.13 11.7
3/16/2021 1:45:00 AM 6.65 43.97 0.371 7.59 3.96 11.73
3/16/2021 2:00:00 AM 6.63 43.934 0.371 7.59 4.22 11.74
3/16/2021 2:15:00 AM 6.61 43.898 0.371 7.59 4.15 11.7
3/16/2021 2:30:00 AM 6.58 43.844 0.371 7.59 4.03 11.72
3/16/2021 2:45:00 AM 6.53 43.754 0.371 7.59 5.65 11.68
3/16/2021 3:00:00 AM 6.5 43.7 0.371 7.58 4.66 11.71
3/16/2021 3:15:00 AM 6.49 43.682 0.371 7.58 4.18 11.7
3/16/2021 3:30:00 AM 6.48 43.664 0.372 7.58 4.05 11.69
3/16/2021 3:45:00 AM 6.45 43.61 0.372 7.58 4.02 11.7
3/16/2021 4:00:00 AM 6.44 43.592 0.371 7.58 4.03 11.7
3/16/2021 4:15:00 AM 6.43 43.574 0.371 7.57 4.06 11.7
3/16/2021 4:30:00 AM 6.41 43.538 0.372 7.57 4.04 11.67
3/16/2021 4:45:00 AM 6.38 43.484 0.372 7.57 4.04 11.67
3/16/2021 5:00:00 AM 6.35 43.43 0.372 7.57 4.1 11.7
3/16/2021 5:15:00 AM 6.32 43.376 0.372 7.56 4.21 11.68
3/16/2021 5:30:00 AM 6.29 43.322 0.371 7.56 4.29 11.69
3/16/2021 5:45:00 AM 6.26 43.268 0.371 7.56 4.17 11.75
3/16/2021 6:00:00 AM 6.25 43.25 0.372 7.56 4.07 11.74
3/16/2021 6:15:00 AM 6.23 43.214 0.371 7.55 4.21 11.72
3/16/2021 6:30:00 AM 6.21 43.178 0.372 7.56 4.17 11.72
3/16/2021 6:45:00 AM 6.18 43.124 0.371 7.56 3.92 11.75
3/16/2021 7:00:00 AM 6.16 43.088 0.372 7.56 3.97 11.67
3/16/2021 7:15:00 AM 6.13 43.034 0.372 7.55 4.13 11.73
3/16/2021 7:30:00 AM 6.12 43.016 0.372 7.56 4.19 11.77
3/16/2021 7:45:00 AM 6.1 42.98 0.371 7.56 4.27 11.8
3/16/2021 8:00:00 AM 6.07 42.926 0.371 7.56 4.12 11.78
3/16/2021 8:15:00 AM 6.05 42.89 0.371 7.56 4.04 11.84
3/16/2021 8:30:00 AM 6.02 42.836 0.371 7.56 3.94 11.83
3/16/2021 8:45:00 AM 6 42.8 0.371 7.58 4 12
3/16/2021 9:00:00 AM 5.99 42.782 0.371 7.59 3.95 12.08
3/16/2021 9:15:00 AM 5.98 42.764 0.371 7.61 3.7 12.24
3/16/2021 9:30:00 AM 5.98 42.764 0.371 7.62 3.73 12.35
3/16/2021 9:45:00 AM 5.99 42.782 0.371 7.63 3.6 12.52
3/16/2021 10:00:00 AM 6.01 42.818 0.371 7.66 3.56 12.59
3/16/2021 10:15:00 AM 6.02 42.836 0.371 7.68 3.69 12.77
3/16/2021 10:30:00 AM 6.01 42.818 0.37 7.7 3.8 12.89
3/16/2021 10:45:00 AM 6.01 42.818 0.37 7.71 3.92 12.88
3/16/2021 11:00:00 AM 6 42.8 0.371 7.72 3.77 13.01
3/16/2021 11:15:00 AM 6 42.8 0.371 7.73 3.86 13.08
3/16/2021 11:30:00 AM 6 42.8 0.371 7.74 3.84 13.13
3/16/2021 11:45:00 AM 6.03 42.854 0.37 7.76 3.71 13.28
3/16/2021 12:00:00 PM 6.08 42.944 0.37 7.78 3.74 13.39
3/16/2021 12:15:00 PM 6.12 43.016 0.37 7.8 3.97 13.47
3/16/2021 12:30:00 PM 6.16 43.088 0.37 7.82 3.84 13.56
3/16/2021 12:45:00 PM 5.36 41.648 0.322 6.8 3.11 11.81
3/16/2021 1:00:00 PM 6.08 42.944 0.363 7.71 3.58 13.38
3/16/2021 1:15:00 PM 6.19 43.142 0.369 7.84 3.77 13.64
3/16/2021 1:30:00 PM 6.21 43.178 0.37 7.87 3.61 13.69
3/16/2021 1:45:00 PM 6.2 43.16 0.37 7.87 3.49 13.67
3/16/2021 2:00:00 PM 5.36 41.648 0.322 6.81 2.79 11.79
3/16/2021 2:15:00 PM 6.06 42.908 0.363 7.72 3.31 13.28
3/16/2021 2:30:00 PM 6.16 43.088 0.369 7.84 3.71 13.49
3/16/2021 2:45:00 PM 6.17 43.106 0.37 7.85 3.52 13.56
3/16/2021 3:00:00 PM 6.17 43.106 0.37 7.85 3.65 13.53
3/16/2021 3:15:00 PM 6.19 43.142 0.37 7.86 3.72 13.54
3/16/2021 3:30:00 PM 6.23 43.214 0.37 7.87 3.87 13.6
3/16/2021 3:45:00 PM 6.28 43.304 0.37 7.9 3.56 13.66
3/16/2021 4:00:00 PM 6.32 43.376 0.37 7.92 3.51 13.74
3/16/2021 4:15:00 PM 6.36 43.448 0.37 7.94 3.91 13.69
3/16/2021 4:30:00 PM 6.39 43.502 0.37 7.96 4.17 13.77
3/16/2021 4:45:00 PM 6.41 43.538 0.37 7.96 5.46 13.78
3/16/2021 5:00:00 PM 6.41 43.538 0.37 7.96 3.89 13.81
3/16/2021 5:15:00 PM 6.4 43.52 0.37 7.95 3.64 13.72
3/16/2021 5:30:00 PM 6.39 43.502 0.37 7.94 3.5 13.71
3/16/2021 5:45:00 PM 5.53 41.954 0.322 6.88 2.96 11.78
3/16/2021 6:00:00 PM 6.25 43.25 0.363 7.77 3.49 13.21
3/16/2021 6:15:00 PM 6.34 43.412 0.369 7.87 3.94 13.4
3/16/2021 6:30:00 PM 6.35 43.43 0.37 7.87 3.63 13.29
3/16/2021 6:45:00 PM 6.34 43.412 0.37 7.85 3.41 13.18
3/16/2021 7:00:00 PM 6.33 43.394 0.37 7.82 3.31 13.08
3/16/2021 7:15:00 PM 6.32 43.376 0.37 7.8 3.16 12.96
3/16/2021 7:30:00 PM 6.32 43.376 0.371 7.79 3.22 12.83
3/16/2021 7:45:00 PM 6.31 43.358 0.37 7.78 3.37 12.69
3/16/2021 8:00:00 PM 5.47 41.846 0.322 6.72 2.87 10.95
3/16/2021 8:15:00 PM 6.2 43.16 0.364 7.61 3.39 12.35
3/16/2021 8:30:00 PM 6.29 43.322 0.37 7.72 3.6 12.49
3/16/2021 8:45:00 PM 6.3 43.34 0.37 7.73 3.46 12.47
3/16/2021 9:00:00 PM 6.3 43.34 0.371 7.72 3.35 12.4
3/16/2021 9:15:00 PM 6.29 43.322 0.371 7.71 3.25 12.43
3/16/2021 9:30:00 PM 6.28 43.304 0.371 7.7 3.95 12.34
3/16/2021 9:45:00 PM 6.27 43.286 0.37 7.69 3.52 12.31
3/16/2021 10:00:00 PM 6.27 43.286 0.371 7.68 3.3 12.28
3/16/2021 10:15:00 PM 6.26 43.268 0.37 7.68 3.19 12.21
3/16/2021 10:30:00 PM 6.25 43.25 0.371 7.67 3.26 12.19
3/16/2021 10:45:00 PM 6.25 43.25 0.371 7.66 3.18 12.17
3/16/2021 11:00:00 PM 6.25 43.25 0.371 7.66 3.36 12.13
3/16/2021 11:15:00 PM 6.24 43.232 0.371 7.66 3.29 12.13
3/16/2021 11:30:00 PM 6.23 43.214 0.371 7.65 3.24 12.08
3/16/2021 11:45:00 PM 6.22 43.196 0.371 7.64 3.25 12.11
3/17/2021 12:00:00 AM 6.21 43.178 0.371 7.64 3.32 12.01
3/17/2021 12:15:00 AM 5.38 41.684 0.323 6.62 2.95 10.42
3/17/2021 12:30:00 AM 6.08 42.944 0.364 7.5 3.4 11.78
3/17/2021 12:45:00 AM 6.17 43.106 0.37 7.61 3.35 11.97
3/17/2021 1:00:00 AM 6.18 43.124 0.371 7.62 3.53 11.99
3/17/2021 1:15:00 AM 6.19 43.142 0.371 7.62 3.48 11.89
3/17/2021 1:30:00 AM 6.19 43.142 0.372 7.62 3.52 11.93
3/17/2021 1:45:00 AM 6.19 43.142 0.371 7.62 3.52 11.92
3/17/2021 2:00:00 AM 6.18 43.124 0.371 7.61 3.38 11.88
3/17/2021 2:15:00 AM 6.17 43.106 0.371 7.61 3.28 11.87
3/17/2021 2:30:00 AM 6.16 43.088 0.371 7.61 3.32 11.89
3/17/2021 2:45:00 AM 6.16 43.088 0.371 7.61 3.4 11.92
3/17/2021 3:00:00 AM 6.16 43.088 0.371 7.61 3.4 11.89
3/17/2021 3:15:00 AM 6.16 43.088 0.371 7.6 3.25 11.84
3/17/2021 3:30:00 AM 6.15 43.07 0.371 7.6 3.4 11.84
3/17/2021 3:45:00 AM 6.15 43.07 0.371 7.6 3.29 11.87
3/17/2021 4:00:00 AM 6.15 43.07 0.37 7.6 3.32 11.86
3/17/2021 4:15:00 AM 6.15 43.07 0.371 7.59 3.36 11.83
3/17/2021 4:30:00 AM 6.14 43.052 0.371 7.58 3.3 11.82
3/17/2021 4:45:00 AM 6.14 43.052 0.371 7.59 3.36 11.81
3/17/2021 5:00:00 AM 6.14 43.052 0.371 7.59 3.27 11.82
3/17/2021 5:15:00 AM 6.14 43.052 0.371 7.59 3.46 11.81
3/17/2021 5:30:00 AM 6.14 43.052 0.371 7.59 3.26 11.82
3/17/2021 5:45:00 AM 6.13 43.034 0.371 7.59 3.25 11.81
3/17/2021 6:00:00 AM 6.13 43.034 0.371 7.58 3.38 11.76
3/17/2021 6:15:00 AM 6.13 43.034 0.371 7.58 3.42 11.81
3/17/2021 6:30:00 AM 6.13 43.034 0.371 7.59 3.45 11.8
3/17/2021 6:45:00 AM 6.12 43.016 0.371 7.58 3.37 11.83
3/17/2021 7:00:00 AM 6.12 43.016 0.371 7.58 3.42 11.8
3/17/2021 7:15:00 AM 6.12 43.016 0.371 7.58 3.35 11.78
3/17/2021 7:30:00 AM 6.12 43.016 0.371 7.58 3.38 11.8
3/17/2021 7:45:00 AM 6.12 43.016 0.371 7.58 3.35 11.81
3/17/2021 8:00:00 AM 6.12 43.016 0.371 7.58 3.38 11.84
3/17/2021 8:15:00 AM 6.13 43.034 0.371 7.59 3.4 11.92
3/17/2021 8:30:00 AM 6.13 43.034 0.371 7.59 3.59 11.99
3/17/2021 8:45:00 AM 6.15 43.07 0.371 7.61 3.53 12.08
3/17/2021 9:00:00 AM 6.17 43.106 0.371 7.63 3.45 12.21
3/17/2021 9:15:00 AM 6.19 43.142 0.371 7.64 3.37 12.39
3/17/2021 9:30:00 AM 6.22 43.196 0.37 7.67 3.19 12.51
3/17/2021 9:45:00 AM 6.25 43.25 0.37 7.69 3.11 12.63
3/17/2021 10:00:00 AM 6.28 43.304 0.37 7.71 3.13 12.68
3/17/2021 10:15:00 AM 6.31 43.358 0.37 7.73 3.55 12.87
3/17/2021 10:30:00 AM 6.33 43.394 0.37 7.75 3.4 12.97
3/17/2021 10:45:00 AM 5.53 41.954 0.322 6.73 2.84 11.37
3/17/2021 11:00:00 AM 6.29 43.322 0.364 7.65 3.36 12.94
3/17/2021 11:15:00 AM 6.44 43.592 0.369 7.79 3.42 13.24
3/17/2021 11:30:00 AM 6.49 43.682 0.37 7.82 3.44 13.33
3/17/2021 11:45:00 AM 6.54 43.772 0.37 7.84 3.3 13.41
3/17/2021 12:00:00 PM 6.6 43.88 0.37 7.87 3.36 13.54
3/17/2021 12:15:00 PM 6.67 44.006 0.37 7.9 3.28 13.65
3/17/2021 12:30:00 PM 6.74 44.132 0.369 7.92 3.32 13.71
3/17/2021 12:45:00 PM 6.8 44.24 0.369 7.93 3.4 13.71
3/17/2021 1:00:00 PM 6.84 44.312 0.369 7.95 3.36 13.77
3/17/2021 1:15:00 PM 6.89 44.402 0.369 7.97 3.43 13.82
3/17/2021 1:30:00 PM 6.93 44.474 0.369 7.98 3.53 13.86
3/17/2021 1:45:00 PM 6.97 44.546 0.369 7.99 4.15 13.8
3/17/2021 2:00:00 PM 7 44.6 0.369 8 3.66 13.81
3/17/2021 2:15:00 PM 7.04 44.672 0.369 8.01 3.67 13.88
3/17/2021 2:30:00 PM 7.08 44.744 0.369 8.02 4.35 13.87
3/17/2021 2:45:00 PM 7.12 44.816 0.369 8.03 3.57 13.86
3/17/2021 3:00:00 PM 7.15 44.87 0.368 8.04 3.55 13.76
3/17/2021 3:15:00 PM 7.18 44.924 0.368 8.04 3.85 13.84
3/17/2021 3:30:00 PM 7.21 44.978 0.369 8.04 3.35 13.78
3/17/2021 3:45:00 PM 7.23 45.014 0.369 8.04 3.22 13.75
3/17/2021 4:00:00 PM 7.27 45.086 0.369 8.04 3.33 13.77
3/17/2021 4:15:00 PM 7.32 45.176 0.369 8.06 3.19 13.79
3/17/2021 4:30:00 PM 7.37 45.266 0.369 8.07 3.65 13.63
3/17/2021 4:45:00 PM 7.41 45.338 0.369 8.08 3.24 13.78
3/17/2021 5:00:00 PM 7.44 45.392 0.368 8.08 3.06 13.72
3/17/2021 5:15:00 PM 7.46 45.428 0.368 8.07 3.25 13.64
3/17/2021 5:30:00 PM 7.47 45.446 0.368 8.06 3.37 13.54
3/17/2021 5:45:00 PM 7.48 45.464 0.368 8.04 3.36 13.37
3/17/2021 6:00:00 PM 7.48 45.464 0.368 8.02 3.31 13.26
3/17/2021 6:15:00 PM 6.48 43.664 0.32 6.92 2.8 11.35
3/17/2021 6:30:00 PM 7.34 45.212 0.362 7.81 3.15 12.79
3/17/2021 6:45:00 PM 7.46 45.428 0.368 7.91 3.05 12.89
3/17/2021 7:00:00 PM 7.48 45.464 0.369 7.9 3.12 12.74
3/17/2021 7:15:00 PM 7.49 45.482 0.369 7.88 3.18 12.65
3/17/2021 7:30:00 PM 7.49 45.482 0.369 7.86 3.09 12.51
3/17/2021 7:45:00 PM 7.49 45.482 0.369 7.84 3.19 12.39
3/17/2021 8:00:00 PM 7.5 45.5 0.369 7.82 3.14 12.22
3/17/2021 8:15:00 PM 7.5 45.5 0.369 7.81 3.26 12.2
3/17/2021 8:30:00 PM 7.51 45.518 0.369 7.79 3.29 12.12
3/17/2021 8:45:00 PM 7.51 45.518 0.369 7.78 3.3 12.06
3/17/2021 9:00:00 PM 7.52 45.536 0.369 7.77 3.3 12
3/17/2021 9:15:00 PM 7.52 45.536 0.369 7.75 3.27 11.93
3/17/2021 9:30:00 PM 7.52 45.536 0.369 7.75 3.27 11.91
3/17/2021 9:45:00 PM 7.52 45.536 0.369 7.74 3.48 11.81
3/17/2021 10:00:00 PM 7.52 45.536 0.369 7.73 3.48 11.78
3/17/2021 10:15:00 PM 7.52 45.536 0.369 7.71 3.62 11.71
3/17/2021 10:30:00 PM 7.53 45.554 0.369 7.71 3.6 11.7
3/17/2021 10:45:00 PM 7.53 45.554 0.369 7.7 3.54 11.63
3/17/2021 11:00:00 PM 7.53 45.554 0.369 7.69 3.54 11.6
3/17/2021 11:15:00 PM 7.53 45.554 0.369 7.68 3.55 11.54
3/17/2021 11:30:00 PM 7.54 45.572 0.369 7.67 3.41 11.54
3/17/2021 11:45:00 PM 7.54 45.572 0.369 7.67 3.46 11.48
3/18/2021 12:00:00 AM 7.55 45.59 0.369 7.66 3.46 11.48
3/18/2021 12:15:00 AM 7.55 45.59 0.369 7.66 3.44 11.43
3/18/2021 12:30:00 AM 7.56 45.608 0.369 7.65 3.56 11.43
3/18/2021 12:45:00 AM 7.56 45.608 0.369 7.65 3.53 11.42
3/18/2021 1:00:00 AM 7.57 45.626 0.369 7.64 3.62 11.39
3/18/2021 1:15:00 AM 7.57 45.626 0.369 7.64 3.48 11.34
3/18/2021 1:30:00 AM 7.58 45.644 0.369 7.64 3.58 11.28
3/18/2021 1:45:00 AM 7.58 45.644 0.369 7.63 3.54 11.31
3/18/2021 2:00:00 AM 7.59 45.662 0.369 7.63 3.55 11.28
3/18/2021 2:15:00 AM 7.6 45.68 0.369 7.63 3.56 11.3
3/18/2021 2:30:00 AM 7.6 45.68 0.369 7.63 3.59 11.29
3/18/2021 2:45:00 AM 7.61 45.698 0.369 7.62 3.69 11.26
3/18/2021 3:00:00 AM 7.61 45.698 0.369 7.62 3.59 11.22
3/18/2021 3:15:00 AM 7.62 45.716 0.369 7.61 3.61 11.24
3/18/2021 3:30:00 AM 7.62 45.716 0.368 7.61 3.61 11.22
3/18/2021 3:45:00 AM 7.62 45.716 0.368 7.61 3.51 11.21
3/18/2021 4:00:00 AM 7.63 45.734 0.369 7.6 3.56 11.11
3/18/2021 4:15:00 AM 7.63 45.734 0.369 7.61 3.46 11.18
3/18/2021 4:30:00 AM 7.63 45.734 0.369 7.6 3.52 11.19
3/18/2021 4:45:00 AM 7.63 45.734 0.369 7.6 3.57 11.16
3/18/2021 5:00:00 AM 7.64 45.752 0.369 7.6 3.66 11.15
3/18/2021 5:15:00 AM 7.64 45.752 0.369 7.6 3.62 11.14
3/18/2021 5:30:00 AM 7.64 45.752 0.369 7.6 3.71 11.14
3/18/2021 5:45:00 AM 7.65 45.77 0.369 7.59 3.6 11.14
3/18/2021 6:00:00 AM 7.65 45.77 0.369 7.59 3.65 11.15
3/18/2021 6:15:00 AM 7.65 45.77 0.369 7.58 3.99 11.15
3/18/2021 6:30:00 AM 7.66 45.788 0.369 7.59 3.86 11.07
3/18/2021 6:45:00 AM 7.66 45.788 0.369 7.59 3.83 11.11
3/18/2021 7:00:00 AM 7.66 45.788 0.368 7.58 3.88 11.12
3/18/2021 7:15:00 AM 7.67 45.806 0.368 7.58 3.9 11.08
3/18/2021 7:30:00 AM 7.67 45.806 0.368 7.58 3.71 11.05
3/18/2021 7:45:00 AM 7.67 45.806 0.368 7.58 3.75 11.1
3/18/2021 8:00:00 AM 7.68 45.824 0.368 7.58 3.73 11.1
3/18/2021 8:15:00 AM 7.68 45.824 0.367 7.58 3.68 11.12
3/18/2021 8:30:00 AM 7.69 45.842 0.366 7.58 3.83 11.15
3/18/2021 8:45:00 AM 7.69 45.842 0.365 7.59 4.01 11.22
3/18/2021 9:00:00 AM 7.7 45.86 0.365 7.59 4.3 11.25
3/18/2021 9:15:00 AM 7.7 45.86 0.364 7.6 4.55 11.26
3/18/2021 9:30:00 AM 7.71 45.878 0.364 7.62 4.68 11.38
3/18/2021 9:45:00 AM 7.73 45.914 0.363 7.62 4.65 11.45
3/18/2021 10:00:00 AM 7.74 45.932 0.363 7.63 4.79 11.46
3/18/2021 10:15:00 AM 7.75 45.95 0.362 7.64 4.67 11.58
3/18/2021 10:30:00 AM 7.76 45.968 0.362 7.65 4.66 11.64
3/18/2021 10:45:00 AM 7.76 45.968 0.361 7.66 4.68 11.7
3/18/2021 11:00:00 AM 7.77 45.986 0.361 7.66 4.59 11.68
3/18/2021 11:15:00 AM 7.77 45.986 0.36 7.66 4.51 11.71
3/18/2021 11:30:00 AM 7.78 46.004 0.359 7.67 4.7 11.72
3/18/2021 11:45:00 AM 7.79 46.022 0.359 7.68 4.57 11.76
3/18/2021 12:00:00 PM 7.8 46.04 0.358 7.7 4.54 11.94
3/18/2021 12:15:00 PM 6.8 44.24 0.311 6.7 4.02 10.52
3/18/2021 12:30:00 PM 7.72 45.896 0.35 7.61 4.58 12.01
3/18/2021 12:45:00 PM 7.87 46.166 0.354 7.76 4.72 12.34
3/18/2021 1:00:00 PM 7.89 46.202 0.354 7.79 4.87 12.39
3/18/2021 1:15:00 PM 7.9 46.22 0.353 7.79 4.89 12.41
3/18/2021 1:30:00 PM 6.85 44.33 0.306 6.76 4.37 10.74
3/18/2021 1:45:00 PM 7.76 45.968 0.345 7.66 5.31 12.19
3/18/2021 2:00:00 PM 6.85 44.33 0.305 6.76 4.82 10.68
3/18/2021 2:15:00 PM 7.74 45.932 0.344 7.65 5.67 12.07
3/18/2021 2:30:00 PM 7.86 46.148 0.348 7.76 6.13 12.25
3/18/2021 2:45:00 PM 7.88 46.184 0.347 7.79 6.95 12.22
3/18/2021 3:00:00 PM 7.88 46.184 0.346 7.79 7.99 12.22
3/18/2021 3:15:00 PM 7.88 46.184 0.345 7.79 8.76 12.19
3/18/2021 3:30:00 PM 7.89 46.202 0.343 7.8 9.31 12.22
3/18/2021 3:45:00 PM 7.9 46.22 0.343 7.8 9.21 12.27
3/18/2021 4:00:00 PM 7.91 46.238 0.341 7.81 9.45 12.24
3/18/2021 4:15:00 PM 7.92 46.256 0.34 7.81 9.62 12.24
3/18/2021 4:30:00 PM 7.92 46.256 0.338 7.81 10.29 12.24
3/18/2021 4:45:00 PM 7.92 46.256 0.336 7.8 11.24 12.13
3/18/2021 5:00:00 PM 7.92 46.256 0.334 7.8 12.06 12.11
3/18/2021 5:15:00 PM 7.92 46.256 0.333 7.79 12.69 12.05
3/18/2021 5:30:00 PM 7.92 46.256 0.333 7.78 12.03 12.05
3/18/2021 5:45:00 PM 7.91 46.238 0.331 7.78 12.36 12.04
3/18/2021 6:00:00 PM 7.91 46.238 0.33 7.77 12.57 12
3/18/2021 6:15:00 PM 7.92 46.256 0.329 7.76 13.73 11.98
3/18/2021 6:30:00 PM 7.91 46.238 0.328 7.76 15.28 11.89
3/18/2021 6:45:00 PM 7.9 46.22 0.327 7.74 16.6 11.85
3/18/2021 7:00:00 PM 7.89 46.202 0.325 7.72 18.49 11.79
3/18/2021 7:15:00 PM 7.87 46.166 0.324 7.71 21.57 11.78
3/18/2021 7:30:00 PM 7.86 46.148 0.323 7.69 23.2 11.65
3/18/2021 7:45:00 PM 7.85 46.13 0.322 7.68 24.69 11.62
3/18/2021 8:00:00 PM 7.84 46.112 0.32 7.67 27.75 11.57
3/18/2021 8:15:00 PM 7.83 46.094 0.318 7.66 29.41 11.52
3/18/2021 8:30:00 PM 7.82 46.076 0.317 7.65 34.46 11.51
3/18/2021 8:45:00 PM 6.78 44.204 0.274 6.62 35.86 9.96
3/18/2021 9:00:00 PM 7.67 45.806 0.308 7.5 40.16 11.29
3/18/2021 9:15:00 PM 7.78 46.004 0.311 7.61 38.53 11.47
3/18/2021 9:30:00 PM 7.78 46.004 0.311 7.62 40.62 11.42
3/18/2021 9:45:00 PM 6.75 44.15 0.269 6.6 34.04 9.9
3/18/2021 10:00:00 PM 7.63 45.734 0.302 7.47 39.93 11.24
3/18/2021 10:15:00 PM 7.73 45.914 0.305 7.58 43.37 11.4
3/18/2021 10:30:00 PM 7.74 45.932 0.304 7.59 46.85 11.33
3/18/2021 10:45:00 PM 7.73 45.914 0.303 7.59 47.9 11.32
3/18/2021 11:00:00 PM 7.72 45.896 0.302 7.58 52.78 11.32
3/18/2021 11:15:00 PM 7.71 45.878 0.301 7.58 55.34 11.32
3/18/2021 11:30:00 PM 7.7 45.86 0.299 7.57 56.63 11.26
3/18/2021 11:45:00 PM 7.68 45.824 0.298 7.57 56.7 11.27
3/19/2021 12:00:00 AM 7.67 45.806 0.297 7.56 54.71 11.26
3/19/2021 12:15:00 AM 7.65 45.77 0.296 7.55 53.9 11.32
3/19/2021 12:30:00 AM 7.63 45.734 0.296 7.55 51.97 11.2
3/19/2021 12:45:00 AM 7.62 45.716 0.297 7.54 51.37 11.24
3/19/2021 1:00:00 AM 7.6 45.68 0.298 7.54 50.59 11.19
3/19/2021 1:15:00 AM 7.58 45.644 0.299 7.53 51.42 11.26
3/19/2021 1:30:00 AM 7.56 45.608 0.3 7.53 51.94 11.22
3/19/2021 1:45:00 AM 7.53 45.554 0.302 7.52 51.39 11.2
3/19/2021 2:00:00 AM 7.51 45.518 0.303 7.51 52.12 11.18
3/19/2021 2:15:00 AM 7.48 45.464 0.303 7.51 51.48 11.25
3/19/2021 2:30:00 AM 7.45 45.41 0.304 7.51 49.01 11.21
3/19/2021 2:45:00 AM 7.42 45.356 0.306 7.5 47.7 11.22
3/19/2021 3:00:00 AM 7.39 45.302 0.307 7.51 45.07 11.22
3/19/2021 3:15:00 AM 7.36 45.248 0.308 7.5 43.56 11.26
3/19/2021 3:30:00 AM 7.32 45.176 0.308 7.5 43.34 11.24
3/19/2021 3:45:00 AM 7.28 45.104 0.309 7.5 41.28 11.22
3/19/2021 4:00:00 AM 7.24 45.032 0.311 7.49 40.48 11.26
3/19/2021 4:15:00 AM 7.2 44.96 0.312 7.49 39.43 11.24
3/19/2021 4:30:00 AM 7.15 44.87 0.313 7.49 38.54 11.28
3/19/2021 4:45:00 AM 7.1 44.78 0.315 7.5 38.42 11.29
3/19/2021 5:00:00 AM 7.06 44.708 0.316 7.5 37.36 11.31
3/19/2021 5:15:00 AM 7.01 44.618 0.317 7.49 37.84 11.31
3/19/2021 5:30:00 AM 6.96 44.528 0.318 7.49 36.05 11.31
3/19/2021 5:45:00 AM 6.91 44.438 0.319 7.49 36.01 11.33
3/19/2021 6:00:00 AM 6.85 44.33 0.32 7.49 35.16 11.37
3/19/2021 6:15:00 AM 6.8 44.24 0.321 7.49 34.4 11.37
3/19/2021 6:30:00 AM 6.75 44.15 0.321 7.49 33.32 11.4
3/19/2021 6:45:00 AM 6.7 44.06 0.322 7.49 32.46 11.43
3/19/2021 7:00:00 AM 6.65 43.97 0.322 7.49 31.62 11.44
3/19/2021 7:15:00 AM 6.6 43.88 0.323 7.48 30.55 11.44
3/19/2021 7:30:00 AM 6.55 43.79 0.323 7.48 29.49 11.47
3/19/2021 7:45:00 AM 6.5 43.7 0.323 7.49 28.08 11.51
3/19/2021 8:00:00 AM 6.47 43.646 0.324 7.49 26.87 11.55
3/19/2021 8:15:00 AM 6.44 43.592 0.325 7.49 26.04 11.6
3/19/2021 8:30:00 AM 6.42 43.556 0.325 7.49 25.7 11.63
3/19/2021 8:45:00 AM 6.41 43.538 0.326 7.51 24.33 11.74
3/19/2021 9:00:00 AM 6.41 43.538 0.326 7.52 23.71 11.82
3/19/2021 9:15:00 AM 6.41 43.538 0.327 7.53 22.84 11.89
3/19/2021 9:30:00 AM 6.41 43.538 0.328 7.54 22.03 12.01
3/19/2021 9:45:00 AM 6.36 43.448 0.328 7.54 21.13 12.02
3/19/2021 10:00:00 AM 6.36 43.448 0.329 7.55 20.51 12.08
3/19/2021 10:15:00 AM 6.16 43.088 0.318 7.27 19 11.74
3/19/2021 10:30:00 AM 6.45 43.61 0.329 7.54 18.9 12.22
3/19/2021 10:45:00 AM 6.58 43.844 0.331 7.59 18.3 12.35
3/19/2021 11:00:00 AM 6.67 44.006 0.332 7.61 17.8 12.44
3/19/2021 11:15:00 AM 6.76 44.168 0.333 7.64 17.52 12.51
3/19/2021 11:30:00 AM 6.88 44.384 0.333 7.65 16.55 12.6
3/19/2021 11:45:00 AM 6.95 44.51 0.334 7.67 16.13 12.66
3/19/2021 12:00:00 PM 6.99 44.582 0.335 7.68 15.25 12.73
3/19/2021 12:15:00 PM 7.07 44.726 0.336 7.7 15.14 12.76
3/19/2021 12:30:00 PM 7.22 44.996 0.336 7.71 14.76 12.76
3/19/2021 12:45:00 PM 7.4 45.32 0.337 7.73 14.47 12.77
3/19/2021 1:00:00 PM 7.59 45.662 0.337 7.74 14.32 12.84
3/19/2021 1:15:00 PM 7.77 45.986 0.338 7.76 13.67 12.86
3/19/2021 1:30:00 PM 7.93 46.274 0.338 7.77 13.27 12.86
3/19/2021 1:45:00 PM 8.05 46.49 0.338 7.79 13.2 12.89
3/19/2021 2:00:00 PM 8.16 46.688 0.339 7.8 12.88 12.93
3/19/2021 2:15:00 PM 8.26 46.868 0.34 7.82 12.48 12.93
3/19/2021 2:30:00 PM 8.36 47.048 0.34 7.83 12.08 12.98
3/19/2021 2:45:00 PM 8.44 47.192 0.341 7.84 11.95 13.01
3/19/2021 3:00:00 PM 8.52 47.336 0.341 7.85 11.94 12.98
3/19/2021 3:15:00 PM 8.58 47.444 0.342 7.86 11.86 12.95
3/19/2021 3:30:00 PM 8.65 47.57 0.342 7.87 11.9 12.96
3/19/2021 3:45:00 PM 8.71 47.678 0.342 7.88 11.47 12.97
3/19/2021 4:00:00 PM 8.76 47.768 0.343 7.88 10.92 12.96
3/19/2021 4:15:00 PM 8.78 47.804 0.343 7.88 10.8 12.94
3/19/2021 4:30:00 PM 8.8 47.84 0.343 7.89 10.69 12.88
3/19/2021 4:45:00 PM 8.82 47.876 0.344 7.88 10.58 12.86
3/19/2021 5:00:00 PM 8.82 47.876 0.345 7.88 10.09 12.76
3/19/2021 5:15:00 PM 8.8 47.84 0.345 7.88 10.06 12.69
3/19/2021 5:30:00 PM 8.78 47.804 0.345 7.87 9.7 12.68
3/19/2021 5:45:00 PM 7.62 45.716 0.301 6.82 8.34 10.91
3/19/2021 6:00:00 PM 8.59 47.462 0.34 7.71 9.36 12.33
3/19/2021 6:15:00 PM 8.71 47.678 0.346 7.82 9.27 12.41
3/19/2021 6:30:00 PM 8.71 47.678 0.347 7.82 9.14 12.34
3/19/2021 6:45:00 PM 8.68 47.624 0.348 7.8 9.14 12.24
3/19/2021 7:00:00 PM 8.65 47.57 0.348 7.79 9.07 12.13
3/19/2021 7:15:00 PM 7.48 45.464 0.303 6.74 7.9 10.44
3/19/2021 7:30:00 PM 8.43 47.174 0.343 7.62 8.86 11.71
3/19/2021 7:45:00 PM 8.51 47.318 0.348 7.72 9.13 11.83
3/19/2021 8:00:00 PM 8.48 47.264 0.349 7.73 9.08 11.79
3/19/2021 8:15:00 PM 8.42 47.156 0.35 7.71 9.08 11.74
3/19/2021 8:30:00 PM 8.37 47.066 0.351 7.7 9.06 11.67
3/19/2021 8:45:00 PM 8.31 46.958 0.351 7.7 8.93 11.56
3/19/2021 9:00:00 PM 8.25 46.85 0.352 7.68 8.97 11.61
3/19/2021 9:15:00 PM 8.2 46.76 0.352 7.67 8.88 11.52
3/19/2021 9:30:00 PM 8.14 46.652 0.352 7.66 8.77 11.49
3/19/2021 9:45:00 PM 8.09 46.562 0.352 7.65 8.98 11.46
3/19/2021 10:00:00 PM 8.04 46.472 0.353 7.64 8.62 11.42
3/19/2021 10:15:00 PM 7.98 46.364 0.353 7.63 8.5 11.42
3/19/2021 10:30:00 PM 7.93 46.274 0.353 7.63 8.63 11.41
3/19/2021 10:45:00 PM 7.87 46.166 0.353 7.62 8.56 11.37
3/19/2021 11:00:00 PM 7.82 46.076 0.354 7.61 8.45 11.35
3/19/2021 11:15:00 PM 7.77 45.986 0.355 7.61 8.46 11.34
3/19/2021 11:30:00 PM 7.72 45.896 0.354 7.6 8.28 11.34
3/19/2021 11:45:00 PM 7.66 45.788 0.355 7.59 8.34 11.32
3/20/2021 12:00:00 AM 7.61 45.698 0.355 7.59 8.34 11.32
3/20/2021 12:15:00 AM 7.56 45.608 0.356 7.58 8.21 11.31
3/20/2021 12:30:00 AM 7.5 45.5 0.355 7.59 8.11 11.29
3/20/2021 12:45:00 AM 7.45 45.41 0.356 7.58 8.03 11.32
3/20/2021 1:00:00 AM 7.39 45.302 0.356 7.58 8.03 11.33
3/20/2021 1:15:00 AM 7.33 45.194 0.356 7.57 8.06 11.32
3/20/2021 1:30:00 AM 7.27 45.086 0.357 7.57 8.08 11.39
3/20/2021 1:45:00 AM 7.21 44.978 0.357 7.57 8.02 11.41
3/20/2021 2:00:00 AM 7.14 44.852 0.358 7.56 8.25 11.44
3/20/2021 2:15:00 AM 7.07 44.726 0.358 7.56 8.11 11.39
3/20/2021 2:30:00 AM 7 44.6 0.358 7.56 8 11.39
3/20/2021 2:45:00 AM 6.93 44.474 0.358 7.56 8.1 11.44
3/20/2021 3:00:00 AM 6.86 44.348 0.359 7.55 7.88 11.48
3/20/2021 3:15:00 AM 6.78 44.204 0.359 7.55 7.62 11.52
3/20/2021 3:30:00 AM 6.71 44.078 0.359 7.54 7.62 11.48
3/20/2021 3:45:00 AM 6.64 43.952 0.359 7.54 8.34 11.51
3/20/2021 4:00:00 AM 5.69 42.242 0.313 6.54 6.76 10.03
3/20/2021 4:15:00 AM 6.38 43.484 0.353 7.4 7.59 11.35
3/20/2021 4:30:00 AM 6.41 43.538 0.359 7.52 7.86 11.55
3/20/2021 4:45:00 AM 6.35 43.43 0.36 7.53 7.6 11.6
3/20/2021 5:00:00 AM 6.29 43.322 0.36 7.53 7.49 11.59
3/20/2021 5:15:00 AM 6.22 43.196 0.36 7.53 7.62 11.63
3/20/2021 5:30:00 AM 6.15 43.07 0.361 7.52 7.54 11.68
3/20/2021 5:45:00 AM 6.09 42.962 0.361 7.52 7.46 11.74
3/20/2021 6:00:00 AM 6.02 42.836 0.361 7.52 7.48 11.74
3/20/2021 6:15:00 AM 5.96 42.728 0.361 7.52 7.21 11.78
3/20/2021 6:30:00 AM 5.89 42.602 0.361 7.53 7.09 11.83
3/20/2021 6:45:00 AM 5.82 42.476 0.362 7.52 7.13 11.76
3/20/2021 7:00:00 AM 5.75 42.35 0.362 7.52 7.04 11.85
3/20/2021 7:15:00 AM 5.69 42.242 0.362 7.52 7.01 11.89
3/20/2021 7:30:00 AM 5.63 42.134 0.362 7.52 6.75 11.94
3/20/2021 7:45:00 AM 5.57 42.026 0.363 7.52 6.65 11.99
3/20/2021 8:00:00 AM 5.53 41.954 0.363 7.53 6.58 12.09
3/20/2021 8:15:00 AM 5.5 41.9 0.363 7.54 6.42 12.22
3/20/2021 8:30:00 AM 5.49 41.882 0.363 7.55 6.31 12.32
3/20/2021 8:45:00 AM 4.76 40.568 0.316 6.56 5.12 10.83
3/20/2021 9:00:00 AM 5.41 41.738 0.357 7.45 5.58 12.36
3/20/2021 9:15:00 AM 5.53 41.954 0.362 7.58 5.41 12.64
3/20/2021 9:30:00 AM 5.58 42.044 0.363 7.61 5.34 12.7
3/20/2021 9:45:00 AM 5.63 42.134 0.363 7.62 5.32 12.79
3/20/2021 10:00:00 AM 5.7 42.26 0.363 7.64 5.23 12.92
3/20/2021 10:15:00 AM 5.79 42.422 0.364 7.66 5.13 13.1
3/20/2021 10:30:00 AM 5.88 42.584 0.363 7.68 5.26 13.16
3/20/2021 10:45:00 AM 6 42.8 0.363 7.7 5.35 13.25
3/20/2021 11:00:00 AM 6.12 43.016 0.363 7.71 5.39 13.33
3/20/2021 11:15:00 AM 6.26 43.268 0.363 7.73 5.16 13.38
3/20/2021 11:30:00 AM 6.41 43.538 0.363 7.75 4.89 13.38
3/20/2021 11:45:00 AM 6.57 43.826 0.363 7.77 4.82 13.45
3/20/2021 12:00:00 PM 6.74 44.132 0.363 7.79 4.82 13.41
3/20/2021 12:15:00 PM 6.93 44.474 0.363 7.81 4.75 13.49
3/20/2021 12:30:00 PM 7.12 44.816 0.362 7.82 4.84 13.5
3/20/2021 12:45:00 PM 7.31 45.158 0.363 7.84 5.05 13.53
3/20/2021 1:00:00 PM 7.51 45.518 0.363 7.86 4.59 13.56
3/20/2021 1:15:00 PM 6.7 44.06 0.315 6.82 3.86 11.77
3/20/2021 1:30:00 PM 7.76 45.968 0.356 7.75 4.45 13.4
3/20/2021 1:45:00 PM 8.05 46.49 0.361 7.89 4.55 13.57
3/20/2021 2:00:00 PM 8.23 46.814 0.362 7.91 4.67 13.56
3/20/2021 2:15:00 PM 8.39 47.102 0.362 7.94 4.63 13.57
3/20/2021 2:30:00 PM 8.52 47.336 0.362 7.96 4.54 13.58
3/20/2021 2:45:00 PM 8.63 47.534 0.362 7.97 4.62 13.62
3/20/2021 3:00:00 PM 8.74 47.732 0.362 7.98 4.96 13.57
3/20/2021 3:15:00 PM 8.82 47.876 0.362 7.99 4.58 13.53
3/20/2021 3:30:00 PM 8.91 48.038 0.362 8 4.58 13.52
3/20/2021 3:45:00 PM 8.97 48.146 0.362 8.01 4.6 13.53
3/20/2021 4:00:00 PM 9.03 48.254 0.362 8.02 4.75 13.45
3/20/2021 4:15:00 PM 9.06 48.308 0.362 8.03 4.92 13.46
3/20/2021 4:30:00 PM 9.09 48.362 0.362 8.03 4.77 13.48
3/20/2021 4:45:00 PM 9.11 48.398 0.362 8.04 4.6 13.41
3/20/2021 5:00:00 PM 9.12 48.416 0.362 8.03 4.67 13.29
3/20/2021 5:15:00 PM 9.13 48.434 0.362 8.02 4.52 13.23
3/20/2021 5:30:00 PM 9.13 48.434 0.362 8.01 4.48 13.13
3/20/2021 5:45:00 PM 9.13 48.434 0.362 8 4.44 13.02
3/20/2021 6:00:00 PM 9.13 48.434 0.362 7.99 4.45 12.92
3/20/2021 6:15:00 PM 9.13 48.434 0.362 7.97 5.18 12.86
3/20/2021 6:30:00 PM 9.12 48.416 0.361 7.95 6.77 12.69
3/20/2021 6:45:00 PM 9.12 48.416 0.361 7.93 6.11 12.57
3/20/2021 7:00:00 PM 9.11 48.398 0.361 7.91 5.21 12.45
3/20/2021 7:15:00 PM 9.09 48.362 0.361 7.89 5.05 12.29
3/20/2021 7:30:00 PM 9.06 48.308 0.361 7.86 4.91 12.15
3/20/2021 7:45:00 PM 9.02 48.236 0.361 7.84 5.03 11.89
3/20/2021 8:00:00 PM 8.97 48.146 0.361 7.82 5 11.87
3/20/2021 8:15:00 PM 8.93 48.074 0.361 7.8 5 11.83
3/20/2021 8:30:00 PM 8.89 48.002 0.361 7.79 5.18 11.78
3/20/2021 8:45:00 PM 8.85 47.93 0.36 7.78 5.32 11.69
3/20/2021 9:00:00 PM 8.81 47.858 0.36 7.76 5.34 11.64
3/20/2021 9:15:00 PM 8.76 47.768 0.359 7.76 5.24 11.63
3/20/2021 9:30:00 PM 8.71 47.678 0.359 7.74 5.14 11.54
3/20/2021 9:45:00 PM 8.66 47.588 0.36 7.73 5.11 11.53
3/20/2021 10:00:00 PM 8.62 47.516 0.36 7.71 5.27 11.47
3/20/2021 10:15:00 PM 8.57 47.426 0.361 7.7 5.67 11.42
3/20/2021 10:30:00 PM 8.53 47.354 0.362 7.69 6.46 11.33
3/20/2021 10:45:00 PM 8.48 47.264 0.362 7.67 7.17 11.3
3/20/2021 11:00:00 PM 8.43 47.174 0.362 7.66 7.18 11.26
3/20/2021 11:15:00 PM 8.37 47.066 0.363 7.66 7.27 11.25
3/20/2021 11:30:00 PM 8.32 46.976 0.364 7.65 7.19 11.22
3/20/2021 11:45:00 PM 8.27 46.886 0.363 7.64 7.16 11.2
3/21/2021 12:00:00 AM 8.22 46.796 0.363 7.64 6.82 11.23
3/21/2021 12:15:00 AM 8.16 46.688 0.364 7.63 6.69 11.2
3/21/2021 12:30:00 AM 8.11 46.598 0.364 7.62 6.43 11.15
3/21/2021 12:45:00 AM 8.07 46.526 0.364 7.62 6.39 11.15
3/21/2021 1:00:00 AM 8.01 46.418 0.364 7.61 6.49 11.15
3/21/2021 1:15:00 AM 7.97 46.346 0.363 7.61 6.5 11.13
3/21/2021 1:30:00 AM 7.91 46.238 0.363 7.6 6.95 11.15
3/21/2021 1:45:00 AM 7.86 46.148 0.363 7.6 6.86 11.14
3/21/2021 2:00:00 AM 7.81 46.058 0.363 7.6 6.82 11.16
3/21/2021 2:15:00 AM 7.75 45.95 0.362 7.59 6.96 11.14
3/21/2021 2:30:00 AM 7.7 45.86 0.362 7.59 7.08 11.15
3/21/2021 2:45:00 AM 7.65 45.77 0.362 7.58 6.87 11.15
3/21/2021 3:00:00 AM 7.59 45.662 0.362 7.58 6.73 11.13
3/21/2021 3:15:00 AM 7.53 45.554 0.362 7.58 6.83 11.14
3/21/2021 3:30:00 AM 7.47 45.446 0.362 7.57 6.59 11.2
3/21/2021 3:45:00 AM 7.41 45.338 0.362 7.56 6.71 11.23
3/21/2021 4:00:00 AM 7.35 45.23 0.363 7.57 6.76 11.21
3/21/2021 4:15:00 AM 7.29 45.122 0.363 7.57 6.58 11.27
3/21/2021 4:30:00 AM 7.22 44.996 0.362 7.56 6.81 11.23
3/21/2021 4:45:00 AM 7.16 44.888 0.363 7.56 6.9 11.29
3/21/2021 5:00:00 AM 7.09 44.762 0.363 7.56 7.28 11.31
3/21/2021 5:15:00 AM 7.03 44.654 0.363 7.56 6.61 11.3
3/21/2021 5:30:00 AM 6.96 44.528 0.363 7.55 6.26 11.37
3/21/2021 5:45:00 AM 6.9 44.42 0.363 7.55 6.05 11.31
3/21/2021 6:00:00 AM 6.83 44.294 0.363 7.55 5.89 11.38
3/21/2021 6:15:00 AM 6.76 44.168 0.363 7.55 5.81 11.42
3/21/2021 6:30:00 AM 5.8 42.44 0.316 6.54 4.86 9.95
3/21/2021 6:45:00 AM 6.51 43.718 0.357 7.41 5.61 11.26
3/21/2021 7:00:00 AM 6.55 43.79 0.363 7.53 5.93 11.45
3/21/2021 7:15:00 AM 6.5 43.7 0.364 7.54 5.67 11.54
3/21/2021 7:30:00 AM 6.44 43.592 0.364 7.54 6.02 11.57
3/21/2021 7:45:00 AM 6.38 43.484 0.364 7.55 6.01 11.65
3/21/2021 8:00:00 AM 6.34 43.412 0.364 7.56 5.59 11.7
3/21/2021 8:15:00 AM 6.31 43.358 0.364 7.57 5.63 11.85
3/21/2021 8:30:00 AM 6.3 43.34 0.364 7.58 5.47 12.01
3/21/2021 8:45:00 AM 6.31 43.358 0.364 7.6 5.34 12.14
3/21/2021 9:00:00 AM 6.34 43.412 0.364 7.62 5.17 12.28
3/21/2021 9:15:00 AM 6.38 43.484 0.364 7.64 4.89 12.4
3/21/2021 9:30:00 AM 6.44 43.592 0.364 7.66 4.84 12.57
3/21/2021 9:45:00 AM 6.52 43.736 0.364 7.67 4.66 12.7
3/21/2021 10:00:00 AM 6.6 43.88 0.364 7.69 4.65 12.8
3/21/2021 10:15:00 AM 6.71 44.078 0.364 7.71 5.21 12.94
3/21/2021 10:30:00 AM 6.83 44.294 0.364 7.74 4.65 13.01
3/21/2021 10:45:00 AM 6.97 44.546 0.364 7.76 4.8 13.1
3/21/2021 11:00:00 AM 7.11 44.798 0.364 7.78 4.49 13.17
3/21/2021 11:15:00 AM 7.26 45.068 0.364 7.81 4.32 13.26
3/21/2021 11:30:00 AM 7.42 45.356 0.364 7.83 4.37 13.3
3/21/2021 11:45:00 AM 7.59 45.662 0.363 7.85 4.23 13.36
3/21/2021 12:00:00 PM 7.77 45.986 0.363 7.87 4.03 13.4
3/21/2021 12:15:00 PM 7.96 46.328 0.363 7.89 4.05 13.4
3/21/2021 12:30:00 PM 8.17 46.706 0.363 7.91 4.22 13.43
3/21/2021 12:45:00 PM 8.37 47.066 0.363 7.94 4 13.49
3/21/2021 1:00:00 PM 8.58 47.444 0.363 7.97 3.89 13.54
3/21/2021 1:15:00 PM 8.78 47.804 0.363 7.99 3.95 13.6
3/21/2021 1:30:00 PM 8.98 48.164 0.362 8.01 3.99 13.59
3/21/2021 1:45:00 PM 9.17 48.506 0.362 8.03 4.37 13.66
3/21/2021 2:00:00 PM 9.34 48.812 0.362 8.05 4.19 13.69
3/21/2021 2:15:00 PM 9.5 49.1 0.362 8.07 4.21 13.71
3/21/2021 2:30:00 PM 9.64 49.352 0.362 8.09 4.21 13.65
3/21/2021 2:45:00 PM 9.76 49.568 0.362 8.1 4.43 13.65
3/21/2021 3:00:00 PM 9.87 49.766 0.362 8.12 4.18 13.63
3/21/2021 3:15:00 PM 9.96 49.928 0.362 8.13 4.05 13.58
3/21/2021 3:30:00 PM 10.03 50.054 0.361 8.14 4.57 13.57
3/21/2021 3:45:00 PM 10.09 50.162 0.361 8.16 5.36 13.53
3/21/2021 4:00:00 PM 10.15 50.27 0.361 8.16 4.85 13.53
3/21/2021 4:15:00 PM 10.18 50.324 0.361 8.17 4.58 13.52
3/21/2021 4:30:00 PM 10.19 50.342 0.361 8.17 4.69 13.47
3/21/2021 4:45:00 PM 10.2 50.36 0.361 8.17 4.65 13.39
3/21/2021 5:00:00 PM 10.2 50.36 0.361 8.16 4.96 13.31
3/21/2021 5:15:00 PM 10.2 50.36 0.361 8.15 5.26 13.18
3/21/2021 5:30:00 PM 8.85 47.93 0.314 7.06 4.33 11.37
3/21/2021 5:45:00 PM 10.01 50.018 0.355 7.97 4.78 12.78
3/21/2021 6:00:00 PM 10.15 50.27 0.361 8.08 4.88 12.8
3/21/2021 6:15:00 PM 10.16 50.288 0.362 8.07 4.87 12.76
3/21/2021 6:30:00 PM 10.15 50.27 0.363 8.04 5.63 12.61
3/21/2021 6:45:00 PM 10.14 50.252 0.363 8.01 5.64 12.47
3/21/2021 7:00:00 PM 10.13 50.234 0.363 7.98 5.61 12.28
3/21/2021 7:15:00 PM 10.11 50.198 0.363 7.95 5.67 12.12
3/21/2021 7:30:00 PM 10.07 50.126 0.363 7.92 5.25 11.97
3/21/2021 7:45:00 PM 10.02 50.036 0.362 7.9 5.02 11.83
3/21/2021 8:00:00 PM 9.97 49.946 0.362 7.87 5.12 11.71
3/21/2021 8:15:00 PM 9.92 49.856 0.363 7.85 5.3 11.64
3/21/2021 8:30:00 PM 9.88 49.784 0.363 7.83 5.12 11.54
3/21/2021 8:45:00 PM 9.83 49.694 0.363 7.81 5.24 11.46
3/21/2021 9:00:00 PM 9.79 49.622 0.363 7.8 5.14 11.42
3/21/2021 9:15:00 PM 9.74 49.532 0.363 7.79 4.93 11.33
3/21/2021 9:30:00 PM 9.7 49.46 0.363 7.78 4.88 11.25
3/21/2021 9:45:00 PM 9.65 49.37 0.363 7.76 4.76 11.26
3/21/2021 10:00:00 PM 9.59 49.262 0.363 7.74 4.78 11.2
3/21/2021 10:15:00 PM 9.54 49.172 0.363 7.73 4.66 11.12
3/21/2021 10:30:00 PM 9.48 49.064 0.363 7.71 4.67 11.05
3/21/2021 10:45:00 PM 9.42 48.956 0.363 7.7 4.92 11.01
3/21/2021 11:00:00 PM 9.37 48.866 0.363 7.69 4.89 10.95
3/21/2021 11:15:00 PM 9.31 48.758 0.363 7.68 5.09 10.92
3/21/2021 11:30:00 PM 9.25 48.65 0.363 7.67 5.14 10.91
3/21/2021 11:45:00 PM 9.2 48.56 0.363 7.66 4.99 10.94
3/22/2021 12:00:00 AM 9.14 48.452 0.363 7.66 5.13 10.86
3/22/2021 12:15:00 AM 9.09 48.362 0.364 7.65 5.37 10.82
3/22/2021 12:30:00 AM 9.03 48.254 0.363 7.64 5.28 10.84
3/22/2021 12:45:00 AM 8.98 48.164 0.363 7.64 5.2 10.81
3/22/2021 1:00:00 AM 8.93 48.074 0.363 7.63 5.29 10.85
3/22/2021 1:15:00 AM 8.87 47.966 0.363 7.62 5.28 10.83
3/22/2021 1:30:00 AM 8.82 47.876 0.363 7.63 5.26 10.78
3/22/2021 1:45:00 AM 8.77 47.786 0.363 7.62 5.5 10.77
3/22/2021 2:00:00 AM 8.71 47.678 0.363 7.62 5.45 10.79
3/22/2021 2:15:00 AM 7.5 45.5 0.316 6.6 4.34 9.38
3/22/2021 2:30:00 AM 8.45 47.21 0.357 7.47 5.36 10.63
3/22/2021 2:45:00 AM 8.53 47.354 0.362 7.59 5.75 10.75
3/22/2021 3:00:00 AM 8.49 47.282 0.363 7.59 5.59 10.81
3/22/2021 3:15:00 AM 8.44 47.192 0.363 7.6 5.31 10.84
3/22/2021 3:30:00 AM 7.27 45.086 0.316 6.59 4.59 9.4
3/22/2021 3:45:00 AM 8.17 46.706 0.357 7.45 5.25 10.6
3/22/2021 4:00:00 AM 8.24 46.832 0.362 7.57 5.47 10.81
3/22/2021 4:15:00 AM 8.19 46.742 0.363 7.58 5.65 10.84
3/22/2021 4:30:00 AM 8.13 46.634 0.363 7.58 5.52 10.88
3/22/2021 4:45:00 AM 8.07 46.526 0.364 7.57 5.7 10.88
3/22/2021 5:00:00 AM 8 46.4 0.364 7.57 5.71 10.9
3/22/2021 5:15:00 AM 7.94 46.292 0.364 7.57 5.76 10.89
3/22/2021 5:30:00 AM 7.87 46.166 0.364 7.57 6.08 10.91
3/22/2021 5:45:00 AM 7.8 46.04 0.364 7.56 6.2 10.98
3/22/2021 6:00:00 AM 7.73 45.914 0.364 7.56 6.72 11
3/22/2021 6:15:00 AM 7.67 45.806 0.364 7.56 6.7 11
3/22/2021 6:30:00 AM 7.6 45.68 0.364 7.56 6.37 11.04
3/22/2021 6:45:00 AM 7.54 45.572 0.364 7.55 6.28 11.02
3/22/2021 7:00:00 AM 7.47 45.446 0.365 7.55 5.92 11.01
3/22/2021 7:15:00 AM 7.4 45.32 0.366 7.55 5.73 11.05
3/22/2021 7:30:00 AM 7.34 45.212 0.367 7.56 5.52 11.2
3/22/2021 7:45:00 AM 7.29 45.122 0.368 7.55 5.46 11.32
3/22/2021 8:00:00 AM 7.24 45.032 0.368 7.57 5.19 11.41
3/22/2021 8:15:00 AM 6.25 43.25 0.321 6.57 4.27 10.02
3/22/2021 8:30:00 AM 7.08 44.744 0.362 7.46 4.82 11.53
3/22/2021 8:45:00 AM 7.21 44.978 0.367 7.6 4.84 11.88
3/22/2021 9:00:00 AM 7.25 45.05 0.368 7.63 4.73 12.05
3/22/2021 9:15:00 AM 7.3 45.14 0.367 7.67 4.78 12.26
3/22/2021 9:30:00 AM 7.37 45.266 0.367 7.69 4.41 12.39
3/22/2021 9:45:00 AM 7.44 45.392 0.366 7.71 4.39 12.53
3/22/2021 10:00:00 AM 7.53 45.554 0.366 7.73 4.3 12.64
3/22/2021 10:15:00 AM 7.64 45.752 0.366 7.76 4.41 12.72
3/22/2021 10:30:00 AM 7.76 45.968 0.365 7.79 4.44 12.91
3/22/2021 10:45:00 AM 7.88 46.184 0.365 7.82 4.47 13.01
3/22/2021 11:00:00 AM 8.02 46.436 0.364 7.85 4.33 13.04
3/22/2021 11:15:00 AM 8.17 46.706 0.365 7.87 4.45 13.13
3/22/2021 11:30:00 AM 8.32 46.976 0.364 7.9 4.59 13.25
3/22/2021 11:45:00 AM 8.49 47.282 0.364 7.93 4.48 13.4
3/22/2021 12:00:00 PM 8.66 47.588 0.364 7.96 4.43 13.44
3/22/2021 12:15:00 PM 8.84 47.912 0.363 7.99 4.22 13.49
3/22/2021 12:30:00 PM 9.04 48.272 0.363 8.01 4.17 13.48
3/22/2021 12:45:00 PM 9.25 48.65 0.363 8.04 4.13 13.53
3/22/2021 1:00:00 PM 9.45 49.01 0.363 8.07 4.36 13.61
3/22/2021 1:15:00 PM 9.65 49.37 0.363 8.1 4.19 13.65
3/22/2021 1:30:00 PM 9.84 49.712 0.362 8.13 4.15 13.68
3/22/2021 1:45:00 PM 10.02 50.036 0.363 8.15 4.25 13.72
3/22/2021 2:00:00 PM 10.19 50.342 0.363 8.18 4.19 13.7
3/22/2021 2:15:00 PM 10.34 50.612 0.362 8.21 4.49 13.72
3/22/2021 2:30:00 PM 10.48 50.864 0.362 8.23 4.45 13.76
3/22/2021 2:45:00 PM 10.58 51.044 0.362 8.25 4.39 13.7
3/22/2021 3:00:00 PM 10.68 51.224 0.362 8.26 4.35 13.72
3/22/2021 3:15:00 PM 10.76 51.368 0.362 8.27 4.14 13.68
3/22/2021 3:30:00 PM 10.83 51.494 0.361 8.28 4.09 13.64
3/22/2021 3:45:00 PM 10.89 51.602 0.361 8.3 4.16 13.65
3/22/2021 4:00:00 PM 10.94 51.692 0.362 8.31 4.16 13.62
3/22/2021 4:15:00 PM 10.95 51.71 0.362 8.33 4.16 13.55
3/22/2021 4:30:00 PM 10.96 51.728 0.363 8.33 3.98 13.54
3/22/2021 4:45:00 PM 10.97 51.746 0.362 8.33 4.09 13.41
3/22/2021 5:00:00 PM 10.96 51.728 0.362 8.33 4.24 13.38
3/22/2021 5:15:00 PM 10.95 51.71 0.363 8.32 4.3 13.29
3/22/2021 5:30:00 PM 10.93 51.674 0.363 8.31 4.07 13.15
3/22/2021 5:45:00 PM 10.91 51.638 0.363 8.29 4.2 13.01
3/22/2021 6:00:00 PM 10.88 51.584 0.363 8.27 4.02 12.91
3/22/2021 6:15:00 PM 10.86 51.548 0.363 8.25 4.42 12.79
3/22/2021 6:30:00 PM 10.84 51.512 0.364 8.22 4.59 12.6
3/22/2021 6:45:00 PM 10.82 51.476 0.364 8.18 4.36 12.45
3/22/2021 7:00:00 PM 10.8 51.44 0.364 8.15 4.28 12.28
3/22/2021 7:15:00 PM 10.77 51.386 0.364 8.11 4.65 12.08
3/22/2021 7:30:00 PM 10.72 51.296 0.365 8.08 4.98 11.9
3/22/2021 7:45:00 PM 10.65 51.17 0.365 8.04 4.65 11.75
3/22/2021 8:00:00 PM 10.59 51.062 0.366 8.01 4.4 11.61
3/22/2021 8:15:00 PM 10.53 50.954 0.366 7.99 4.49 11.49
3/22/2021 8:30:00 PM 10.48 50.864 0.366 7.97 4.61 11.37
3/22/2021 8:45:00 PM 10.43 50.774 0.366 7.95 4.77 11.28
3/22/2021 9:00:00 PM 10.38 50.684 0.366 7.93 4.79 11.2
3/22/2021 9:15:00 PM 10.33 50.594 0.366 7.91 4.53 11.18
3/22/2021 9:30:00 PM 10.28 50.504 0.366 7.89 4.52 11.12
3/22/2021 9:45:00 PM 10.22 50.396 0.367 7.87 4.67 11.03
3/22/2021 10:00:00 PM 10.17 50.306 0.367 7.84 4.74 10.96
3/22/2021 10:15:00 PM 10.11 50.198 0.367 7.82 4.86 10.9
3/22/2021 10:30:00 PM 10.04 50.072 0.367 7.8 4.8 10.83
3/22/2021 10:45:00 PM 9.98 49.964 0.367 7.78 4.66 10.77
3/22/2021 11:00:00 PM 9.92 49.856 0.367 7.77 4.58 10.74
3/22/2021 11:15:00 PM 9.85 49.73 0.367 7.76 4.7 10.74
3/22/2021 11:30:00 PM 9.79 49.622 0.367 7.75 4.78 10.66
3/22/2021 11:45:00 PM 9.73 49.514 0.367 7.74 4.6 10.66
3/23/2021 12:00:00 AM 9.66 49.388 0.367 7.72 4.51 10.63
3/23/2021 12:15:00 AM 9.61 49.298 0.367 7.71 4.53 10.63
3/23/2021 12:30:00 AM 9.54 49.172 0.367 7.7 4.63 10.61
3/23/2021 12:45:00 AM 9.49 49.082 0.367 7.69 4.63 10.57
3/23/2021 1:00:00 AM 9.43 48.974 0.367 7.69 4.83 10.59
3/23/2021 1:15:00 AM 9.37 48.866 0.367 7.68 4.85 10.57
3/23/2021 1:30:00 AM 9.32 48.776 0.367 7.67 4.92 10.59
3/23/2021 1:45:00 AM 9.26 48.668 0.367 7.66 4.81 10.55
3/23/2021 2:00:00 AM 9.21 48.578 0.367 7.66 4.95 10.59
3/23/2021 2:15:00 AM 9.15 48.47 0.368 7.65 4.74 10.58
3/23/2021 2:30:00 AM 9.1 48.38 0.367 7.64 4.98 10.58
3/23/2021 2:45:00 AM 9.04 48.272 0.367 7.64 4.84 10.52
3/23/2021 3:00:00 AM 8.99 48.182 0.367 7.64 4.95 10.58
3/23/2021 3:15:00 AM 8.93 48.074 0.367 7.63 4.91 10.61
3/23/2021 3:30:00 AM 8.88 47.984 0.367 7.63 4.94 10.59
3/23/2021 3:45:00 AM 8.82 47.876 0.367 7.63 5.09 10.61
3/23/2021 4:00:00 AM 8.76 47.768 0.367 7.62 5.22 10.6
3/23/2021 4:15:00 AM 8.71 47.678 0.367 7.62 5.51 10.61
3/23/2021 4:30:00 AM 8.65 47.57 0.367 7.61 5.11 10.63
3/23/2021 4:45:00 AM 8.58 47.444 0.368 7.6 5.24 10.65
3/23/2021 5:00:00 AM 8.52 47.336 0.367 7.6 5.38 10.66
3/23/2021 5:15:00 AM 8.46 47.228 0.367 7.6 5.43 10.65
3/23/2021 5:30:00 AM 8.4 47.12 0.368 7.59 5.34 10.66
3/23/2021 5:45:00 AM 8.34 47.012 0.367 7.59 5.23 10.7
3/23/2021 6:00:00 AM 8.28 46.904 0.367 7.59 5.27 10.72
3/23/2021 6:15:00 AM 8.22 46.796 0.367 7.58 5.34 10.71
3/23/2021 6:30:00 AM 8.15 46.67 0.367 7.58 5.31 10.69
3/23/2021 6:45:00 AM 8.09 46.562 0.367 7.58 5.19 10.74
3/23/2021 7:00:00 AM 8.03 46.454 0.367 7.58 5.19 10.74
3/23/2021 7:15:00 AM 7.97 46.346 0.367 7.57 5.14 10.84
3/23/2021 7:30:00 AM 7.91 46.238 0.367 7.58 5.04 10.93
3/23/2021 7:45:00 AM 7.87 46.166 0.367 7.58 4.98 11.01
3/23/2021 8:00:00 AM 7.84 46.112 0.367 7.59 4.64 11.13
3/23/2021 8:15:00 AM 7.83 46.094 0.367 7.62 4.71 11.26
3/23/2021 8:30:00 AM 7.83 46.094 0.367 7.64 4.81 11.47
3/23/2021 8:45:00 AM 7.86 46.148 0.367 7.66 4.36 11.73
3/23/2021 9:00:00 AM 7.9 46.22 0.366 7.69 4.21 11.88
3/23/2021 9:15:00 AM 7.96 46.328 0.366 7.72 4.27 12.1
3/23/2021 9:30:00 AM 8.02 46.436 0.366 7.75 4.19 12.27
3/23/2021 9:45:00 AM 8.09 46.562 0.366 7.78 3.98 12.4
3/23/2021 10:00:00 AM 8.18 46.724 0.366 7.81 4.3 12.58
3/23/2021 10:15:00 AM 8.29 46.922 0.365 7.84 4.22 12.72
3/23/2021 10:30:00 AM 8.41 47.138 0.365 7.88 4.38 12.82
3/23/2021 10:45:00 AM 8.55 47.39 0.365 7.91 4.37 12.96
3/23/2021 11:00:00 AM 8.69 47.642 0.365 7.95 4.29 13.09
3/23/2021 11:15:00 AM 8.8 47.84 0.364 7.97 5.25 13.21
3/23/2021 11:30:00 AM 8.95 48.11 0.365 8.02 4.55 13.3
3/23/2021 11:45:00 AM 9.11 48.398 0.364 8.05 4.27 13.45
3/23/2021 12:00:00 PM 9.29 48.722 0.364 8.08 4.46 13.48
3/23/2021 12:15:00 PM 9.49 49.082 0.364 8.12 4.47 13.51
3/23/2021 12:30:00 PM 9.71 49.478 0.364 8.15 4.49 13.65
3/23/2021 12:45:00 PM 9.92 49.856 0.363 8.19 4.43 13.68
3/23/2021 1:00:00 PM 10.1 50.18 0.363 8.22 4.54 13.76
3/23/2021 1:15:00 PM 10.22 50.396 0.363 8.24 4.48 13.79
3/23/2021 1:30:00 PM 10.38 50.684 0.363 8.28 4.28 13.87
3/23/2021 1:45:00 PM 10.54 50.972 0.362 8.32 4.58 13.88
3/23/2021 2:00:00 PM 10.74 51.332 0.361 8.35 4.63 13.97
3/23/2021 2:15:00 PM 10.88 51.584 0.361 8.37 4.4 13.96
3/23/2021 2:30:00 PM 10.98 51.764 0.361 8.4 4.52 13.99
3/23/2021 2:45:00 PM 11.07 51.926 0.361 8.43 4.37 13.99
3/23/2021 3:00:00 PM 11.11 51.998 0.361 8.45 4.49 14.03
3/23/2021 3:15:00 PM 11.17 52.106 0.361 8.48 4.38 13.98
3/23/2021 3:30:00 PM 11.23 52.214 0.361 8.5 4.07 13.98
3/23/2021 3:45:00 PM 11.35 52.43 0.361 8.53 4.17 13.97
3/23/2021 4:00:00 PM 11.38 52.484 0.361 8.53 4.42 13.93
3/23/2021 4:15:00 PM 11.38 52.484 0.361 8.53 4.33 13.76
3/23/2021 4:30:00 PM 11.41 52.538 0.361 8.53 4.38 13.66
3/23/2021 4:45:00 PM 11.43 52.574 0.361 8.54 4.3 13.64
3/23/2021 5:00:00 PM 11.45 52.61 0.361 8.54 4.41 13.62
3/23/2021 5:15:00 PM 9.92 49.856 0.314 7.4 3.68 11.77
3/23/2021 5:30:00 PM 11.23 52.214 0.355 8.37 4.41 13.13
3/23/2021 5:45:00 PM 11.39 52.502 0.36 8.49 4.45 13.17
3/23/2021 6:00:00 PM 11.4 52.52 0.361 8.48 4.5 13.05
3/23/2021 6:15:00 PM 9.88 49.784 0.315 7.31 3.63 11.08
3/23/2021 6:30:00 PM 11.18 52.124 0.355 8.25 4.34 12.22
3/23/2021 6:45:00 PM 11.34 52.412 0.361 8.34 4.44 12.41
3/23/2021 7:00:00 PM 11.35 52.43 0.362 8.32 4.57 12.26
3/23/2021 7:15:00 PM 11.34 52.412 0.362 8.28 4.48 12.07
3/23/2021 7:30:00 PM 11.31 52.358 0.362 8.24 4.37 11.93
3/23/2021 7:45:00 PM 11.28 52.304 0.362 8.2 4.5 11.72
3/23/2021 8:00:00 PM 11.25 52.25 0.363 8.15 4.86 11.54
3/23/2021 8:15:00 PM 11.21 52.178 0.363 8.12 4.58 11.42
3/23/2021 8:30:00 PM 11.18 52.124 0.363 8.09 4.54 11.3
3/23/2021 8:45:00 PM 11.16 52.088 0.363 8.07 4.56 11.09
3/23/2021 9:00:00 PM 11.14 52.052 0.363 8.05 4.71 11.07
3/23/2021 9:15:00 PM 11.12 52.016 0.363 8.02 4.71 11
3/23/2021 9:30:00 PM 11.11 51.998 0.363 8.01 4.82 10.95
3/23/2021 9:45:00 PM 11.08 51.944 0.363 7.99 4.45 10.88
3/23/2021 10:00:00 PM 11.06 51.908 0.363 7.96 4.73 10.78
3/23/2021 10:15:00 PM 11.03 51.854 0.363 7.94 4.64 10.7
3/23/2021 10:30:00 PM 11 51.8 0.363 7.92 4.59 10.64
3/23/2021 10:45:00 PM 9.52 49.136 0.316 6.85 3.73 9.18
3/23/2021 11:00:00 PM 10.75 51.35 0.357 7.75 4.71 10.32
3/23/2021 11:15:00 PM 10.89 51.602 0.362 7.85 4.58 10.42
3/23/2021 11:30:00 PM 10.89 51.602 0.363 7.86 4.61 10.42
3/23/2021 11:45:00 PM 10.87 51.566 0.363 7.85 4.64 10.4
3/24/2021 12:00:00 AM 10.85 51.53 0.363 7.84 4.6 10.35
3/24/2021 12:15:00 AM 10.82 51.476 0.363 7.83 4.7 10.3
3/24/2021 12:30:00 AM 10.81 51.458 0.364 7.81 4.72 10.26
3/24/2021 12:45:00 AM 10.8 51.44 0.363 7.81 4.71 10.26
3/24/2021 1:00:00 AM 10.8 51.44 0.363 7.79 4.61 10.22
3/24/2021 1:15:00 AM 10.79 51.422 0.364 7.79 4.7 10.21
3/24/2021 1:30:00 AM 10.78 51.404 0.363 7.79 4.81 10.15
3/24/2021 1:45:00 AM 10.77 51.386 0.364 7.78 4.9 10.14
3/24/2021 2:00:00 AM 10.76 51.368 0.364 7.77 4.97 10.15
3/24/2021 2:15:00 AM 9.32 48.776 0.316 6.73 4.17 8.76
3/24/2021 2:30:00 AM 10.55 50.99 0.357 7.62 5.12 9.9
3/24/2021 2:45:00 AM 10.7 51.26 0.363 7.74 7.51 10.04
3/24/2021 3:00:00 AM 10.71 51.278 0.363 7.75 5.71 10.07
3/24/2021 3:15:00 AM 10.7 51.26 0.364 7.75 5.28 10.07
3/24/2021 3:30:00 AM 10.69 51.242 0.364 7.74 5.15 10.06
3/24/2021 3:45:00 AM 10.69 51.242 0.364 7.74 5.2 10.03
3/24/2021 4:00:00 AM 10.69 51.242 0.364 7.74 5.08 10.03
3/24/2021 4:15:00 AM 10.69 51.242 0.364 7.73 5.03 10.01
3/24/2021 4:30:00 AM 10.69 51.242 0.364 7.73 5.14 9.99
3/24/2021 4:45:00 AM 10.69 51.242 0.364 7.72 5.26 9.99
3/24/2021 5:00:00 AM 10.69 51.242 0.364 7.72 5.2 9.97
3/24/2021 5:15:00 AM 10.69 51.242 0.364 7.72 5.23 9.96
3/24/2021 5:30:00 AM 10.69 51.242 0.364 7.72 6 9.97
3/24/2021 5:45:00 AM 10.68 51.224 0.364 7.71 5.38 9.99
3/24/2021 6:00:00 AM 10.68 51.224 0.364 7.71 5.17 9.95
3/24/2021 6:15:00 AM 10.67 51.206 0.364 7.71 5.63 9.96
3/24/2021 6:30:00 AM 10.66 51.188 0.364 7.7 5.3 9.94
3/24/2021 6:45:00 AM 10.65 51.17 0.364 7.7 5.22 9.92
3/24/2021 7:00:00 AM 10.64 51.152 0.364 7.7 5.05 9.92
3/24/2021 7:15:00 AM 10.63 51.134 0.364 7.69 4.97 9.92
3/24/2021 7:30:00 AM 10.63 51.134 0.364 7.7 5.06 9.98
3/24/2021 7:45:00 AM 10.62 51.116 0.364 7.7 4.87 9.98
3/24/2021 8:00:00 AM 10.61 51.098 0.364 7.7 4.86 9.99
3/24/2021 8:15:00 AM 10.61 51.098 0.364 7.71 4.82 10.04
3/24/2021 8:30:00 AM 10.6 51.08 0.363 7.71 4.64 10.11
3/24/2021 8:45:00 AM 10.6 51.08 0.363 7.72 4.79 10.14
3/24/2021 9:00:00 AM 10.6 51.08 0.363 7.72 4.64 10.18
3/24/2021 9:15:00 AM 10.6 51.08 0.363 7.72 4.69 10.29
3/24/2021 9:30:00 AM 10.6 51.08 0.363 7.72 4.56 10.31
3/24/2021 9:45:00 AM 10.61 51.098 0.363 7.72 4.45 10.36
3/24/2021 10:00:00 AM 10.61 51.098 0.362 7.73 4.44 10.4
3/24/2021 10:15:00 AM 10.61 51.098 0.362 7.73 4.44 10.43
3/24/2021 10:30:00 AM 10.61 51.098 0.362 7.74 4.37 10.56
3/24/2021 10:45:00 AM 10.63 51.134 0.361 7.76 4.48 10.74
3/24/2021 11:00:00 AM 10.66 51.188 0.361 7.79 4.52 10.95
3/24/2021 11:15:00 AM 10.69 51.242 0.36 7.82 4.36 11.13
3/24/2021 11:30:00 AM 10.7 51.26 0.36 7.83 4.28 11.2
3/24/2021 11:45:00 AM 10.71 51.278 0.36 7.85 4.38 11.25
3/24/2021 12:00:00 PM 10.72 51.296 0.358 7.86 5.56 11.3
3/24/2021 12:15:00 PM 10.73 51.314 0.356 7.86 7.03 11.26
3/24/2021 12:30:00 PM 10.72 51.296 0.354 7.86 9.87 11.17
3/24/2021 12:45:00 PM 10.72 51.296 0.352 7.85 11 11.08
3/24/2021 1:00:00 PM 10.72 51.296 0.35 7.85 10.93 11.13
3/24/2021 1:15:00 PM 10.72 51.296 0.35 7.85 10.68 11.13
3/24/2021 1:30:00 PM 10.72 51.296 0.349 7.85 9.76 11.19
3/24/2021 1:45:00 PM 10.73 51.314 0.348 7.86 9.34 11.23
3/24/2021 2:00:00 PM 10.73 51.314 0.347 7.86 9.22 11.28
3/24/2021 2:15:00 PM 10.74 51.332 0.345 7.88 9.74 11.33
3/24/2021 2:30:00 PM 10.76 51.368 0.343 7.9 10.47 11.37
3/24/2021 2:45:00 PM 10.77 51.386 0.34 7.92 11.58 11.4
3/24/2021 3:00:00 PM 10.77 51.386 0.337 7.92 14.79 11.42
3/24/2021 3:15:00 PM 10.75 51.35 0.333 7.91 20.15 11.35
3/24/2021 3:30:00 PM 10.7 51.26 0.329 7.89 26.26 11.21
3/24/2021 3:45:00 PM 10.64 51.152 0.324 7.87 32.17 11.14
3/24/2021 4:00:00 PM 10.61 51.098 0.321 7.86 39.31 11.09
3/24/2021 4:15:00 PM 10.59 51.062 0.318 7.83 52.71 10.94
3/24/2021 4:30:00 PM 10.59 51.062 0.311 7.79 81.41 10.81
3/24/2021 4:45:00 PM 10.59 51.062 0.302 7.77 105.2 10.74
3/24/2021 5:00:00 PM 10.6 51.08 0.293 7.76 108.08 10.71
3/24/2021 5:15:00 PM 10.64 51.152 0.288 7.76 100.72 10.72
3/24/2021 5:30:00 PM 10.66 51.188 0.283 7.75 97.01 10.69
3/24/2021 5:45:00 PM 10.66 51.188 0.276 7.74 109.87 10.66
3/24/2021 6:00:00 PM 10.66 51.188 0.269 7.71 145.44 10.55
3/24/2021 6:15:00 PM 10.68 51.224 0.263 7.7 194.18 10.48
3/24/2021 6:30:00 PM 10.7 51.26 0.256 7.68 219 10.38
3/24/2021 6:45:00 PM 10.71 51.278 0.249 7.67 211.17 10.35
3/24/2021 7:00:00 PM 10.71 51.278 0.245 7.66 197.16 10.38
3/24/2021 7:15:00 PM 10.7 51.26 0.242 7.67 198.89 10.37
3/24/2021 7:30:00 PM 10.69 51.242 0.241 7.68 192.63 10.38
3/24/2021 7:45:00 PM 10.68 51.224 0.24 7.67 189.1 10.43
3/24/2021 8:00:00 PM 10.67 51.206 0.24 7.65 182.66 10.41
3/24/2021 8:15:00 PM 10.66 51.188 0.241 7.62 174.84 10.41
3/24/2021 8:30:00 PM 10.65 51.17 0.242 7.6 165.35 10.3
3/24/2021 8:45:00 PM 10.64 51.152 0.243 7.58 152.19 10.39
3/24/2021 9:00:00 PM 10.64 51.152 0.244 7.57 141.57 10.37
3/24/2021 9:15:00 PM 10.64 51.152 0.245 7.57 134.03 10.31
3/24/2021 9:30:00 PM 10.63 51.134 0.247 7.56 125.51 10.31
3/24/2021 9:45:00 PM 10.63 51.134 0.248 7.56 116.29 10.31
3/24/2021 10:00:00 PM 10.63 51.134 0.248 7.55 111.43 10.31
3/24/2021 10:15:00 PM 10.62 51.116 0.249 7.55 104.09 10.31
3/24/2021 10:30:00 PM 10.62 51.116 0.249 7.55 101.15 10.33
3/24/2021 10:45:00 PM 10.61 51.098 0.249 7.54 96.8 10.32
3/24/2021 11:00:00 PM 10.6 51.08 0.25 7.54 91.98 10.3
3/24/2021 11:15:00 PM 10.6 51.08 0.25 7.53 89.73 10.31
3/24/2021 11:30:00 PM 10.59 51.062 0.25 7.52 89.86 10.29
3/24/2021 11:45:00 PM 10.59 51.062 0.251 7.53 85.11 10.27
3/25/2021 12:00:00 AM 10.58 51.044 0.252 7.52 82.57 10.26
3/25/2021 12:15:00 AM 10.57 51.026 0.253 7.52 80 10.28
3/25/2021 12:30:00 AM 10.56 51.008 0.254 7.51 76.87 10.26
3/25/2021 12:45:00 AM 10.55 50.99 0.256 7.51 74.49 10.25
3/25/2021 1:00:00 AM 9.13 48.434 0.225 6.51 61.02 8.91
3/25/2021 1:15:00 AM 10.34 50.612 0.256 7.37 67.02 10.08
3/25/2021 1:30:00 AM 10.49 50.882 0.262 7.49 65.05 10.26
3/25/2021 1:45:00 AM 10.5 50.9 0.265 7.5 62.53 10.27
3/25/2021 2:00:00 AM 10.5 50.9 0.267 7.5 60.8 10.2
3/25/2021 2:15:00 AM 10.49 50.882 0.27 7.5 57.87 10.28
3/25/2021 2:30:00 AM 10.48 50.864 0.272 7.5 55.49 10.27
3/25/2021 2:45:00 AM 10.47 50.846 0.274 7.49 53.61 10.25
3/25/2021 3:00:00 AM 10.47 50.846 0.274 7.5 51.38 10.25
3/25/2021 3:15:00 AM 10.46 50.828 0.277 7.49 49.69 10.31
3/25/2021 3:30:00 AM 10.45 50.81 0.279 7.49 48.11 10.25
3/25/2021 3:45:00 AM 10.44 50.792 0.28 7.5 46.56 10.28
3/25/2021 4:00:00 AM 10.43 50.774 0.281 7.49 44.16 10.26
3/25/2021 4:15:00 AM 10.43 50.774 0.283 7.5 42.51 10.25
3/25/2021 4:30:00 AM 10.42 50.756 0.284 7.5 40.49 10.29
3/25/2021 4:45:00 AM 10.41 50.738 0.285 7.5 39.48 10.29
3/25/2021 5:00:00 AM 10.4 50.72 0.286 7.49 38.44 10.28
3/25/2021 5:15:00 AM 10.39 50.702 0.287 7.5 36.69 10.29
3/25/2021 5:30:00 AM 10.38 50.684 0.288 7.5 36.32 10.32
3/25/2021 5:45:00 AM 10.37 50.666 0.289 7.5 34.21 10.29
3/25/2021 6:00:00 AM 10.36 50.648 0.29 7.5 33.82 10.3
3/25/2021 6:15:00 AM 10.35 50.63 0.291 7.5 32.41 10.34
3/25/2021 6:30:00 AM 10.34 50.612 0.292 7.5 31.63 10.29
3/25/2021 6:45:00 AM 10.34 50.612 0.293 7.51 30.2 10.32
3/25/2021 7:00:00 AM 10.33 50.594 0.294 7.5 29.59 10.33
3/25/2021 7:15:00 AM 10.32 50.576 0.295 7.5 28.52 10.34
3/25/2021 7:30:00 AM 8.94 48.092 0.258 6.5 24.14 8.93
3/25/2021 7:45:00 AM 10.13 50.234 0.293 7.37 79.62 10.18
3/25/2021 8:00:00 AM 10.29 50.522 0.298 7.49 33.07 10.33
3/25/2021 8:15:00 AM 10.32 50.576 0.3 7.51 25.85 10.37
3/25/2021 8:30:00 AM 10.33 50.594 0.301 7.52 24.26 10.41
3/25/2021 8:45:00 AM 10.36 50.648 0.302 7.52 23 10.46
3/25/2021 9:00:00 AM 10.38 50.684 0.303 7.53 22.34 10.5
3/25/2021 9:15:00 AM 10.41 50.738 0.304 7.54 21.95 10.54
3/25/2021 9:30:00 AM 10.43 50.774 0.305 7.55 21.15 10.57
3/25/2021 9:45:00 AM 10.48 50.864 0.306 7.56 20.55 10.59
3/25/2021 10:00:00 AM 10.51 50.918 0.307 7.57 19.66 10.68
3/25/2021 10:15:00 AM 10.54 50.972 0.308 7.58 19.4 10.71
3/25/2021 10:30:00 AM 10.56 51.008 0.309 7.58 18.57 10.72
3/25/2021 10:45:00 AM 10.59 51.062 0.31 7.59 18.05 10.77
3/25/2021 11:00:00 AM 10.62 51.116 0.311 7.6 17.48 10.78
3/25/2021 11:15:00 AM 10.68 51.224 0.311 7.61 17.41 10.84
3/25/2021 11:30:00 AM 10.73 51.314 0.312 7.62 16.28 10.91
3/25/2021 11:45:00 AM 10.79 51.422 0.313 7.64 16.11 10.94
3/25/2021 12:00:00 PM 10.85 51.53 0.313 7.65 15.58 11.02
3/25/2021 12:15:00 PM 10.91 51.638 0.314 7.66 14.71 11.06
3/25/2021 12:30:00 PM 10.98 51.764 0.315 7.68 14.63 11.07
3/25/2021 12:45:00 PM 11.04 51.872 0.316 7.7 14.53 11.13
3/25/2021 1:00:00 PM 11.1 51.98 0.316 7.72 14.42 11.2
3/25/2021 1:15:00 PM 11.18 52.124 0.317 7.75 13.88 11.24
3/25/2021 1:30:00 PM 11.27 52.286 0.317 7.76 13.49 11.26
3/25/2021 1:45:00 PM 11.35 52.43 0.318 7.78 13.02 11.28
3/25/2021 2:00:00 PM 11.42 52.556 0.318 7.8 13.01 11.29
3/25/2021 2:15:00 PM 11.48 52.664 0.318 7.81 12.8 11.36
3/25/2021 2:30:00 PM 11.53 52.754 0.319 7.82 12.71 11.34
3/25/2021 2:45:00 PM 11.58 52.844 0.319 7.84 12.19 11.37
3/25/2021 3:00:00 PM 11.68 53.024 0.32 7.86 12.01 11.34
3/25/2021 3:15:00 PM 11.79 53.222 0.32 7.87 11.62 11.41
3/25/2021 3:30:00 PM 11.91 53.438 0.321 7.89 11.51 11.45
3/25/2021 3:45:00 PM 12.01 53.618 0.321 7.91 11.32 11.47
3/25/2021 4:00:00 PM 12.06 53.708 0.321 7.91 11.48 11.45
3/25/2021 4:15:00 PM 12.09 53.762 0.322 7.91 11.16 11.41
3/25/2021 4:30:00 PM 12.14 53.852 0.322 7.92 10.88 11.37
3/25/2021 4:45:00 PM 12.19 53.942 0.323 7.92 11.01 11.36
3/25/2021 5:00:00 PM 12.23 54.014 0.323 7.93 10.94 11.3
3/25/2021 5:15:00 PM 12.29 54.122 0.324 7.92 10.79 11.29
3/25/2021 5:30:00 PM 12.34 54.212 0.324 7.93 10.45 11.23
3/25/2021 5:45:00 PM 12.38 54.284 0.324 7.92 10.58 11.16
3/25/2021 6:00:00 PM 12.41 54.338 0.325 7.91 10.59 11.1
3/25/2021 6:15:00 PM 12.44 54.392 0.325 7.9 10.62 11.02
3/25/2021 6:30:00 PM 12.46 54.428 0.325 7.89 10.48 10.91
3/25/2021 6:45:00 PM 12.47 54.446 0.325 7.88 9.98 10.88
3/25/2021 7:00:00 PM 12.49 54.482 0.326 7.87 10.43 10.79
3/25/2021 7:15:00 PM 12.5 54.5 0.326 7.85 10.35 10.68
3/25/2021 7:30:00 PM 12.5 54.5 0.326 7.84 10.31 10.6
3/25/2021 7:45:00 PM 12.5 54.5 0.327 7.83 10.31 10.54
3/25/2021 8:00:00 PM 12.5 54.5 0.327 7.82 10.51 10.45
3/25/2021 8:15:00 PM 12.49 54.482 0.328 7.81 10.36 10.39
3/25/2021 8:30:00 PM 12.49 54.482 0.328 7.8 10.46 10.35
3/25/2021 8:45:00 PM 12.48 54.464 0.328 7.79 10.45 10.32
3/25/2021 9:00:00 PM 12.47 54.446 0.328 7.78 10.34 10.25
3/25/2021 9:15:00 PM 12.47 54.446 0.328 7.77 10.5 10.26
3/25/2021 9:30:00 PM 12.47 54.446 0.329 7.76 10.41 10.18
3/25/2021 9:45:00 PM 12.46 54.428 0.329 7.76 10.45 10.13
3/25/2021 10:00:00 PM 12.46 54.428 0.329 7.75 10.46 10.11
3/25/2021 10:15:00 PM 12.46 54.428 0.33 7.75 10.29 10.09
3/25/2021 10:30:00 PM 12.46 54.428 0.33 7.74 10.02 10.06
3/25/2021 10:45:00 PM 12.47 54.446 0.33 7.74 10.34 10.04
3/25/2021 11:00:00 PM 12.47 54.446 0.33 7.74 10.51 10.02
3/25/2021 11:15:00 PM 12.46 54.428 0.33 7.74 10.38 9.99
3/25/2021 11:30:00 PM 12.46 54.428 0.331 7.73 10.37 9.99
3/25/2021 11:45:00 PM 12.45 54.41 0.331 7.72 10.43 9.94
3/26/2021 12:00:00 AM 12.45 54.41 0.331 7.72 10.36 9.92
3/26/2021 12:15:00 AM 12.45 54.41 0.331 7.71 10.45 9.9
3/26/2021 12:30:00 AM 12.44 54.392 0.331 7.72 10.45 9.89
3/26/2021 12:45:00 AM 12.44 54.392 0.331 7.72 10.49 9.89
3/26/2021 1:00:00 AM 12.44 54.392 0.332 7.71 10.42 9.9
3/26/2021 1:15:00 AM 12.43 54.374 0.332 7.71 10.53 9.86
3/26/2021 1:30:00 AM 12.42 54.356 0.332 7.71 10.53 9.85
3/26/2021 1:45:00 AM 12.42 54.356 0.332 7.71 10.7 9.83
3/26/2021 2:00:00 AM 12.41 54.338 0.332 7.71 10.47 9.84
3/26/2021 2:15:00 AM 12.4 54.32 0.333 7.71 10.44 9.83
3/26/2021 2:30:00 AM 12.38 54.284 0.333 7.71 10.35 9.83
3/26/2021 2:45:00 AM 12.37 54.266 0.333 7.7 10.29 9.74
3/26/2021 3:00:00 AM 12.36 54.248 0.333 7.7 10.29 9.8
3/26/2021 3:15:00 AM 12.34 54.212 0.333 7.7 10.5 9.78
3/26/2021 3:30:00 AM 12.32 54.176 0.334 7.7 10.74 9.82
3/26/2021 3:45:00 AM 12.3 54.14 0.334 7.7 10.45 9.8
3/26/2021 4:00:00 AM 12.28 54.104 0.334 7.69 10.52 9.76
3/26/2021 4:15:00 AM 12.26 54.068 0.334 7.69 10.78 9.77
3/26/2021 4:30:00 AM 12.24 54.032 0.334 7.69 10.91 9.79
3/26/2021 4:45:00 AM 12.22 53.996 0.335 7.69 10.83 9.82
3/26/2021 5:00:00 AM 12.2 53.96 0.335 7.69 10.57 9.74
3/26/2021 5:15:00 AM 12.18 53.924 0.335 7.69 10.58 9.79
3/26/2021 5:30:00 AM 12.15 53.87 0.335 7.69 10.82 9.82
3/26/2021 5:45:00 AM 12.12 53.816 0.335 7.68 10.64 9.82
3/26/2021 6:00:00 AM 12.09 53.762 0.335 7.68 10.67 9.82
3/26/2021 6:15:00 AM 12.06 53.708 0.335 7.69 10.58 9.81
3/26/2021 6:30:00 AM 12.02 53.636 0.336 7.68 10.51 9.83
3/26/2021 6:45:00 AM 12.01 53.618 0.336 7.69 10.4 9.83
3/26/2021 7:00:00 AM 12 53.6 0.336 7.68 10.04 9.84
3/26/2021 7:15:00 AM 11.99 53.582 0.336 7.68 9.85 9.84
3/26/2021 7:30:00 AM 11.99 53.582 0.336 7.69 9.6 9.85
3/26/2021 7:45:00 AM 11.97 53.546 0.336 7.69 9.56 9.89
3/26/2021 8:00:00 AM 11.97 53.546 0.336 7.7 9.67 9.92
3/26/2021 8:15:00 AM 11.97 53.546 0.337 7.7 9.4 9.97
3/26/2021 8:30:00 AM 11.97 53.546 0.337 7.7 9.38 10
3/26/2021 8:45:00 AM 11.99 53.582 0.337 7.71 9.15 9.97
3/26/2021 9:00:00 AM 12.03 53.654 0.337 7.72 9.12 10.02
3/26/2021 9:15:00 AM 12.09 53.762 0.336 7.73 8.85 10.18
3/26/2021 9:30:00 AM 12.16 53.888 0.336 7.74 8.34 10.27
3/26/2021 9:45:00 AM 12.24 54.032 0.337 7.77 8.82 10.38
3/26/2021 10:00:00 AM 12.35 54.23 0.337 7.79 8.62 10.46
3/26/2021 10:15:00 AM 12.48 54.464 0.337 7.8 8.36 10.51
3/26/2021 10:30:00 AM 12.63 54.734 0.337 7.82 8.33 10.58
3/26/2021 10:45:00 AM 12.81 55.058 0.337 7.84 8.13 10.68
3/26/2021 11:00:00 AM 12.97 55.346 0.337 7.86 8.02 10.77
3/26/2021 11:15:00 AM 13.14 55.652 0.337 7.88 7.9 10.83
3/26/2021 11:30:00 AM 13.32 55.976 0.337 7.9 7.73 10.88
3/26/2021 11:45:00 AM 13.44 56.192 0.337 7.91 7.42 10.91
3/26/2021 12:00:00 PM 13.55 56.39 0.337 7.93 7.51 10.98
3/26/2021 12:15:00 PM 13.77 56.786 0.336 7.95 7.48 10.99
3/26/2021 12:30:00 PM 13.96 57.128 0.336 7.97 7.49 11
3/26/2021 12:45:00 PM 14.16 57.488 0.336 7.99 7.45 11.05
3/26/2021 1:00:00 PM 14.38 57.884 0.336 8.01 7.3 11.12
3/26/2021 1:15:00 PM 14.59 58.262 0.336 8.04 7.13 11.17
3/26/2021 1:30:00 PM 14.77 58.586 0.336 8.05 7.15 11.13
3/26/2021 1:45:00 PM 14.93 58.874 0.337 8.07 7.2 11.14
3/26/2021 2:00:00 PM 15.07 59.126 0.337 8.08 7.25 11.2
3/26/2021 2:15:00 PM 15.21 59.378 0.337 8.1 7.02 11.19
3/26/2021 2:30:00 PM 15.31 59.558 0.337 8.1 7.31 11.07
3/26/2021 2:45:00 PM 15.41 59.738 0.337 8.11 6.97 11.09
3/26/2021 3:00:00 PM 15.53 59.954 0.337 8.12 7.07 11.03
3/26/2021 3:15:00 PM 15.63 60.134 0.337 8.12 7.09 11.07
3/26/2021 3:30:00 PM 15.73 60.314 0.337 8.13 7.01 11.05
3/26/2021 3:45:00 PM 15.81 60.458 0.336 8.14 7.08 10.97
3/26/2021 4:00:00 PM 15.87 60.566 0.336 8.14 7.09 10.99
3/26/2021 4:15:00 PM 15.91 60.638 0.337 8.14 6.86 10.96
3/26/2021 4:30:00 PM 15.92 60.656 0.337 8.13 6.91 10.86
3/26/2021 4:45:00 PM 15.94 60.692 0.337 8.13 6.75 10.76
3/26/2021 5:00:00 PM 15.96 60.728 0.337 8.12 7.38 10.71
3/26/2021 5:15:00 PM 15.96 60.728 0.337 8.11 7.22 10.62
3/26/2021 5:30:00 PM 15.93 60.674 0.337 8.1 7.2 10.58
3/26/2021 5:45:00 PM 15.9 60.62 0.337 8.08 9.52 10.49
3/26/2021 6:00:00 PM 15.87 60.566 0.338 8.06 7.47 10.38
3/26/2021 6:15:00 PM 15.84 60.512 0.338 8.04 7.15 10.31
3/26/2021 6:30:00 PM 15.27 59.486 0.327 7.74 9.53 9.86
3/26/2021 6:45:00 PM 15.69 60.242 0.336 7.97 7.59 10.08
3/26/2021 7:00:00 PM 15.7 60.26 0.338 7.98 7.4 9.96
3/26/2021 7:15:00 PM 15.63 60.134 0.338 7.96 7.31 9.91
3/26/2021 7:30:00 PM 15.57 60.026 0.338 7.93 7.24 9.81
3/26/2021 7:45:00 PM 15.5 59.9 0.338 7.91 7.48 9.76
3/26/2021 8:00:00 PM 15.44 59.792 0.339 7.89 7.65 9.69
3/26/2021 8:15:00 PM 15.37 59.666 0.339 7.88 7.93 9.65
3/26/2021 8:30:00 PM 15.29 59.522 0.339 7.86 8.06 9.54
3/26/2021 8:45:00 PM 15.21 59.378 0.339 7.85 7.94 9.44
3/26/2021 9:00:00 PM 15.13 59.234 0.339 7.83 8.03 9.47
3/26/2021 9:15:00 PM 15.06 59.108 0.339 7.82 7.62 9.45
3/26/2021 9:30:00 PM 15 59 0.34 7.81 7.75 9.4
3/26/2021 9:45:00 PM 14.93 58.874 0.34 7.8 7.99 9.37
3/26/2021 10:00:00 PM 14.86 58.748 0.34 7.79 7.98 9.35
3/26/2021 10:15:00 PM 14.79 58.622 0.34 7.78 8.18 9.33
3/26/2021 10:30:00 PM 14.72 58.496 0.34 7.77 8.07 9.28
3/26/2021 10:45:00 PM 14.64 58.352 0.341 7.77 8.35 9.32
3/26/2021 11:00:00 PM 14.57 58.226 0.341 7.76 8.35 9.28
3/26/2021 11:15:00 PM 14.5 58.1 0.341 7.75 8.25 9.27
3/26/2021 11:30:00 PM 14.42 57.956 0.341 7.75 8.36 9.3
3/26/2021 11:45:00 PM 14.34 57.812 0.341 7.74 8.36 9.3
3/27/2021 12:00:00 AM 14.27 57.686 0.342 7.74 8.69 9.31
3/27/2021 12:15:00 AM 14.19 57.542 0.342 7.73 8.5 9.28
3/27/2021 12:30:00 AM 13.35 56.03 0.324 7.31 8.05 8.79
3/27/2021 12:45:00 AM 13.92 57.056 0.34 7.67 8.87 9.23
3/27/2021 1:00:00 AM 13.92 57.056 0.342 7.71 8.67 9.31
3/27/2021 1:15:00 AM 13.84 56.912 0.342 7.72 8.06 9.36
3/27/2021 1:30:00 AM 13.74 56.732 0.343 7.71 8.59 9.31
3/27/2021 1:45:00 AM 13.64 56.552 0.343 7.71 8.29 9.33
3/27/2021 2:00:00 AM 13.53 56.354 0.343 7.7 8.63 9.33
3/27/2021 2:15:00 AM 13.42 56.156 0.343 7.7 8.48 9.38
3/27/2021 2:30:00 AM 13.32 55.976 0.344 7.7 8.76 9.38
3/27/2021 2:45:00 AM 13.21 55.778 0.344 7.69 8.79 9.38
3/27/2021 3:00:00 AM 13.11 55.598 0.344 7.68 9 9.43
3/27/2021 3:15:00 AM 13.01 55.418 0.344 7.68 8.94 9.49
3/27/2021 3:30:00 AM 12.91 55.238 0.345 7.68 9.1 9.5
3/27/2021 3:45:00 AM 12.81 55.058 0.345 7.68 9.24 9.5
3/27/2021 4:00:00 AM 12.71 54.878 0.345 7.67 9.18 9.53
3/27/2021 4:15:00 AM 12.61 54.698 0.345 7.67 9.21 9.59
3/27/2021 4:30:00 AM 12.51 54.518 0.345 7.67 9.25 9.59
3/27/2021 4:45:00 AM 12.4 54.32 0.345 7.66 9.26 9.61
3/27/2021 5:00:00 AM 12.3 54.14 0.346 7.67 9.25 9.62
3/27/2021 5:15:00 AM 12.19 53.942 0.346 7.66 9.26 9.62
3/27/2021 5:30:00 AM 12.09 53.762 0.346 7.66 9.09 9.69
3/27/2021 5:45:00 AM 11.99 53.582 0.346 7.66 8.78 9.71
3/27/2021 6:00:00 AM 11.89 53.402 0.346 7.66 9.26 9.71
3/27/2021 6:15:00 AM 11.78 53.204 0.346 7.66 8.92 9.79
3/27/2021 6:30:00 AM 11.68 53.024 0.346 7.66 9.24 9.83
3/27/2021 6:45:00 AM 11.58 52.844 0.347 7.65 8.92 9.84
3/27/2021 7:00:00 AM 11.49 52.682 0.347 7.65 8.77 9.88
3/27/2021 7:15:00 AM 11.39 52.502 0.347 7.66 8.62 9.87
3/27/2021 7:30:00 AM 11.31 52.358 0.347 7.66 8.47 9.91
3/27/2021 7:45:00 AM 11.23 52.214 0.347 7.66 8.07 9.99
3/27/2021 8:00:00 AM 11.17 52.106 0.347 7.67 8.22 10.02
3/27/2021 8:15:00 AM 11.14 52.052 0.347 7.67 7.41 10.13
3/27/2021 8:30:00 AM 11.12 52.016 0.347 7.68 7.61 10.25
3/27/2021 8:45:00 AM 11.12 52.016 0.347 7.7 7.53 10.31
3/27/2021 9:00:00 AM 11.12 52.016 0.347 7.71 7.62 10.48
3/27/2021 9:15:00 AM 11.12 52.016 0.347 7.73 7.51 10.49
3/27/2021 9:30:00 AM 11.13 52.034 0.347 7.74 7.1 10.72
3/27/2021 9:45:00 AM 11.15 52.07 0.347 7.76 7.51 10.83
3/27/2021 10:00:00 AM 11.19 52.142 0.347 7.77 7.33 10.95
3/27/2021 10:15:00 AM 11.26 52.268 0.347 7.79 7.28 11.03
3/27/2021 10:30:00 AM 11.36 52.448 0.347 7.81 7.73 11.19
3/27/2021 10:45:00 AM 11.47 52.646 0.347 7.83 7.28 11.22
3/27/2021 11:00:00 AM 10.07 50.126 0.302 6.82 5.82 9.83
3/27/2021 11:15:00 AM 11.51 52.718 0.341 7.73 6.46 11.19
3/27/2021 11:30:00 AM 11.81 53.258 0.346 7.87 6.51 11.4
3/27/2021 11:45:00 AM 11.98 53.564 0.347 7.9 6.86 11.53
3/27/2021 12:00:00 PM 12.13 53.834 0.347 7.93 7.12 11.65
3/27/2021 12:15:00 PM 12.3 54.14 0.347 7.95 7.32 11.69
3/27/2021 12:30:00 PM 12.48 54.464 0.347 7.96 6.68 11.73
3/27/2021 12:45:00 PM 12.65 54.77 0.347 7.99 6.38 11.76
3/27/2021 1:00:00 PM 12.84 55.112 0.347 8.01 6.2 11.85
3/27/2021 1:15:00 PM 13.02 55.436 0.347 8.03 6.26 11.84
3/27/2021 1:30:00 PM 13.18 55.724 0.347 8.04 6.86 11.82
3/27/2021 1:45:00 PM 13.32 55.976 0.347 8.07 7.71 11.86
3/27/2021 2:00:00 PM 13.42 56.156 0.347 8.07 6.71 11.86
3/27/2021 2:15:00 PM 13.53 56.354 0.347 8.1 6.2 11.87
3/27/2021 2:30:00 PM 13.61 56.498 0.347 8.11 6.02 11.89
3/27/2021 2:45:00 PM 13.67 56.606 0.347 8.12 6.13 11.87
3/27/2021 3:00:00 PM 13.75 56.75 0.347 8.13 6.18 11.89
3/27/2021 3:15:00 PM 13.82 56.876 0.347 8.14 6.39 11.83
3/27/2021 3:30:00 PM 13.89 57.002 0.347 8.15 6.26 11.76
3/27/2021 3:45:00 PM 13.93 57.074 0.347 8.16 6.36 11.74
3/27/2021 4:00:00 PM 13.95 57.11 0.347 8.15 6.26 11.75
3/27/2021 4:15:00 PM 13.95 57.11 0.347 8.15 6.37 11.62
3/27/2021 4:30:00 PM 13.95 57.11 0.347 8.14 6.45 11.53
3/27/2021 4:45:00 PM 13.96 57.128 0.347 8.13 6.58 11.45
3/27/2021 5:00:00 PM 13.98 57.164 0.347 8.12 6.84 11.43
3/27/2021 5:15:00 PM 12.15 53.87 0.302 7.03 5.3 9.84
3/27/2021 5:30:00 PM 13.78 56.804 0.341 7.96 6.35 11.01
3/27/2021 5:45:00 PM 14 57.2 0.346 8.07 6.44 11.1
3/27/2021 6:00:00 PM 14.03 57.254 0.347 8.07 6.37 11.01
3/27/2021 6:15:00 PM 14.01 57.218 0.347 8.06 6.43 10.93
3/27/2021 6:30:00 PM 14 57.2 0.347 8.03 6.55 10.84
3/27/2021 6:45:00 PM 13.97 57.146 0.348 8.01 6.59 10.73
3/27/2021 7:00:00 PM 13.95 57.11 0.348 7.99 6.86 10.57
3/27/2021 7:15:00 PM 13.93 57.074 0.348 7.97 7.27 10.48
3/27/2021 7:30:00 PM 13.9 57.02 0.348 7.95 6.81 10.36
3/27/2021 7:45:00 PM 13.87 56.966 0.348 7.92 6.65 10.31
3/27/2021 8:00:00 PM 13.84 56.912 0.348 7.91 6.79 10.21
3/27/2021 8:15:00 PM 13.81 56.858 0.348 7.9 7.02 10.15
3/27/2021 8:30:00 PM 13.78 56.804 0.348 7.89 6.77 10.09
3/27/2021 8:45:00 PM 13.74 56.732 0.348 7.87 6.86 10.03
3/27/2021 9:00:00 PM 13.7 56.66 0.348 7.86 6.79 9.97
3/27/2021 9:15:00 PM 13.67 56.606 0.348 7.85 6.79 9.96
3/27/2021 9:30:00 PM 13.64 56.552 0.348 7.83 6.36 9.86
3/27/2021 9:45:00 PM 13.6 56.48 0.348 7.83 6.81 9.83
3/27/2021 10:00:00 PM 13.56 56.408 0.348 7.82 6.89 9.8
3/27/2021 10:15:00 PM 13.53 56.354 0.348 7.81 7.01 9.72
3/27/2021 10:30:00 PM 13.49 56.282 0.348 7.8 7.19 9.74
3/27/2021 10:45:00 PM 13.46 56.228 0.348 7.79 7.21 9.71
3/27/2021 11:00:00 PM 13.42 56.156 0.348 7.79 7.23 9.69
3/27/2021 11:15:00 PM 13.39 56.102 0.348 7.78 7.32 9.62
3/27/2021 11:30:00 PM 13.36 56.048 0.348 7.78 7.13 9.63
3/27/2021 11:45:00 PM 13.32 55.976 0.348 7.77 7.19 9.63
3/28/2021 12:00:00 AM 13.28 55.904 0.348 7.76 7.76 9.6
3/28/2021 12:15:00 AM 13.24 55.832 0.348 7.76 7.15 9.55
3/28/2021 12:30:00 AM 13.2 55.76 0.348 7.75 7.74 9.57
3/28/2021 12:45:00 AM 13.16 55.688 0.348 7.75 7.26 9.55
3/28/2021 1:00:00 AM 13.12 55.616 0.348 7.75 7.46 9.58
3/28/2021 1:15:00 AM 11.33 52.394 0.303 6.71 6.35 8.27
3/28/2021 1:30:00 AM 12.81 55.058 0.342 7.6 6.99 9.4
3/28/2021 1:45:00 AM 12.97 55.346 0.347 7.71 7.34 9.55
3/28/2021 2:00:00 AM 12.95 55.31 0.348 7.73 7.43 9.55
3/28/2021 2:15:00 AM 12.91 55.238 0.348 7.73 7.66 9.56
3/28/2021 2:30:00 AM 12.88 55.184 0.348 7.73 7.8 9.55
3/28/2021 2:45:00 AM 12.84 55.112 0.348 7.72 7.64 9.55
3/28/2021 3:00:00 AM 12.81 55.058 0.349 7.72 7.76 9.55
3/28/2021 3:15:00 AM 12.77 54.986 0.349 7.72 7.67 9.56
3/28/2021 3:30:00 AM 11.05 51.89 0.304 6.69 6.48 8.25
3/28/2021 3:45:00 AM 12.46 54.428 0.343 7.58 7.57 9.36
3/28/2021 4:00:00 AM 12.62 54.716 0.348 7.69 7.86 9.52
3/28/2021 4:15:00 AM 12.61 54.698 0.349 7.71 8.07 9.53
3/28/2021 4:30:00 AM 12.58 54.644 0.349 7.7 7.85 9.55
3/28/2021 4:45:00 AM 12.55 54.59 0.349 7.71 7.74 9.57
3/28/2021 5:00:00 AM 12.53 54.554 0.349 7.7 7.69 9.54
3/28/2021 5:15:00 AM 12.5 54.5 0.35 7.7 7.87 9.57
3/28/2021 5:30:00 AM 12.47 54.446 0.35 7.7 7.77 9.55
3/28/2021 5:45:00 AM 12.43 54.374 0.35 7.7 7.95 9.6
3/28/2021 6:00:00 AM 12.39 54.302 0.35 7.7 7.99 9.61
3/28/2021 6:15:00 AM 12.36 54.248 0.35 7.7 8.23 9.6
3/28/2021 6:30:00 AM 12.32 54.176 0.35 7.7 8.04 9.63
3/28/2021 6:45:00 AM 12.29 54.122 0.35 7.7 8.01 9.64
3/28/2021 7:00:00 AM 12.26 54.068 0.35 7.7 8.08 9.64
3/28/2021 7:15:00 AM 12.23 54.014 0.35 7.7 7.66 9.64
3/28/2021 7:30:00 AM 12.2 53.96 0.35 7.7 7.72 9.65
3/28/2021 7:45:00 AM 12.16 53.888 0.348 7.7 8.32 9.7
3/28/2021 8:00:00 AM 12.13 53.834 0.347 7.69 8.38 9.69
3/28/2021 8:15:00 AM 12.1 53.78 0.346 7.7 9.05 9.72
3/28/2021 8:30:00 AM 12.07 53.726 0.346 7.7 8.84 9.74
3/28/2021 8:45:00 AM 12.04 53.672 0.346 7.7 8.4 9.79
3/28/2021 9:00:00 AM 12.02 53.636 0.346 7.7 8.06 9.82
3/28/2021 9:15:00 AM 12 53.6 0.346 7.7 7.62 9.82
3/28/2021 9:30:00 AM 11.97 53.546 0.346 7.71 7.49 9.88
3/28/2021 9:45:00 AM 11.95 53.51 0.346 7.71 7.38 9.93
3/28/2021 10:00:00 AM 11.93 53.474 0.345 7.71 7.53 9.95
3/28/2021 10:15:00 AM 11.9 53.42 0.344 7.71 7.8 9.95
3/28/2021 10:30:00 AM 11.87 53.366 0.343 7.72 8.88 10.01
3/28/2021 10:45:00 AM 11.85 53.33 0.343 7.72 8.64 9.98
3/28/2021 11:00:00 AM 11.83 53.294 0.342 7.72 9.67 10.03
3/28/2021 11:15:00 AM 11.81 53.258 0.34 7.73 9.58 10.1
3/28/2021 11:30:00 AM 11.8 53.24 0.34 7.73 9.07 10.15
3/28/2021 11:45:00 AM 11.79 53.222 0.339 7.74 9.26 10.2
3/28/2021 12:00:00 PM 11.78 53.204 0.339 7.74 9.32 10.2
3/28/2021 12:15:00 PM 11.77 53.186 0.338 7.75 9.56 10.24
3/28/2021 12:30:00 PM 11.76 53.168 0.337 7.75 9.7 10.25
3/28/2021 12:45:00 PM 11.74 53.132 0.336 7.76 10.15 10.3
3/28/2021 1:00:00 PM 11.73 53.114 0.336 7.76 11.17 10.31
3/28/2021 1:15:00 PM 11.73 53.114 0.335 7.76 12.05 10.31
3/28/2021 1:30:00 PM 11.73 53.114 0.333 7.77 12.58 10.37
3/28/2021 1:45:00 PM 11.74 53.132 0.332 7.78 12.3 10.41
3/28/2021 2:00:00 PM 11.76 53.168 0.331 7.79 13.42 10.47
3/28/2021 2:15:00 PM 11.78 53.204 0.329 7.8 14.61 10.51
3/28/2021 2:30:00 PM 11.81 53.258 0.328 7.8 82.6 10.55
3/28/2021 2:45:00 PM 11.86 53.348 0.327 7.81 26.84 10.58
3/28/2021 3:00:00 PM 11.93 53.474 0.325 7.82 21.71 10.62
3/28/2021 3:15:00 PM 11.99 53.582 0.323 7.84 24.18 10.64
3/28/2021 3:30:00 PM 12.02 53.636 0.322 7.84 25.34 10.66
3/28/2021 3:45:00 PM 12.01 53.618 0.32 7.83 25.06 10.57
3/28/2021 4:00:00 PM 12.02 53.636 0.317 7.83 25.9 10.52
3/28/2021 4:15:00 PM 12.05 53.69 0.315 7.83 25 10.52
3/28/2021 4:30:00 PM 12.1 53.78 0.313 7.83 43.34 10.54
3/28/2021 4:45:00 PM 12.13 53.834 0.31 7.82 29.72 10.49
3/28/2021 5:00:00 PM 12.14 53.852 0.308 7.81 1632.44 10.41
3/28/2021 5:15:00 PM 12.15 53.87 0.305 7.8 291.17 10.35
3/28/2021 5:30:00 PM 12.17 53.906 0.302 7.79 70.49 10.32
3/28/2021 5:45:00 PM 12.18 53.924 0.298 7.78 114.19 10.24
3/28/2021 6:00:00 PM 12.17 53.906 0.295 7.77 54.79 10.21
3/28/2021 6:15:00 PM 12.17 53.906 0.293 7.76 43.47 10.17
3/28/2021 6:30:00 PM 12.18 53.924 0.292 7.75 63.85 10.16
3/28/2021 6:45:00 PM 12.17 53.906 0.291 7.75 44.79 10.15
3/28/2021 7:00:00 PM 12.17 53.906 0.289 7.74 41.9 10.12
3/28/2021 7:15:00 PM 12.16 53.888 0.288 7.73 40.79 10.12
3/28/2021 7:30:00 PM 12.13 53.834 0.286 7.73 40.63 10.1
3/28/2021 7:45:00 PM 12.11 53.798 0.284 7.71 39.93 10.07
3/28/2021 8:00:00 PM 12.09 53.762 0.284 7.7 39.93 10.04
3/28/2021 8:15:00 PM 12.07 53.726 0.283 7.7 41.05 10.01
3/28/2021 8:30:00 PM 12.04 53.672 0.283 7.69 72.7 10
3/28/2021 8:45:00 PM 12.02 53.636 0.283 7.69 68.59 9.97
3/28/2021 9:00:00 PM 11.99 53.582 0.283 7.69 68.24 9.93
3/28/2021 9:15:00 PM 11.95 53.51 0.284 7.69 60.35 9.91
3/28/2021 9:30:00 PM 11.92 53.456 0.284 7.69 51.63 9.9
3/28/2021 9:45:00 PM 11.89 53.402 0.284 7.68 47.83 9.87
3/28/2021 10:00:00 PM 11.85 53.33 0.283 7.68 44.94 9.88
3/28/2021 10:15:00 PM 11.8 53.24 0.282 7.68 44.82 9.86
3/28/2021 10:30:00 PM 11.74 53.132 0.281 7.67 44.3 9.85
3/28/2021 10:45:00 PM 11.68 53.024 0.279 7.67 44.81 9.87
3/28/2021 11:00:00 PM 11.64 52.952 0.278 7.66 46.5 9.85
3/28/2021 11:15:00 PM 11.6 52.88 0.277 7.66 1954.76 9.87
3/28/2021 11:30:00 PM 11.53 52.754 0.276 7.66 353.79 9.88
3/28/2021 11:45:00 PM 11.46 52.628 0.275 7.66 3206.37 9.88
3/29/2021 12:00:00 AM 11.39 52.502 0.273 7.65 490.04 9.91
3/29/2021 12:15:00 AM 11.32 52.376 0.273 7.65 121.38 9.9
3/29/2021 12:30:00 AM 11.24 52.232 0.272 7.65 72.65 9.94
3/29/2021 12:45:00 AM 11.16 52.088 0.272 7.65 65.2 9.94
3/29/2021 1:00:00 AM 11.08 51.944 0.272 7.64 63.65 9.97
3/29/2021 1:15:00 AM 10.99 51.782 0.272 7.64 62.32 9.95
3/29/2021 1:30:00 AM 10.9 51.62 0.273 7.64 61.13 9.99
3/29/2021 1:45:00 AM 10.8 51.44 0.274 7.63 59.95 10.01
3/29/2021 2:00:00 AM 10.72 51.296 0.274 7.63 60.16 10.02
3/29/2021 2:15:00 AM 10.65 51.17 0.275 7.63 60.69 10.04
3/29/2021 2:30:00 AM 10.58 51.044 0.276 7.63 59.58 10.08
3/29/2021 2:45:00 AM 10.5 50.9 0.276 7.63 58.91 10.08
3/29/2021 3:00:00 AM 10.41 50.738 0.277 7.62 57.33 10.11
3/29/2021 3:15:00 AM 10.31 50.558 0.278 7.61 55.14 10.15
3/29/2021 3:30:00 AM 10.23 50.414 0.278 7.62 53.74 10.18
3/29/2021 3:45:00 AM 10.15 50.27 0.279 7.62 51.13 10.2
3/29/2021 4:00:00 AM 10.07 50.126 0.279 7.62 48.82 10.23
3/29/2021 4:15:00 AM 9.99 49.982 0.28 7.62 46.71 10.26
3/29/2021 4:30:00 AM 9.92 49.856 0.28 7.62 45.89 10.3
3/29/2021 4:45:00 AM 9.85 49.73 0.281 7.62 43.26 10.28
3/29/2021 5:00:00 AM 9.78 49.604 0.282 7.61 42.67 10.35
3/29/2021 5:15:00 AM 9.71 49.478 0.283 7.61 42.31 10.37
3/29/2021 5:30:00 AM 9.63 49.334 0.284 7.62 41.64 10.42
3/29/2021 5:45:00 AM 9.57 49.226 0.286 7.62 41.85 10.42
3/29/2021 6:00:00 AM 9.5 49.1 0.287 7.62 41.24 10.47
3/29/2021 6:15:00 AM 9.43 48.974 0.289 7.62 40.14 10.5
3/29/2021 6:30:00 AM 9.36 48.848 0.289 7.62 39.15 10.52
3/29/2021 6:45:00 AM 9.28 48.704 0.29 7.61 39.08 10.52
3/29/2021 7:00:00 AM 9.22 48.596 0.292 7.61 38.04 10.57
3/29/2021 7:15:00 AM 9.16 48.488 0.293 7.62 36.29 10.61
3/29/2021 7:30:00 AM 9.1 48.38 0.293 7.62 35.76 10.65
3/29/2021 7:45:00 AM 9.03 48.254 0.294 7.61 34.91 10.67
3/29/2021 8:00:00 AM 8.98 48.164 0.295 7.62 33.39 10.71
3/29/2021 8:15:00 AM 8.93 48.074 0.296 7.62 32.15 10.77
3/29/2021 8:30:00 AM 8.9 48.02 0.297 7.62 31.04 10.8
3/29/2021 8:45:00 AM 8.86 47.948 0.297 7.63 30.07 10.9
3/29/2021 9:00:00 AM 8.83 47.894 0.298 7.64 28.35 10.94
3/29/2021 9:15:00 AM 8.8 47.84 0.299 7.64 27.28 10.96
3/29/2021 9:30:00 AM 8.78 47.804 0.3 7.64 26.26 11.06
3/29/2021 9:45:00 AM 8.76 47.768 0.301 7.64 24.86 11.13
3/29/2021 10:00:00 AM 8.78 47.804 0.302 7.65 24.19 11.19
3/29/2021 10:15:00 AM 8.82 47.876 0.303 7.66 23.63 11.26
3/29/2021 10:30:00 AM 8.88 47.984 0.304 7.67 22.67 11.27
3/29/2021 10:45:00 AM 8.93 48.074 0.305 7.68 21.77 11.32
3/29/2021 11:00:00 AM 8.92 48.056 0.305 7.69 20.77 11.36
3/29/2021 11:15:00 AM 9.02 48.236 0.307 7.7 20.1 11.36
3/29/2021 11:30:00 AM 9.14 48.452 0.308 7.71 19.59 11.5
3/29/2021 11:45:00 AM 9.27 48.686 0.309 7.72 18.85 11.5
3/29/2021 12:00:00 PM 9.4 48.92 0.309 7.73 18.22 11.55
3/29/2021 12:15:00 PM 9.6 49.28 0.31 7.75 17.62 11.61
3/29/2021 12:30:00 PM 9.76 49.568 0.311 7.77 17.51 11.61
3/29/2021 12:45:00 PM 9.9 49.82 0.312 7.78 16.23 11.65
3/29/2021 1:00:00 PM 10.1 50.18 0.313 7.8 16.25 11.71
3/29/2021 1:15:00 PM 8.93 48.074 0.274 6.78 12.98 10.16
3/29/2021 1:30:00 PM 10.21 50.378 0.31 7.68 14.42 11.5
3/29/2021 1:45:00 PM 10.5 50.9 0.315 7.82 14.16 11.72
3/29/2021 2:00:00 PM 10.68 51.224 0.316 7.84 14.25 11.75
3/29/2021 2:15:00 PM 10.84 51.512 0.317 7.86 13.8 11.76
3/29/2021 2:30:00 PM 10.95 51.71 0.318 7.87 13.51 11.78
3/29/2021 2:45:00 PM 11.06 51.908 0.318 7.88 13.2 11.77
3/29/2021 3:00:00 PM 11.17 52.106 0.319 7.89 13.16 11.74
3/29/2021 3:15:00 PM 11.28 52.304 0.32 7.89 12.74 11.72
3/29/2021 3:30:00 PM 11.38 52.484 0.32 7.91 12.28 11.73
3/29/2021 3:45:00 PM 11.47 52.646 0.321 7.91 12.07 11.73
3/29/2021 4:00:00 PM 11.54 52.772 0.321 7.91 11.61 11.7
3/29/2021 4:15:00 PM 11.59 52.862 0.322 7.92 11.22 11.64
3/29/2021 4:30:00 PM 11.64 52.952 0.322 7.92 10.94 11.6
3/29/2021 4:45:00 PM 11.68 53.024 0.322 7.92 10.62 11.6
3/29/2021 5:00:00 PM 11.73 53.114 0.323 7.92 10.62 11.53
3/29/2021 5:15:00 PM 11.76 53.168 0.323 7.92 10.33 11.47
3/29/2021 5:30:00 PM 11.79 53.222 0.324 7.92 10.11 11.38
3/29/2021 5:45:00 PM 11.81 53.258 0.324 7.91 10.14 11.33
3/29/2021 6:00:00 PM 11.81 53.258 0.324 7.9 10.4 11.25
3/29/2021 6:15:00 PM 11.79 53.222 0.325 7.89 9.71 11.16
3/29/2021 6:30:00 PM 11.77 53.186 0.325 7.88 9.98 11.13
3/29/2021 6:45:00 PM 11.74 53.132 0.326 7.87 9.99 11.06
3/29/2021 7:00:00 PM 11.72 53.096 0.326 7.86 9.57 11.01
3/29/2021 7:15:00 PM 11.69 53.042 0.326 7.85 9.5 10.92
3/29/2021 7:30:00 PM 11.64 52.952 0.327 7.84 9.99 10.82
3/29/2021 7:45:00 PM 11.6 52.88 0.327 7.83 9.45 10.76
3/29/2021 8:00:00 PM 11.54 52.772 0.327 7.82 10.1 10.72
3/29/2021 8:15:00 PM 11.49 52.682 0.328 7.81 10 10.66
3/29/2021 8:30:00 PM 11.44 52.592 0.328 7.8 10.27 10.59
3/29/2021 8:45:00 PM 11.39 52.502 0.328 7.79 10.1 10.54
3/29/2021 9:00:00 PM 11.34 52.412 0.328 7.78 10.11 10.53
3/29/2021 9:15:00 PM 11.29 52.322 0.329 7.77 10.18 10.48
3/29/2021 9:30:00 PM 11.24 52.232 0.329 7.77 9.85 10.47
3/29/2021 9:45:00 PM 11.19 52.142 0.329 7.76 9.75 10.45
3/29/2021 10:00:00 PM 11.13 52.034 0.33 7.75 9.47 10.43
3/29/2021 10:15:00 PM 11.07 51.926 0.33 7.75 10.15 10.38
3/29/2021 10:30:00 PM 11.02 51.836 0.33 7.74 9.93 10.39
3/29/2021 10:45:00 PM 10.96 51.728 0.331 7.74 9.65 10.4
3/29/2021 11:00:00 PM 10.9 51.62 0.331 7.73 9.42 10.38
3/29/2021 11:15:00 PM 10.84 51.512 0.331 7.73 9.85 10.34
3/29/2021 11:30:00 PM 10.78 51.404 0.332 7.72 10 10.37
3/29/2021 11:45:00 PM 10.71 51.278 0.332 7.72 9.79 10.38
3/30/2021 12:00:00 AM 10.64 51.152 0.332 7.71 9.43 10.38
3/30/2021 12:15:00 AM 10.56 51.008 0.332 7.71 9.71 10.38
3/30/2021 12:30:00 AM 10.48 50.864 0.333 7.7 9.41 10.4
3/30/2021 12:45:00 AM 9.01 48.218 0.29 6.68 7.93 9.02
3/30/2021 1:00:00 AM 10.12 50.216 0.327 7.56 9.45 10.25
3/30/2021 1:15:00 AM 10.19 50.342 0.333 7.68 9.3 10.4
3/30/2021 1:30:00 AM 10.13 50.234 0.334 7.68 9.16 10.44
3/30/2021 1:45:00 AM 10.04 50.072 0.335 7.69 9.01 10.49
3/30/2021 2:00:00 AM 9.95 49.91 0.335 7.69 9.25 10.5
3/30/2021 2:15:00 AM 9.87 49.766 0.335 7.68 9.23 10.52
3/30/2021 2:30:00 AM 9.78 49.604 0.336 7.67 9.27 10.52
3/30/2021 2:45:00 AM 9.7 49.46 0.336 7.68 8.97 10.57
3/30/2021 3:00:00 AM 9.61 49.298 0.336 7.67 9.21 10.58
3/30/2021 3:15:00 AM 9.53 49.154 0.337 7.67 9.14 10.59
3/30/2021 3:30:00 AM 9.44 48.992 0.336 7.67 9.17 10.63
3/30/2021 3:45:00 AM 9.36 48.848 0.337 7.67 9.25 10.69
3/30/2021 4:00:00 AM 9.27 48.686 0.337 7.66 8.97 10.72
3/30/2021 4:15:00 AM 9.19 48.542 0.337 7.66 8.9 10.73
3/30/2021 4:30:00 AM 9.1 48.38 0.338 7.66 8.86 10.71
3/30/2021 4:45:00 AM 9.02 48.236 0.338 7.66 8.8 10.79
3/30/2021 5:00:00 AM 8.93 48.074 0.339 7.66 8.79 10.86
3/30/2021 5:15:00 AM 8.85 47.93 0.338 7.65 8.66 10.87
3/30/2021 5:30:00 AM 8.76 47.768 0.339 7.66 8.3 10.91
3/30/2021 5:45:00 AM 8.68 47.624 0.339 7.66 8.75 10.92
3/30/2021 6:00:00 AM 8.6 47.48 0.339 7.65 8.8 10.93
3/30/2021 6:15:00 AM 8.51 47.318 0.339 7.65 8.39 11
3/30/2021 6:30:00 AM 8.43 47.174 0.339 7.64 8.6 11.04
3/30/2021 6:45:00 AM 8.35 47.03 0.339 7.64 8.5 11.06
3/30/2021 7:00:00 AM 8.27 46.886 0.339 7.64 8.22 11.13
3/30/2021 7:15:00 AM 8.19 46.742 0.34 7.64 7.94 11.16
3/30/2021 7:30:00 AM 8.12 46.616 0.339 7.64 7.74 11.19
3/30/2021 7:45:00 AM 8.07 46.526 0.34 7.64 7.66 11.26
3/30/2021 8:00:00 AM 8.02 46.436 0.34 7.64 7.36 11.33
3/30/2021 8:15:00 AM 8 46.4 0.34 7.65 7.21 11.38
3/30/2021 8:30:00 AM 7.99 46.382 0.34 7.66 7.05 11.43
3/30/2021 8:45:00 AM 8 46.4 0.34 7.67 6.53 11.52
3/30/2021 9:00:00 AM 8.03 46.454 0.34 7.67 6.38 11.62
3/30/2021 9:15:00 AM 8.07 46.526 0.34 7.68 6.29 11.68
3/30/2021 9:30:00 AM 8.12 46.616 0.34 7.69 6.68 11.75
3/30/2021 9:45:00 AM 8.19 46.742 0.341 7.71 6.22 11.83
3/30/2021 10:00:00 AM 8.27 46.886 0.34 7.72 6.1 11.88
3/30/2021 10:15:00 AM 8.38 47.084 0.34 7.73 5.85 11.98
3/30/2021 10:30:00 AM 8.49 47.282 0.34 7.74 5.76 11.98
3/30/2021 10:45:00 AM 8.62 47.516 0.34 7.75 5.62 12.09
3/30/2021 11:00:00 AM 8.75 47.75 0.34 7.77 5.7 12.09
3/30/2021 11:15:00 AM 8.9 48.02 0.34 7.78 5.69 12.11
3/30/2021 11:30:00 AM 9.07 48.326 0.34 7.79 5.45 12.12
3/30/2021 11:45:00 AM 9.25 48.65 0.34 7.81 5.51 12.18
3/30/2021 12:00:00 PM 9.44 48.992 0.34 7.81 5.33 12.19
3/30/2021 12:15:00 PM 9.64 49.352 0.34 7.83 5.2 12.17
3/30/2021 12:30:00 PM 9.85 49.73 0.34 7.85 5.22 12.12
3/30/2021 12:45:00 PM 10.06 50.108 0.34 7.87 5.19 12.19
3/30/2021 1:00:00 PM 10.27 50.486 0.34 7.89 5 12.15
3/30/2021 1:15:00 PM 10.48 50.864 0.339 7.9 5.1 12.15
3/30/2021 1:30:00 PM 10.68 51.224 0.339 7.91 5.11 12.18
3/30/2021 1:45:00 PM 10.87 51.566 0.339 7.93 5.11 12.19
3/30/2021 2:00:00 PM 11.05 51.89 0.339 7.94 5.07 12.16
3/30/2021 2:15:00 PM 11.22 52.196 0.339 7.95 5.18 12.14
3/30/2021 2:30:00 PM 11.37 52.466 0.34 7.96 5.09 12.08
3/30/2021 2:45:00 PM 11.51 52.718 0.34 7.97 5.48 12.09
3/30/2021 3:00:00 PM 11.65 52.97 0.34 7.97 5.64 12.04
3/30/2021 3:15:00 PM 11.78 53.204 0.34 7.98 5.37 12.02
3/30/2021 3:30:00 PM 11.91 53.438 0.34 7.99 5.36 11.99
3/30/2021 3:45:00 PM 12.01 53.618 0.34 7.99 5.21 11.95
3/30/2021 4:00:00 PM 12.11 53.798 0.34 8 5.05 11.9
3/30/2021 4:15:00 PM 12.19 53.942 0.34 8 5 11.85
3/30/2021 4:30:00 PM 12.26 54.068 0.34 8 4.91 11.81
3/30/2021 4:45:00 PM 12.33 54.194 0.339 8.01 5.02 11.71
3/30/2021 5:00:00 PM 12.39 54.302 0.339 8 4.87 11.66
3/30/2021 5:15:00 PM 12.44 54.392 0.339 8 5.11 11.59
3/30/2021 5:30:00 PM 12.49 54.482 0.339 8 5.16 11.48
3/30/2021 5:45:00 PM 12.53 54.554 0.339 7.99 5.2 11.39
3/30/2021 6:00:00 PM 12.56 54.608 0.34 7.98 5.3 11.35
3/30/2021 6:15:00 PM 12.6 54.68 0.339 7.97 5.29 11.24
3/30/2021 6:30:00 PM 12.61 54.698 0.339 7.96 5.31 11.15
3/30/2021 6:45:00 PM 12.61 54.698 0.34 7.95 5.62 11.06
3/30/2021 7:00:00 PM 12.59 54.662 0.34 7.93 5.78 10.92
3/30/2021 7:15:00 PM 12.57 54.626 0.339 7.91 5.72 10.83
3/30/2021 7:30:00 PM 12.55 54.59 0.34 7.9 5.68 10.75
3/30/2021 7:45:00 PM 12.53 54.554 0.34 7.88 5.88 10.64
3/30/2021 8:00:00 PM 12.5 54.5 0.339 7.87 6.33 10.59
3/30/2021 8:15:00 PM 12.48 54.464 0.339 7.86 6.58 10.51
3/30/2021 8:30:00 PM 12.45 54.41 0.339 7.85 6.59 10.42
3/30/2021 8:45:00 PM 12.43 54.374 0.339 7.84 6.68 10.38
3/30/2021 9:00:00 PM 12.4 54.32 0.339 7.84 6.75 10.34
3/30/2021 9:15:00 PM 12.37 54.266 0.339 7.82 6.82 10.28
3/30/2021 9:30:00 PM 12.35 54.23 0.339 7.81 6.94 10.26
3/30/2021 9:45:00 PM 12.32 54.176 0.339 7.81 7.07 10.2
3/30/2021 10:00:00 PM 12.3 54.14 0.339 7.8 7.4 10.16
3/30/2021 10:15:00 PM 12.28 54.104 0.339 7.79 7.69 10.15
3/30/2021 10:30:00 PM 12.26 54.068 0.34 7.78 7.87 10.09
3/30/2021 10:45:00 PM 12.24 54.032 0.34 7.78 7.9 10.09
3/30/2021 11:00:00 PM 12.22 53.996 0.341 7.77 8.43 10.04
3/30/2021 11:15:00 PM 12.19 53.942 0.341 7.77 8.3 10.04
3/30/2021 11:30:00 PM 12.17 53.906 0.341 7.76 8.16 9.9
3/30/2021 11:45:00 PM 12.15 53.87 0.341 7.76 8.01 9.97
3/31/2021 12:00:00 AM 12.12 53.816 0.341 7.76 7.99 9.96
3/31/2021 12:15:00 AM 12.1 53.78 0.341 7.75 7.78 9.97
3/31/2021 12:30:00 AM 12.06 53.708 0.341 7.75 7.8 9.97
3/31/2021 12:45:00 AM 12.03 53.654 0.341 7.75 7.92 9.95
3/31/2021 1:00:00 AM 11.99 53.582 0.341 7.74 7.85 9.96
3/31/2021 1:15:00 AM 11.95 53.51 0.341 7.74 8.02 9.99
3/31/2021 1:30:00 AM 11.91 53.438 0.341 7.74 7.96 9.92
3/31/2021 1:45:00 AM 11.87 53.366 0.341 7.73 8.11 9.94
3/31/2021 2:00:00 AM 11.82 53.276 0.341 7.73 8.11 9.94
3/31/2021 2:15:00 AM 11.77 53.186 0.342 7.73 8.1 9.97
3/31/2021 2:30:00 AM 11.72 53.096 0.342 7.73 7.84 9.94
3/31/2021 2:45:00 AM 11.66 52.988 0.342 7.73 7.85 9.94
3/31/2021 3:00:00 AM 11.61 52.898 0.342 7.72 8.05 9.94
3/31/2021 3:15:00 AM 11.56 52.808 0.342 7.72 8.2 9.92
3/31/2021 3:30:00 AM 11.5 52.7 0.342 7.72 8.17 9.94
3/31/2021 3:45:00 AM 11.45 52.61 0.342 7.71 7.95 9.94
3/31/2021 4:00:00 AM 11.39 52.502 0.342 7.71 8.09 9.94
3/31/2021 4:15:00 AM 11.35 52.43 0.342 7.71 8.03 9.99
3/31/2021 4:30:00 AM 11.3 52.34 0.342 7.71 8.27 9.96
3/31/2021 4:45:00 AM 11.25 52.25 0.342 7.71 7.99 9.98
3/31/2021 5:00:00 AM 11.2 52.16 0.342 7.71 7.99 9.97
3/31/2021 5:15:00 AM 11.14 52.052 0.343 7.71 8.19 10
3/31/2021 5:30:00 AM 11.08 51.944 0.343 7.7 8.27 10.05
3/31/2021 5:45:00 AM 11.03 51.854 0.343 7.7 8.2 10.07
3/31/2021 6:00:00 AM 10.98 51.764 0.343 7.7 8 10.06
3/31/2021 6:15:00 AM 10.93 51.674 0.343 7.7 8.05 10.09
3/31/2021 6:30:00 AM 10.88 51.584 0.343 7.7 7.94 10.09
3/31/2021 6:45:00 AM 10.83 51.494 0.343 7.7 7.99 10.12
3/31/2021 7:00:00 AM 10.78 51.404 0.344 7.69 7.92 10.16
3/31/2021 7:15:00 AM 10.73 51.314 0.344 7.69 8.23 10.16
3/31/2021 7:30:00 AM 10.69 51.242 0.344 7.7 7.91 10.22
3/31/2021 7:45:00 AM 10.68 51.224 0.344 7.7 7.41 10.29
3/31/2021 8:00:00 AM 10.68 51.224 0.344 7.71 7.31 10.34
3/31/2021 8:15:00 AM 10.69 51.242 0.344 7.71 7.18 10.36
3/31/2021 8:30:00 AM 10.69 51.242 0.344 7.72 7.04 10.43
3/31/2021 8:45:00 AM 10.68 51.224 0.344 7.72 6.9 10.43
3/31/2021 9:00:00 AM 10.67 51.206 0.344 7.73 7.17 10.48
3/31/2021 9:15:00 AM 10.66 51.188 0.344 7.73 7.01 10.54
3/31/2021 9:30:00 AM 10.66 51.188 0.344 7.74 6.66 10.6
3/31/2021 9:45:00 AM 10.66 51.188 0.344 7.74 6.5 10.64
3/31/2021 10:00:00 AM 10.66 51.188 0.345 7.75 6.42 10.72
3/31/2021 10:15:00 AM 10.71 51.278 0.344 7.77 6.31 10.82
3/31/2021 10:30:00 AM 10.77 51.386 0.344 7.78 6.23 10.89
3/31/2021 10:45:00 AM 10.8 51.44 0.344 7.79 6.16 10.94
3/31/2021 11:00:00 AM 10.82 51.476 0.344 7.8 6.08 11.03
3/31/2021 11:15:00 AM 10.84 51.512 0.344 7.81 5.95 11.05
3/31/2021 11:30:00 AM 10.85 51.53 0.344 7.82 5.93 11.05
3/31/2021 11:45:00 AM 10.86 51.548 0.344 7.82 5.85 11.05
3/31/2021 12:00:00 PM 10.89 51.602 0.344